Darstellungsparameter: Aktuell verwendete Einstellungen:
Skalierung der Graphiken ... ?
xyx+y,   Skalierungsfaktor:      Skalierung: Modus: x, Faktor: 1
Darstellungszeitraum ... ?
Vom - - bis: - -   Zeitraum: 16.01.2020 - 22.01.2020
Min/Max/Avg-Anzeige ... ?
Zeige MMA aktuell
Zeige MMA Monat
Zeige MMA alles
Zeige --A aktuell
Zeige --A Monat
Zeige --A alles
Keine MMA-Anzeige
MMA:
Average (ber die Originaldaten)
MMA-Basis: 16.01.2020 - 22.01.2020
Quicknavigation für Darstellung... ?
Tage:      1T, 2T, 3T, 5T -1T -2T -3T -5T +1T +2T +3T +5T
Wochen: 1W, 2W, 3W -1W -2W -3W +1W +2W +3W
Monate: 1M, 3M, 6M -1M -3M -6M +1M +3M +6M
Jahre:    1J, 3J, 5J, 10J -1J -3J -5J -10J +1J +3J +5J +10J
Nutze für die Darstellung ... ?
Originaldaten oder Mittelwerte auf ...
Stundenbasis Tagesbasis Wochenbasis
Monatsbasis Jahresbasis      Datenbasis: Original-Daten
Darstellen als:
Statistik (Auto) Statistik J:M      Darstellung:
Zur Graphik,    zurück zur Übersicht aller Sensoren.
 
Tabellarische Datenbersicht: ?
 
Sensor: Nr:Datum:Temp:Abs-Feuchte:Windchill:Wind:
Aussen-T/F 1 16-01-2020 00:00:00 9.2 C 8.22 g/m*3 8.05 C 8.1 km/h
2 16-01-2020 00:05:00 9.3 C 8.27 g/m*3 7.58 C 11.3 km/h
3 16-01-2020 00:10:00 9.2 C 8.13 g/m*3 9.2 C 3.2 km/h
4 16-01-2020 00:15:00 9.1 C 8.07 g/m*3 9.1 C 1.6 km/h
5 16-01-2020 00:20:00 9.1 C 8.16 g/m*3 9.1 C 3.2 km/h
6 16-01-2020 00:25:00 9.3 C 8.27 g/m*3 8.16 C 8.1 km/h
7 16-01-2020 00:30:00 9.3 C 8.27 g/m*3 9.3 C 0 km/h
8 16-01-2020 00:35:00 9.3 C 8.27 g/m*3 9.3 C 0 km/h
9 16-01-2020 00:40:00 9.3 C 8.27 g/m*3 9.3 C 0 km/h
10 16-01-2020 00:45:00 9.3 C 8.27 g/m*3 9.3 C 0 km/h
11 16-01-2020 00:50:00 9.3 C 8.27 g/m*3 9.3 C 0 km/h
12 16-01-2020 00:55:00 9.4 C 8.32 g/m*3 9.4 C 0 km/h
13 16-01-2020 01:00:00 9.4 C 8.41 g/m*3 9.4 C 0 km/h
14 16-01-2020 01:05:00 9.4 C 8.41 g/m*3 9.4 C 1.6 km/h
15 16-01-2020 01:10:00 9.4 C 8.41 g/m*3 9.4 C 0 km/h
16 16-01-2020 01:15:00 9.4 C 8.41 g/m*3 9.4 C 4.8 km/h
17 16-01-2020 01:20:00 9.5 C 8.47 g/m*3 9.5 C 3.2 km/h
18 16-01-2020 01:25:00 9.5 C 8.47 g/m*3 9.5 C 1.6 km/h
19 16-01-2020 01:30:00 9.5 C 8.47 g/m*3 9.5 C 1.6 km/h
20 16-01-2020 01:35:00 9.6 C 8.52 g/m*3 9.6 C 1.6 km/h
21 16-01-2020 01:40:00 9.6 C 8.52 g/m*3 9.6 C 0 km/h
22 16-01-2020 01:45:00 9.6 C 8.52 g/m*3 9.6 C 0 km/h
23 16-01-2020 01:50:00 9.6 C 8.52 g/m*3 9.6 C 0 km/h
24 16-01-2020 01:55:00 9.5 C 8.47 g/m*3 9.5 C 0 km/h
25 16-01-2020 02:00:00 9.4 C 8.41 g/m*3 9.4 C 0 km/h
Sensor: Nr:Datum:Temp:Abs-Feuchte:Windchill:Wind:
Aussen-T/F 26 16-01-2020 02:05:00 9.4 C 8.41 g/m*3 9.4 C 0 km/h
27 16-01-2020 02:10:00 9.4 C 8.41 g/m*3 9.4 C 0 km/h
28 16-01-2020 02:15:00 9.4 C 8.41 g/m*3 9.4 C 0 km/h
29 16-01-2020 02:20:00 9.3 C 8.36 g/m*3 9.3 C 1.6 km/h
30 16-01-2020 02:25:00 9.3 C 8.36 g/m*3 9.3 C 0 km/h
31 16-01-2020 02:30:00 9.3 C 8.36 g/m*3 9.3 C 0 km/h
32 16-01-2020 02:35:00 9.3 C 8.36 g/m*3 9.3 C 0 km/h
33 16-01-2020 02:40:00 9.3 C 8.45 g/m*3 9.3 C 0 km/h
34 16-01-2020 02:45:00 9.4 C 8.5 g/m*3 9.4 C 0 km/h
35 16-01-2020 02:50:00 9.4 C 8.5 g/m*3 9.4 C 1.6 km/h
36 16-01-2020 02:55:00 9.4 C 8.5 g/m*3 9.4 C 0 km/h
37 16-01-2020 03:00:00 9.4 C 8.5 g/m*3 9.4 C 0 km/h
38 16-01-2020 03:05:00 9.4 C 8.5 g/m*3 9.4 C 0 km/h
39 16-01-2020 03:10:00 9.4 C 8.5 g/m*3 9.4 C 0 km/h
40 16-01-2020 03:15:00 9.4 C 8.5 g/m*3 9.4 C 0 km/h
41 16-01-2020 03:20:00 9.4 C 8.59 g/m*3 9.4 C 3.2 km/h
42 16-01-2020 03:25:00 9.4 C 8.59 g/m*3 9.4 C 0 km/h
43 16-01-2020 03:30:00 9.4 C 8.59 g/m*3 9.4 C 0 km/h
44 16-01-2020 03:35:00 9.4 C 8.59 g/m*3 9.4 C 0 km/h
45 16-01-2020 03:40:00 9.4 C 8.59 g/m*3 9.4 C 0 km/h
46 16-01-2020 03:45:00 9.4 C 8.59 g/m*3 9.4 C 3.2 km/h
47 16-01-2020 03:50:00 9.4 C 8.59 g/m*3 9.4 C 3.2 km/h
48 16-01-2020 03:55:00 9.4 C 8.59 g/m*3 9.4 C 0 km/h
49 16-01-2020 04:00:00 9.4 C 8.59 g/m*3 9.4 C 0 km/h
50 16-01-2020 04:05:00 9.4 C 8.59 g/m*3 9.4 C 0 km/h
Sensor: Nr:Datum:Temp:Abs-Feuchte:Windchill:Wind:
Aussen-T/F 51 16-01-2020 04:10:00 9.3 C 8.54 g/m*3 9.3 C 0 km/h
52 16-01-2020 04:15:00 9.3 C 8.54 g/m*3 9.3 C 0 km/h
53 16-01-2020 04:20:00 9.3 C 8.54 g/m*3 9.3 C 0 km/h
54 16-01-2020 04:25:00 9.3 C 8.54 g/m*3 9.3 C 0 km/h
55 16-01-2020 04:30:00 9.3 C 8.54 g/m*3 9.3 C 0 km/h
56 16-01-2020 04:35:00 9.3 C 8.54 g/m*3 9.3 C 0 km/h
57 16-01-2020 04:40:00 9.3 C 8.54 g/m*3 9.3 C 0 km/h
58 16-01-2020 04:45:00 9.2 C 8.48 g/m*3 9.2 C 0 km/h
59 16-01-2020 04:50:00 9.1 C 8.43 g/m*3 9.1 C 0 km/h
60 16-01-2020 04:55:00 9.1 C 8.43 g/m*3 9.1 C 0 km/h
61 16-01-2020 05:00:00 9.1 C 8.43 g/m*3 9.1 C 0 km/h
62 16-01-2020 05:05:00 9.1 C 8.52 g/m*3 9.1 C 3.2 km/h
63 16-01-2020 05:10:00 9.2 C 8.57 g/m*3 9.2 C 0 km/h
64 16-01-2020 05:15:00 9.1 C 8.52 g/m*3 9.1 C 0 km/h
65 16-01-2020 05:20:00 9.1 C 8.43 g/m*3 9.1 C 0 km/h
66 16-01-2020 05:25:00 9 C 8.38 g/m*3 9 C 0 km/h
67 16-01-2020 05:30:00 8.9 C 8.32 g/m*3 8.9 C 0 km/h
68 16-01-2020 05:35:00 8.8 C 8.27 g/m*3 8.8 C 0 km/h
69 16-01-2020 05:40:00 8.6 C 8.16 g/m*3 8.6 C 0 km/h
70 16-01-2020 05:45:00 8.4 C 8.06 g/m*3 8.4 C 0 km/h
71 16-01-2020 05:50:00 8.3 C 8.01 g/m*3 8.3 C 0 km/h
72 16-01-2020 05:55:00 8.4 C 8.14 g/m*3 8.4 C 0 km/h
73 16-01-2020 06:00:00 8.4 C 8.14 g/m*3 8.4 C 0 km/h
74 16-01-2020 06:05:00 8.6 C 8.25 g/m*3 8.6 C 0 km/h
75 16-01-2020 06:10:00 8.6 C 8.25 g/m*3 8.6 C 0 km/h
Sensor: Nr:Datum:Temp:Abs-Feuchte:Windchill:Wind:
Aussen-T/F 76 16-01-2020 06:15:00 8.6 C 8.25 g/m*3 8.6 C 0 km/h
77 16-01-2020 06:20:00 8.4 C 8.14 g/m*3 8.4 C 1.6 km/h
78 16-01-2020 06:25:00 8.3 C 8.09 g/m*3 8.3 C 0 km/h
79 16-01-2020 06:30:00 8.1 C 7.9 g/m*3 8.1 C 0 km/h
80 16-01-2020 06:35:00 7.9 C 7.8 g/m*3 7.9 C 0 km/h
81 16-01-2020 06:40:00 7.9 C 7.8 g/m*3 7.9 C 0 km/h
82 16-01-2020 06:45:00 7.9 C 7.89 g/m*3 7.9 C 0 km/h
83 16-01-2020 06:50:00 7.9 C 7.89 g/m*3 7.9 C 0 km/h
84 16-01-2020 06:55:00 7.9 C 7.89 g/m*3 7.9 C 0 km/h
85 16-01-2020 07:00:00 7.8 C 7.83 g/m*3 7.8 C 0 km/h
86 16-01-2020 07:05:00 7.6 C 7.65 g/m*3 7.6 C 0 km/h
87 16-01-2020 07:10:00 7.5 C 7.6 g/m*3 7.5 C 0 km/h
88 16-01-2020 07:15:00 7.3 C 7.51 g/m*3 7.3 C 0 km/h
89 16-01-2020 07:20:00 7.1 C 7.41 g/m*3 7.1 C 0 km/h
90 16-01-2020 07:25:00 7 C 7.36 g/m*3 7 C 0 km/h
91 16-01-2020 07:30:00 7.1 C 7.49 g/m*3 7.1 C 0 km/h
92 16-01-2020 07:35:00 7.2 C 7.54 g/m*3 7.2 C 0 km/h
93 16-01-2020 07:40:00 7.3 C 7.58 g/m*3 7.3 C 0 km/h
94 16-01-2020 07:45:00 7.4 C 7.63 g/m*3 7.4 C 0 km/h
95 16-01-2020 07:50:00 7.6 C 7.73 g/m*3 7.6 C 0 km/h
96 16-01-2020 07:55:00 7.6 C 7.73 g/m*3 7.6 C 0 km/h
97 16-01-2020 08:00:00 7.6 C 7.73 g/m*3 7.6 C 0 km/h
98 16-01-2020 08:05:00 7.6 C 7.73 g/m*3 7.6 C 0 km/h
99 16-01-2020 08:10:00 7.4 C 7.63 g/m*3 7.4 C 0 km/h
100 16-01-2020 08:15:00 7.3 C 7.58 g/m*3 7.3 C 0 km/h
Sensor: Nr:Datum:Temp:Abs-Feuchte:Windchill:Wind:
Aussen-T/F 101 16-01-2020 08:20:00 7.2 C 7.54 g/m*3 7.2 C 0 km/h
102 16-01-2020 08:25:00 7.1 C 7.49 g/m*3 7.1 C 0 km/h
103 16-01-2020 08:30:00 6.9 C 7.39 g/m*3 6.9 C 0 km/h
104 16-01-2020 08:35:00 6.9 C 7.39 g/m*3 6.9 C 0 km/h
105 16-01-2020 08:40:00 6.8 C 7.34 g/m*3 6.8 C 0 km/h
106 16-01-2020 08:45:00 6.6 C 7.25 g/m*3 6.6 C 0 km/h
107 16-01-2020 08:50:00 6.4 C 7.15 g/m*3 6.4 C 0 km/h
108 16-01-2020 08:55:00 6.3 C 7.11 g/m*3 6.3 C 0 km/h
109 16-01-2020 09:00:00 6.2 C 7.06 g/m*3 6.2 C 0 km/h
110 16-01-2020 09:05:00 6.2 C 7.06 g/m*3 6.2 C 0 km/h
111 16-01-2020 09:10:00 6.1 C 7.01 g/m*3 6.1 C 0 km/h
112 16-01-2020 09:15:00 6.1 C 7.01 g/m*3 6.1 C 0 km/h
113 16-01-2020 09:20:00 6.1 C 7.01 g/m*3 6.1 C 0 km/h
114 16-01-2020 09:25:00 6.2 C 7.06 g/m*3 6.2 C 0 km/h
115 16-01-2020 09:30:00 6.3 C 7.11 g/m*3 6.3 C 0 km/h
116 16-01-2020 09:35:00 6.3 C 7.11 g/m*3 6.3 C 0 km/h
117 16-01-2020 09:40:00 6.2 C 7.06 g/m*3 6.2 C 0 km/h
118 16-01-2020 09:45:00 6.3 C 7.11 g/m*3 6.3 C 0 km/h
119 16-01-2020 09:50:00 6.4 C 7.23 g/m*3 6.4 C 0 km/h
120 16-01-2020 09:55:00 6.5 C 7.27 g/m*3 6.5 C 0 km/h
121 16-01-2020 10:00:00 6.7 C 7.37 g/m*3 6.7 C 0 km/h
122 16-01-2020 10:05:00 6.8 C 7.42 g/m*3 6.8 C 0 km/h
123 16-01-2020 10:10:00 6.9 C 7.47 g/m*3 6.9 C 0 km/h
124 16-01-2020 10:15:00 6.9 C 7.47 g/m*3 6.9 C 0 km/h
125 16-01-2020 10:20:00 7.1 C 7.57 g/m*3 7.1 C 0 km/h
Sensor: Nr:Datum:Temp:Abs-Feuchte:Windchill:Wind:
Aussen-T/F 126 16-01-2020 10:25:00 7.1 C 7.57 g/m*3 7.1 C 0 km/h
127 16-01-2020 10:30:00 7.2 C 7.61 g/m*3 7.2 C 0 km/h
128 16-01-2020 10:35:00 7.3 C 7.66 g/m*3 7.3 C 0 km/h
129 16-01-2020 10:40:00 7.3 C 7.66 g/m*3 7.3 C 0 km/h
130 16-01-2020 10:45:00 7.3 C 7.66 g/m*3 7.3 C 0 km/h
131 16-01-2020 10:50:00 7.3 C 7.66 g/m*3 7.3 C 0 km/h
132 16-01-2020 10:55:00 7.3 C 7.66 g/m*3 7.3 C 0 km/h
133 16-01-2020 11:00:00 7.3 C 7.66 g/m*3 7.3 C 0 km/h
134 16-01-2020 11:05:00 7.4 C 7.71 g/m*3 7.4 C 0 km/h
135 16-01-2020 11:10:00 7.4 C 7.71 g/m*3 7.4 C 0 km/h
136 16-01-2020 11:15:00 7.5 C 7.76 g/m*3 7.5 C 0 km/h
137 16-01-2020 11:20:00 7.5 C 7.76 g/m*3 7.5 C 0 km/h
138 16-01-2020 11:25:00 7.5 C 7.76 g/m*3 7.5 C 0 km/h
139 16-01-2020 11:30:00 7.5 C 7.76 g/m*3 7.5 C 0 km/h
140 16-01-2020 11:35:00 7.5 C 7.76 g/m*3 7.5 C 0 km/h
141 16-01-2020 11:40:00 7.6 C 7.81 g/m*3 7.6 C 0 km/h
142 16-01-2020 11:45:00 7.5 C 7.76 g/m*3 7.5 C 0 km/h
143 16-01-2020 11:50:00 7.5 C 7.76 g/m*3 7.5 C 0 km/h
144 16-01-2020 11:55:00 7.5 C 7.76 g/m*3 7.5 C 0 km/h
145 16-01-2020 12:00:00 7.5 C 7.76 g/m*3 7.5 C 0 km/h
146 16-01-2020 12:05:00 7.4 C 7.71 g/m*3 7.4 C 0 km/h
147 16-01-2020 12:10:00 7.4 C 7.71 g/m*3 7.4 C 1.6 km/h
148 16-01-2020 12:15:00 7.3 C 7.66 g/m*3 7.3 C 3.2 km/h
149 16-01-2020 12:20:00 7.3 C 7.66 g/m*3 7.3 C 0 km/h
150 16-01-2020 12:25:00 7.2 C 7.61 g/m*3 7.2 C 0 km/h
Sensor: Nr:Datum:Temp:Abs-Feuchte:Windchill:Wind:
Aussen-T/F 151 16-01-2020 12:30:00 7.1 C 7.57 g/m*3 7.1 C 1.6 km/h
152 16-01-2020 12:35:00 7.1 C 7.57 g/m*3 7.1 C 0 km/h
153 16-01-2020 12:40:00 7.1 C 7.57 g/m*3 7.1 C 1.6 km/h
154 16-01-2020 12:45:00 7.2 C 7.61 g/m*3 7.2 C 3.2 km/h
155 16-01-2020 12:50:00 7.3 C 7.66 g/m*3 7.3 C 1.6 km/h
156 16-01-2020 12:55:00 7.5 C 7.76 g/m*3 7.5 C 1.6 km/h
157 16-01-2020 13:00:00 7.7 C 7.87 g/m*3 7.7 C 0 km/h
158 16-01-2020 13:05:00 7.9 C 8.05 g/m*3 7.9 C 1.6 km/h
159 16-01-2020 13:10:00 8.1 C 8.15 g/m*3 7.17 C 6.4 km/h
160 16-01-2020 13:15:00 8.2 C 8.12 g/m*3 8.2 C 3.2 km/h
161 16-01-2020 13:20:00 8.3 C 8.26 g/m*3 8.3 C 4.8 km/h
162 16-01-2020 13:25:00 8.3 C 8.26 g/m*3 8.3 C 0 km/h
163 16-01-2020 13:30:00 8.3 C 8.26 g/m*3 8.3 C 3.2 km/h
164 16-01-2020 13:35:00 8.3 C 8.18 g/m*3 6.99 C 8.1 km/h
165 16-01-2020 13:40:00 8.3 C 8.18 g/m*3 8.3 C 1.6 km/h
166 16-01-2020 13:45:00 8.3 C 8.18 g/m*3 8.3 C 0 km/h
167 16-01-2020 13:50:00 8.3 C 8.18 g/m*3 7.41 C 6.4 km/h
168 16-01-2020 13:55:00 8.3 C 8.18 g/m*3 8.3 C 4.8 km/h
169 16-01-2020 14:00:00 8.3 C 8.18 g/m*3 8.3 C 3.2 km/h
170 16-01-2020 14:05:00 8.4 C 8.23 g/m*3 8.4 C 3.2 km/h
171 16-01-2020 14:10:00 8.4 C 8.23 g/m*3 8.4 C 1.6 km/h
172 16-01-2020 14:15:00 8.5 C 8.28 g/m*3 8.5 C 3.2 km/h
173 16-01-2020 14:20:00 8.6 C 8.34 g/m*3 8.6 C 1.6 km/h
174 16-01-2020 14:25:00 8.7 C 8.39 g/m*3 8.7 C 4.8 km/h
175 16-01-2020 14:30:00 8.8 C 8.44 g/m*3 8.8 C 0 km/h
Sensor: Nr:Datum:Temp:Abs-Feuchte:Windchill:Wind:
Aussen-T/F 176 16-01-2020 14:35:00 9 C 8.55 g/m*3 9 C 0 km/h
177 16-01-2020 14:40:00 9.1 C 8.61 g/m*3 9.1 C 0 km/h
178 16-01-2020 14:45:00 9.1 C 8.61 g/m*3 9.1 C 3.2 km/h
179 16-01-2020 14:50:00 9 C 8.55 g/m*3 9 C 1.6 km/h
180 16-01-2020 14:55:00 9 C 8.55 g/m*3 9 C 1.6 km/h
181 16-01-2020 15:00:00 8.9 C 8.5 g/m*3 8.9 C 1.6 km/h
182 16-01-2020 15:05:00 8.9 C 8.41 g/m*3 8.9 C 4.8 km/h
183 16-01-2020 15:10:00 8.9 C 8.41 g/m*3 8.9 C 1.6 km/h
184 16-01-2020 15:15:00 8.8 C 8.36 g/m*3 8.8 C 0 km/h
185 16-01-2020 15:20:00 8.8 C 8.36 g/m*3 8.8 C 1.6 km/h
186 16-01-2020 15:25:00 8.8 C 8.36 g/m*3 8.8 C 4.8 km/h
187 16-01-2020 15:30:00 8.8 C 8.27 g/m*3 8.8 C 3.2 km/h
188 16-01-2020 15:35:00 8.8 C 8.27 g/m*3 8.8 C 1.6 km/h
189 16-01-2020 15:40:00 8.8 C 8.27 g/m*3 8.8 C 4.8 km/h
190 16-01-2020 15:45:00 8.8 C 8.27 g/m*3 8.8 C 4.8 km/h
191 16-01-2020 15:50:00 8.7 C 8.22 g/m*3 8.7 C 3.2 km/h
192 16-01-2020 15:55:00 8.7 C 8.22 g/m*3 8.7 C 1.6 km/h
193 16-01-2020 16:00:00 8.7 C 8.22 g/m*3 8.7 C 1.6 km/h
194 16-01-2020 16:05:00 8.7 C 8.22 g/m*3 8.7 C 3.2 km/h
195 16-01-2020 16:10:00 8.6 C 8.08 g/m*3 8.6 C 1.6 km/h
196 16-01-2020 16:15:00 8.4 C 7.97 g/m*3 8.4 C 1.6 km/h
197 16-01-2020 16:20:00 8.4 C 7.97 g/m*3 8.4 C 0 km/h
198 16-01-2020 16:25:00 8.4 C 8.06 g/m*3 8.4 C 0 km/h
199 16-01-2020 16:30:00 8.3 C 7.92 g/m*3 8.3 C 0 km/h
200 16-01-2020 16:35:00 8.3 C 8.01 g/m*3 8.3 C 0 km/h
Sensor: Nr:Datum:Temp:Abs-Feuchte:Windchill:Wind:
Aussen-T/F 201 16-01-2020 16:40:00 8.2 C 7.96 g/m*3 8.2 C 0 km/h
202 16-01-2020 16:45:00 8.2 C 7.96 g/m*3 8.2 C 0 km/h
203 16-01-2020 16:50:00 8.2 C 7.96 g/m*3 8.2 C 0 km/h
204 16-01-2020 16:55:00 8.1 C 7.82 g/m*3 8.1 C 0 km/h
205 16-01-2020 17:00:00 8 C 7.85 g/m*3 8 C 0 km/h
206 16-01-2020 17:05:00 7.9 C 7.8 g/m*3 7.9 C 4.8 km/h
207 16-01-2020 17:10:00 7.8 C 7.75 g/m*3 7.8 C 4.8 km/h
208 16-01-2020 17:15:00 7.8 C 7.75 g/m*3 7.8 C 3.2 km/h
209 16-01-2020 17:20:00 7.7 C 7.7 g/m*3 7.7 C 3.2 km/h
210 16-01-2020 17:25:00 7.7 C 7.7 g/m*3 7.7 C 4.8 km/h
211 16-01-2020 17:30:00 7.6 C 7.65 g/m*3 7.6 C 4.8 km/h
212 16-01-2020 17:35:00 7.6 C 7.65 g/m*3 7.6 C 4.8 km/h
213 16-01-2020 17:40:00 7.5 C 7.6 g/m*3 7.5 C 3.2 km/h
214 16-01-2020 17:45:00 7.4 C 7.55 g/m*3 7.4 C 3.2 km/h
215 16-01-2020 17:50:00 7.4 C 7.55 g/m*3 7.4 C 3.2 km/h
216 16-01-2020 17:55:00 7.3 C 7.51 g/m*3 7.3 C 4.8 km/h
217 16-01-2020 18:00:00 7.3 C 7.51 g/m*3 7.3 C 3.2 km/h
218 16-01-2020 18:05:00 7.3 C 7.51 g/m*3 7.3 C 0 km/h
219 16-01-2020 18:10:00 7.2 C 7.46 g/m*3 7.2 C 0 km/h
220 16-01-2020 18:15:00 7.2 C 7.46 g/m*3 7.2 C 4.8 km/h
221 16-01-2020 18:20:00 7.2 C 7.46 g/m*3 7.2 C 0 km/h
222 16-01-2020 18:25:00 7.1 C 7.41 g/m*3 7.1 C 3.2 km/h
223 16-01-2020 18:30:00 7.1 C 7.41 g/m*3 7.1 C 1.6 km/h
224 16-01-2020 18:35:00 7.1 C 7.41 g/m*3 7.1 C 3.2 km/h
225 16-01-2020 18:40:00 7 C 7.36 g/m*3 7 C 3.2 km/h
Sensor: Nr:Datum:Temp:Abs-Feuchte:Windchill:Wind:
Aussen-T/F 226 16-01-2020 18:45:00 6.9 C 7.31 g/m*3 6.9 C 3.2 km/h
227 16-01-2020 18:50:00 6.9 C 7.31 g/m*3 6.9 C 3.2 km/h
228 16-01-2020 18:55:00 6.8 C 7.27 g/m*3 6.8 C 1.6 km/h
229 16-01-2020 19:00:00 6.8 C 7.34 g/m*3 6.8 C 0 km/h
230 16-01-2020 19:05:00 6.8 C 7.34 g/m*3 6.8 C 0 km/h
231 16-01-2020 19:10:00 6.8 C 7.34 g/m*3 6.8 C 0 km/h
232 16-01-2020 19:15:00 6.8 C 7.34 g/m*3 6.8 C 3.2 km/h
233 16-01-2020 19:20:00 6.7 C 7.29 g/m*3 6.7 C 3.2 km/h
234 16-01-2020 19:25:00 6.7 C 7.22 g/m*3 6.7 C 3.2 km/h
235 16-01-2020 19:30:00 6.6 C 7.25 g/m*3 6.6 C 1.6 km/h
236 16-01-2020 19:35:00 6.6 C 7.25 g/m*3 6.6 C 3.2 km/h
237 16-01-2020 19:40:00 6.6 C 7.25 g/m*3 6.6 C 1.6 km/h
238 16-01-2020 19:45:00 6.5 C 7.2 g/m*3 6.5 C 0 km/h
239 16-01-2020 19:50:00 6.5 C 7.2 g/m*3 6.5 C 1.6 km/h
240 16-01-2020 19:55:00 6.4 C 7.15 g/m*3 6.4 C 0 km/h
241 16-01-2020 20:00:00 6.4 C 7.15 g/m*3 6.4 C 3.2 km/h
242 16-01-2020 20:05:00 6.4 C 7.15 g/m*3 6.4 C 1.6 km/h
243 16-01-2020 20:10:00 6.4 C 7.15 g/m*3 6.4 C 3.2 km/h
244 16-01-2020 20:15:00 6.4 C 7.15 g/m*3 6.4 C 3.2 km/h
245 16-01-2020 20:20:00 6.4 C 7.15 g/m*3 6.4 C 3.2 km/h
246 16-01-2020 20:25:00 6.5 C 7.2 g/m*3 6.5 C 3.2 km/h
247 16-01-2020 20:30:00 6.6 C 7.25 g/m*3 6.6 C 3.2 km/h
248 16-01-2020 20:35:00 6.7 C 7.37 g/m*3 6.7 C 1.6 km/h
249 16-01-2020 20:40:00 6.8 C 7.34 g/m*3 6.8 C 1.6 km/h
250 16-01-2020 20:45:00 6.7 C 7.29 g/m*3 6.7 C 1.6 km/h
Sensor: Nr:Datum:Temp:Abs-Feuchte:Windchill:Wind:
Aussen-T/F 251 16-01-2020 20:50:00 6.6 C 7.25 g/m*3 6.6 C 0 km/h
252 16-01-2020 20:55:00 6.5 C 7.2 g/m*3 6.5 C 1.6 km/h
253 16-01-2020 21:00:00 6.4 C 7.15 g/m*3 6.4 C 3.2 km/h
254 16-01-2020 21:05:00 6.4 C 7.15 g/m*3 6.4 C 0 km/h
255 16-01-2020 21:10:00 6.3 C 7.11 g/m*3 6.3 C 0 km/h
256 16-01-2020 21:15:00 6.3 C 7.11 g/m*3 6.3 C 0 km/h
257 16-01-2020 21:20:00 6.2 C 7.06 g/m*3 6.2 C 0 km/h
258 16-01-2020 21:25:00 6.2 C 7.06 g/m*3 6.2 C 0 km/h
259 16-01-2020 21:30:00 6.2 C 7.06 g/m*3 6.2 C 3.2 km/h
260 16-01-2020 21:35:00 6.2 C 7.06 g/m*3 6.2 C 0 km/h
261 16-01-2020 21:40:00 6.2 C 7.06 g/m*3 6.2 C 0 km/h
262 16-01-2020 21:45:00 6.2 C 7.06 g/m*3 6.2 C 0 km/h
263 16-01-2020 21:50:00 6.1 C 7.01 g/m*3 6.1 C 3.2 km/h
264 16-01-2020 21:55:00 6.1 C 7.01 g/m*3 6.1 C 3.2 km/h
265 16-01-2020 22:00:00 6.1 C 7.01 g/m*3 6.1 C 0 km/h
266 16-01-2020 22:05:00 6 C 6.97 g/m*3 6 C 0 km/h
267 16-01-2020 22:10:00 6.1 C 7.01 g/m*3 6.1 C 3.2 km/h
268 16-01-2020 22:15:00 6.1 C 7.01 g/m*3 6.1 C 1.6 km/h
269 16-01-2020 22:20:00 6.1 C 7.01 g/m*3 6.1 C 4.8 km/h
270 16-01-2020 22:25:00 6.1 C 7.01 g/m*3 6.1 C 3.2 km/h
271 16-01-2020 22:30:00 6.1 C 7.01 g/m*3 6.1 C 4.8 km/h
272 16-01-2020 22:35:00 6.1 C 7.01 g/m*3 6.1 C 3.2 km/h
273 16-01-2020 22:40:00 6.1 C 7.01 g/m*3 6.1 C 3.2 km/h
274 16-01-2020 22:45:00 6.2 C 7.06 g/m*3 6.2 C 1.6 km/h
275 16-01-2020 22:50:00 6.2 C 7.06 g/m*3 6.2 C 1.6 km/h
Sensor: Nr:Datum:Temp:Abs-Feuchte:Windchill:Wind:
Aussen-T/F 276 16-01-2020 22:55:00 6.1 C 7.01 g/m*3 6.1 C 1.6 km/h
277 16-01-2020 23:00:00 6.1 C 7.01 g/m*3 6.1 C 3.2 km/h
278 16-01-2020 23:05:00 6.2 C 7.06 g/m*3 6.2 C 4.8 km/h
279 16-01-2020 23:10:00 6.3 C 7.11 g/m*3 6.3 C 1.6 km/h
280 16-01-2020 23:15:00 6.4 C 7.15 g/m*3 6.4 C 4.8 km/h
281 16-01-2020 23:20:00 6.4 C 7.15 g/m*3 5.21 C 6.4 km/h
282 16-01-2020 23:25:00 6.8 C 7.34 g/m*3 5.67 C 6.4 km/h
283 16-01-2020 23:30:00 7.2 C 7.54 g/m*3 5.69 C 8.1 km/h
284 16-01-2020 23:35:00 7.3 C 7.51 g/m*3 6.25 C 6.4 km/h
285 16-01-2020 23:40:00 7.4 C 7.48 g/m*3 7.4 C 4.8 km/h
286 16-01-2020 23:45:00 7.3 C 7.35 g/m*3 7.3 C 4.8 km/h
287 16-01-2020 23:50:00 7.2 C 7.3 g/m*3 7.2 C 0 km/h
288 16-01-2020 23:55:00 6.9 C 7.08 g/m*3 6.9 C 4.8 km/h
289 17-01-2020 00:00:00 6.8 C 7.11 g/m*3 6.8 C 1.6 km/h
290 17-01-2020 00:05:00 6.7 C 7.07 g/m*3 6.7 C 0 km/h
291 17-01-2020 00:10:00 6.6 C 7.02 g/m*3 6.6 C 3.2 km/h
292 17-01-2020 00:15:00 6.5 C 6.97 g/m*3 6.5 C 1.6 km/h
293 17-01-2020 00:20:00 6.5 C 6.97 g/m*3 6.5 C 3.2 km/h
294 17-01-2020 00:25:00 6.4 C 6.93 g/m*3 6.4 C 3.2 km/h
295 17-01-2020 00:30:00 6.4 C 7 g/m*3 6.4 C 3.2 km/h
296 17-01-2020 00:35:00 6.3 C 6.96 g/m*3 6.3 C 3.2 km/h
297 17-01-2020 00:40:00 6.2 C 6.91 g/m*3 6.2 C 3.2 km/h
298 17-01-2020 00:45:00 6.2 C 6.91 g/m*3 6.2 C 1.6 km/h
299 17-01-2020 00:50:00 6.1 C 6.87 g/m*3 6.1 C 1.6 km/h
300 17-01-2020 00:55:00 6.1 C 6.87 g/m*3 6.1 C 3.2 km/h
Sensor: Nr:Datum:Temp:Abs-Feuchte:Windchill:Wind:
Aussen-T/F 301 17-01-2020 01:00:00 6 C 6.82 g/m*3 6 C 3.2 km/h
302 17-01-2020 01:05:00 5.9 C 6.78 g/m*3 5.9 C 3.2 km/h
303 17-01-2020 01:10:00 5.9 C 6.78 g/m*3 5.9 C 3.2 km/h
304 17-01-2020 01:15:00 5.8 C 6.73 g/m*3 5.8 C 3.2 km/h
305 17-01-2020 01:20:00 5.8 C 6.73 g/m*3 5.8 C 0 km/h
306 17-01-2020 01:25:00 5.7 C 6.69 g/m*3 5.7 C 0 km/h
307 17-01-2020 01:30:00 5.7 C 6.69 g/m*3 5.7 C 0 km/h
308 17-01-2020 01:35:00 5.6 C 6.65 g/m*3 5.6 C 0 km/h
309 17-01-2020 01:40:00 5.6 C 6.72 g/m*3 5.6 C 0 km/h
310 17-01-2020 01:45:00 5.5 C 6.67 g/m*3 5.5 C 0 km/h
311 17-01-2020 01:50:00 5.5 C 6.67 g/m*3 5.5 C 0 km/h
312 17-01-2020 01:55:00 5.4 C 6.63 g/m*3 5.4 C 0 km/h
313 17-01-2020 02:00:00 5.7 C 6.76 g/m*3 3.56 C 9.7 km/h
314 17-01-2020 02:05:00 6.2 C 7.06 g/m*3 4.15 C 9.7 km/h
315 17-01-2020 02:10:00 6.1 C 6.94 g/m*3 6.1 C 1.6 km/h
316 17-01-2020 02:15:00 5.8 C 6.73 g/m*3 5.8 C 1.6 km/h
317 17-01-2020 02:20:00 5.6 C 6.65 g/m*3 5.6 C 3.2 km/h
318 17-01-2020 02:25:00 5.4 C 6.56 g/m*3 5.4 C 0 km/h
319 17-01-2020 02:30:00 5.3 C 6.52 g/m*3 5.3 C 3.2 km/h
320 17-01-2020 02:35:00 5.1 C 6.43 g/m*3 5.1 C 0 km/h
321 17-01-2020 02:40:00 5.1 C 6.43 g/m*3 5.1 C 1.6 km/h
322 17-01-2020 02:45:00 4.9 C 6.35 g/m*3 4.9 C 0 km/h
323 17-01-2020 02:50:00 4.9 C 6.41 g/m*3 4.9 C 3.2 km/h
324 17-01-2020 02:55:00 4.9 C 6.41 g/m*3 4.9 C 3.2 km/h
325 17-01-2020 03:00:00 4.9 C 6.41 g/m*3 4.9 C 1.6 km/h
Sensor: Nr:Datum:Temp:Abs-Feuchte:Windchill:Wind:
Aussen-T/F 326 17-01-2020 03:05:00 4.8 C 6.37 g/m*3 4.8 C 1.6 km/h
327 17-01-2020 03:10:00 4.8 C 6.37 g/m*3 4.8 C 0 km/h
328 17-01-2020 03:15:00 4.7 C 6.33 g/m*3 4.7 C 3.2 km/h
329 17-01-2020 03:20:00 4.7 C 6.33 g/m*3 4.7 C 1.6 km/h
330 17-01-2020 03:25:00 4.6 C 6.29 g/m*3 4.6 C 1.6 km/h
331 17-01-2020 03:30:00 4.6 C 6.29 g/m*3 4.6 C 1.6 km/h
332 17-01-2020 03:35:00 4.7 C 6.33 g/m*3 4.7 C 1.6 km/h
333 17-01-2020 03:40:00 4.7 C 6.33 g/m*3 4.7 C 1.6 km/h
334 17-01-2020 03:45:00 4.6 C 6.29 g/m*3 4.6 C 0 km/h
335 17-01-2020 03:50:00 4.5 C 6.24 g/m*3 4.5 C 1.6 km/h
336 17-01-2020 03:55:00 4.5 C 6.31 g/m*3 4.5 C 1.6 km/h
337 17-01-2020 04:00:00 4.6 C 6.35 g/m*3 4.6 C 0 km/h
338 17-01-2020 04:05:00 4.7 C 6.39 g/m*3 4.7 C 0 km/h
339 17-01-2020 04:10:00 4.7 C 6.39 g/m*3 4.7 C 3.2 km/h
340 17-01-2020 04:15:00 4.7 C 6.39 g/m*3 4.7 C 0 km/h
341 17-01-2020 04:20:00 4.6 C 6.35 g/m*3 4.6 C 0 km/h
342 17-01-2020 04:25:00 4.6 C 6.35 g/m*3 4.6 C 3.2 km/h
343 17-01-2020 04:30:00 4.6 C 6.35 g/m*3 4.6 C 1.6 km/h
344 17-01-2020 04:35:00 4.6 C 6.35 g/m*3 4.6 C 3.2 km/h
345 17-01-2020 04:40:00 4.6 C 6.35 g/m*3 4.6 C 1.6 km/h
346 17-01-2020 04:45:00 4.5 C 6.31 g/m*3 4.5 C 0 km/h
347 17-01-2020 04:50:00 4.4 C 6.27 g/m*3 4.4 C 0 km/h
348 17-01-2020 04:55:00 4.4 C 6.27 g/m*3 4.4 C 0 km/h
349 17-01-2020 05:00:00 4.3 C 6.23 g/m*3 4.3 C 0 km/h
350 17-01-2020 05:05:00 4.3 C 6.23 g/m*3 4.3 C 0 km/h
Sensor: Nr:Datum:Temp:Abs-Feuchte:Windchill:Wind:
Aussen-T/F 351 17-01-2020 05:10:00 4.1 C 6.14 g/m*3 4.1 C 0 km/h
352 17-01-2020 05:15:00 4.1 C 6.14 g/m*3 4.1 C 0 km/h
353 17-01-2020 05:20:00 3.9 C 6.06 g/m*3 3.9 C 0 km/h
354 17-01-2020 05:25:00 3.9 C 6.06 g/m*3 3.9 C 0 km/h
355 17-01-2020 05:30:00 3.8 C 6.02 g/m*3 3.8 C 0 km/h
356 17-01-2020 05:35:00 3.8 C 6.02 g/m*3 3.8 C 0 km/h
357 17-01-2020 05:40:00 3.7 C 5.98 g/m*3 3.7 C 0 km/h
358 17-01-2020 05:45:00 3.6 C 5.94 g/m*3 3.6 C 0 km/h
359 17-01-2020 05:50:00 3.5 C 5.9 g/m*3 3.5 C 0 km/h
360 17-01-2020 05:55:00 3.4 C 5.86 g/m*3 3.4 C 0 km/h
361 17-01-2020 06:00:00 3.4 C 5.86 g/m*3 3.4 C 0 km/h
362 17-01-2020 06:05:00 3.3 C 5.82 g/m*3 3.3 C 0 km/h
363 17-01-2020 06:10:00 3.3 C 5.82 g/m*3 3.3 C 0 km/h
364 17-01-2020 06:15:00 3.2 C 5.79 g/m*3 3.2 C 0 km/h
365 17-01-2020 06:20:00 3.2 C 5.79 g/m*3 3.2 C 0 km/h
366 17-01-2020 06:25:00 3.1 C 5.75 g/m*3 3.1 C 0 km/h
367 17-01-2020 06:30:00 3.1 C 5.75 g/m*3 3.1 C 0 km/h
368 17-01-2020 06:35:00 3.1 C 5.75 g/m*3 3.1 C 0 km/h
369 17-01-2020 06:40:00 2.9 C 5.67 g/m*3 2.9 C 0 km/h
370 17-01-2020 06:45:00 3 C 5.71 g/m*3 3 C 0 km/h
371 17-01-2020 06:50:00 2.9 C 5.67 g/m*3 2.9 C 0 km/h
372 17-01-2020 06:55:00 2.8 C 5.63 g/m*3 2.8 C 0 km/h
373 17-01-2020 07:00:00 2.8 C 5.63 g/m*3 2.8 C 0 km/h
374 17-01-2020 07:05:00 2.8 C 5.63 g/m*3 2.8 C 0 km/h
375 17-01-2020 07:10:00 2.7 C 5.59 g/m*3 2.7 C 0 km/h
Sensor: Nr:Datum:Temp:Abs-Feuchte:Windchill:Wind:
Aussen-T/F 376 17-01-2020 07:15:00 2.6 C 5.56 g/m*3 2.6 C 0 km/h
377 17-01-2020 07:20:00 2.6 C 5.56 g/m*3 2.6 C 0 km/h
378 17-01-2020 07:25:00 2.6 C 5.56 g/m*3 2.6 C 0 km/h
379 17-01-2020 07:30:00 2.5 C 5.52 g/m*3 2.5 C 0 km/h
380 17-01-2020 07:35:00 2.4 C 5.48 g/m*3 2.4 C 0 km/h
381 17-01-2020 07:40:00 2.4 C 5.48 g/m*3 2.4 C 0 km/h
382 17-01-2020 07:45:00 2.3 C 5.44 g/m*3 2.3 C 0 km/h
383 17-01-2020 07:50:00 2.4 C 5.48 g/m*3 2.4 C 0 km/h
384 17-01-2020 07:55:00 2.4 C 5.48 g/m*3 2.4 C 0 km/h
385 17-01-2020 08:00:00 2.5 C 5.58 g/m*3 2.5 C 0 km/h
386 17-01-2020 08:05:00 2.6 C 5.61 g/m*3 2.6 C 0 km/h
387 17-01-2020 08:10:00 2.7 C 5.65 g/m*3 2.7 C 0 km/h
388 17-01-2020 08:15:00 2.8 C 5.69 g/m*3 2.8 C 0 km/h
389 17-01-2020 08:20:00 2.9 C 5.73 g/m*3 2.9 C 1.6 km/h
390 17-01-2020 08:25:00 2.9 C 5.73 g/m*3 2.9 C 4.8 km/h
391 17-01-2020 08:30:00 2.9 C 5.73 g/m*3 2.9 C 3.2 km/h
392 17-01-2020 08:35:00 2.9 C 5.73 g/m*3 2.9 C 1.6 km/h
393 17-01-2020 08:40:00 2.9 C 5.73 g/m*3 2.9 C 1.6 km/h
394 17-01-2020 08:45:00 2.9 C 5.73 g/m*3 2.9 C 0 km/h
395 17-01-2020 08:50:00 3 C 5.77 g/m*3 3 C 1.6 km/h
396 17-01-2020 08:55:00 3.1 C 5.81 g/m*3 3.1 C 0 km/h
397 17-01-2020 09:00:00 3.1 C 5.81 g/m*3 3.1 C 0 km/h
398 17-01-2020 09:05:00 3.1 C 5.81 g/m*3 3.1 C 0 km/h
399 17-01-2020 09:10:00 3.2 C 5.85 g/m*3 3.2 C 0 km/h
400 17-01-2020 09:15:00 3.2 C 5.85 g/m*3 3.2 C 0 km/h
Sensor: Nr:Datum:Temp:Abs-Feuchte:Windchill:Wind:
Aussen-T/F 401 17-01-2020 09:20:00 3.2 C 5.85 g/m*3 3.2 C 0 km/h
402 17-01-2020 09:25:00 3.2 C 5.85 g/m*3 3.2 C 0 km/h
403 17-01-2020 09:30:00 3.1 C 5.81 g/m*3 3.1 C 1.6 km/h
404 17-01-2020 09:35:00 3.1 C 5.81 g/m*3 3.1 C 0 km/h
405 17-01-2020 09:40:00 3.1 C 5.81 g/m*3 3.1 C 0 km/h
406 17-01-2020 09:45:00 3.3 C 5.88 g/m*3 3.3 C 3.2 km/h
407 17-01-2020 09:50:00 3.4 C 5.92 g/m*3 3.4 C 0 km/h
408 17-01-2020 09:55:00 3.5 C 5.96 g/m*3 3.5 C 0 km/h
409 17-01-2020 10:00:00 3.6 C 6 g/m*3 3.6 C 0 km/h
410 17-01-2020 10:05:00 3.7 C 6.04 g/m*3 3.7 C 1.6 km/h
411 17-01-2020 10:10:00 3.8 C 6.09 g/m*3 3.8 C 0 km/h
412 17-01-2020 10:15:00 3.9 C 6.13 g/m*3 3.9 C 0 km/h
413 17-01-2020 10:20:00 3.9 C 6.13 g/m*3 3.9 C 0 km/h
414 17-01-2020 10:25:00 4.1 C 6.21 g/m*3 4.1 C 0 km/h
415 17-01-2020 10:30:00 4.1 C 6.21 g/m*3 4.1 C 0 km/h
416 17-01-2020 10:35:00 4.2 C 6.25 g/m*3 4.2 C 0 km/h
417 17-01-2020 10:40:00 4.2 C 6.25 g/m*3 4.2 C 0 km/h
418 17-01-2020 10:45:00 4.3 C 6.29 g/m*3 4.3 C 0 km/h
419 17-01-2020 10:50:00 4.4 C 6.33 g/m*3 4.4 C 0 km/h
420 17-01-2020 10:55:00 4.4 C 6.33 g/m*3 4.4 C 1.6 km/h
421 17-01-2020 11:00:00 4.6 C 6.42 g/m*3 4.6 C 0 km/h
422 17-01-2020 11:05:00 4.7 C 6.46 g/m*3 4.7 C 0 km/h
423 17-01-2020 11:10:00 4.8 C 6.5 g/m*3 4.8 C 0 km/h
424 17-01-2020 11:15:00 4.8 C 6.5 g/m*3 4.8 C 0 km/h
425 17-01-2020 11:20:00 4.9 C 6.55 g/m*3 4.9 C 0 km/h
Sensor: Nr:Datum:Temp:Abs-Feuchte:Windchill:Wind:
Aussen-T/F 426 17-01-2020 11:25:00 4.9 C 6.55 g/m*3 4.9 C 1.6 km/h
427 17-01-2020 11:30:00 5 C 6.59 g/m*3 5 C 0 km/h
428 17-01-2020 11:35:00 5.2 C 6.68 g/m*3 5.2 C 0 km/h
429 17-01-2020 11:40:00 5.4 C 6.84 g/m*3 5.4 C 0 km/h
430 17-01-2020 11:45:00 5.6 C 6.86 g/m*3 5.6 C 0 km/h
431 17-01-2020 11:50:00 5.7 C 6.97 g/m*3 5.7 C 0 km/h
432 17-01-2020 11:55:00 5.8 C 6.95 g/m*3 5.8 C 0 km/h
433 17-01-2020 12:00:00 5.8 C 6.95 g/m*3 5.8 C 0 km/h
434 17-01-2020 12:05:00 5.9 C 6.99 g/m*3 5.9 C 0 km/h
435 17-01-2020 12:10:00 6.1 C 7.09 g/m*3 6.1 C 3.2 km/h
436 17-01-2020 12:15:00 6.3 C 7.18 g/m*3 6.3 C 3.2 km/h
437 17-01-2020 12:20:00 6.4 C 7.23 g/m*3 6.4 C 0 km/h
438 17-01-2020 12:25:00 6.6 C 7.32 g/m*3 6.6 C 0 km/h
439 17-01-2020 12:30:00 6.7 C 7.37 g/m*3 6.7 C 0 km/h
440 17-01-2020 12:35:00 6.8 C 7.42 g/m*3 6.8 C 0 km/h
441 17-01-2020 12:40:00 6.8 C 7.42 g/m*3 6.8 C 0 km/h
442 17-01-2020 12:45:00 7 C 7.52 g/m*3 7 C 1.6 km/h
443 17-01-2020 12:50:00 7.2 C 7.54 g/m*3 7.2 C 0 km/h
444 17-01-2020 12:55:00 7.2 C 7.54 g/m*3 7.2 C 0 km/h
445 17-01-2020 13:00:00 7.3 C 7.58 g/m*3 7.3 C 0 km/h
446 17-01-2020 13:05:00 7.4 C 7.63 g/m*3 7.4 C 0 km/h
447 17-01-2020 13:10:00 7.7 C 7.78 g/m*3 7.7 C 4.8 km/h
448 17-01-2020 13:15:00 7.7 C 7.7 g/m*3 7.7 C 0 km/h
449 17-01-2020 13:20:00 7.8 C 7.83 g/m*3 7.8 C 0 km/h
450 17-01-2020 13:25:00 8.1 C 7.9 g/m*3 8.1 C 1.6 km/h
Sensor: Nr:Datum:Temp:Abs-Feuchte:Windchill:Wind:
Aussen-T/F 451 17-01-2020 13:30:00 8.2 C 8.04 g/m*3 8.2 C 0 km/h
452 17-01-2020 13:35:00 8.4 C 8.06 g/m*3 8.4 C 4.8 km/h
453 17-01-2020 13:40:00 8.7 C 8.13 g/m*3 7.13 C 9.7 km/h
454 17-01-2020 13:45:00 8.8 C 8.09 g/m*3 7.98 C 6.4 km/h
455 17-01-2020 13:50:00 9 C 8.11 g/m*3 8.21 C 6.4 km/h
456 17-01-2020 13:55:00 9.2 C 8.13 g/m*3 9.2 C 4.8 km/h
457 17-01-2020 14:00:00 9.3 C 8.18 g/m*3 9.3 C 3.2 km/h
458 17-01-2020 14:05:00 9.4 C 8.23 g/m*3 9.4 C 4.8 km/h
459 17-01-2020 14:10:00 9.6 C 8.34 g/m*3 9.6 C 3.2 km/h
460 17-01-2020 14:15:00 9.7 C 8.2 g/m*3 8.33 C 9.7 km/h
461 17-01-2020 14:20:00 9.8 C 8.16 g/m*3 7.73 C 14.5 km/h
462 17-01-2020 14:25:00 9.9 C 8.22 g/m*3 8.56 C 9.7 km/h
463 17-01-2020 14:30:00 9.9 C 8.31 g/m*3 9.9 C 4.8 km/h
464 17-01-2020 14:35:00 9.9 C 8.22 g/m*3 8.56 C 9.7 km/h
465 17-01-2020 14:40:00 9.9 C 8.31 g/m*3 9.9 C 3.2 km/h
466 17-01-2020 14:45:00 9.9 C 8.31 g/m*3 9.9 C 3.2 km/h
467 17-01-2020 14:50:00 9.8 C 8.35 g/m*3 9.8 C 0 km/h
468 17-01-2020 14:55:00 9.8 C 8.35 g/m*3 9.8 C 4.8 km/h
469 17-01-2020 15:00:00 9.7 C 8.3 g/m*3 9.7 C 4.8 km/h
470 17-01-2020 15:05:00 9.6 C 8.34 g/m*3 9.6 C 4.8 km/h
471 17-01-2020 15:10:00 9.5 C 8.28 g/m*3 9.5 C 3.2 km/h
472 17-01-2020 15:15:00 9.4 C 8.23 g/m*3 9.4 C 1.6 km/h
473 17-01-2020 15:20:00 9.3 C 8.27 g/m*3 8.56 C 6.4 km/h
474 17-01-2020 15:25:00 9.3 C 8.27 g/m*3 9.3 C 3.2 km/h
475 17-01-2020 15:30:00 9.2 C 8.22 g/m*3 8.45 C 6.4 km/h
Sensor: Nr:Datum:Temp:Abs-Feuchte:Windchill:Wind:
Aussen-T/F 476 17-01-2020 15:35:00 9.2 C 8.22 g/m*3 9.2 C 4.8 km/h
477 17-01-2020 15:40:00 9.2 C 8.22 g/m*3 9.2 C 1.6 km/h
478 17-01-2020 15:45:00 9.2 C 8.22 g/m*3 9.2 C 3.2 km/h
479 17-01-2020 15:50:00 9.1 C 8.16 g/m*3 9.1 C 1.6 km/h
480 17-01-2020 15:55:00 9.1 C 8.16 g/m*3 7.93 C 8.1 km/h
481 17-01-2020 16:00:00 9 C 8.11 g/m*3 9 C 1.6 km/h
482 17-01-2020 16:05:00 8.9 C 8.15 g/m*3 8.9 C 4.8 km/h
483 17-01-2020 16:10:00 8.9 C 8.15 g/m*3 8.1 C 6.4 km/h
484 17-01-2020 16:15:00 8.9 C 8.15 g/m*3 7.69 C 8.1 km/h
485 17-01-2020 16:20:00 8.9 C 8.06 g/m*3 8.1 C 6.4 km/h
486 17-01-2020 16:25:00 8.9 C 8.06 g/m*3 8.9 C 3.2 km/h
487 17-01-2020 16:30:00 8.9 C 8.15 g/m*3 8.9 C 3.2 km/h
488 17-01-2020 16:35:00 8.8 C 8.09 g/m*3 8.8 C 4.8 km/h
489 17-01-2020 16:40:00 8.8 C 8.09 g/m*3 8.8 C 1.6 km/h
490 17-01-2020 16:45:00 8.8 C 8.09 g/m*3 8.8 C 3.2 km/h
491 17-01-2020 16:50:00 8.7 C 8.04 g/m*3 8.7 C 0 km/h
492 17-01-2020 16:55:00 8.7 C 8.04 g/m*3 8.7 C 3.2 km/h
493 17-01-2020 17:00:00 8.7 C 8.04 g/m*3 8.7 C 1.6 km/h
494 17-01-2020 17:05:00 8.6 C 7.99 g/m*3 8.6 C 3.2 km/h
495 17-01-2020 17:10:00 8.7 C 8.13 g/m*3 7.46 C 8.1 km/h
496 17-01-2020 17:15:00 8.7 C 8.13 g/m*3 6.85 C 11.3 km/h
497 17-01-2020 17:20:00 8.9 C 8.15 g/m*3 7.09 C 11.3 km/h
498 17-01-2020 17:25:00 9 C 8.2 g/m*3 7.21 C 11.3 km/h
499 17-01-2020 17:30:00 9 C 8.11 g/m*3 7.21 C 11.3 km/h
500 17-01-2020 17:35:00 9 C 8.11 g/m*3 7.21 C 11.3 km/h
Sensor: Nr:Datum:Temp:Abs-Feuchte:Windchill:Wind:
Aussen-T/F 501 17-01-2020 17:40:00 9 C 8.11 g/m*3 9 C 4.8 km/h
502 17-01-2020 17:45:00 8.9 C 8.06 g/m*3 8.1 C 6.4 km/h
503 17-01-2020 17:50:00 8.8 C 8.01 g/m*3 7.98 C 6.4 km/h
504 17-01-2020 17:55:00 8.8 C 8.01 g/m*3 6.5 C 14.5 km/h
505 17-01-2020 18:00:00 8.9 C 8.06 g/m*3 8.1 C 6.4 km/h
506 17-01-2020 18:05:00 8.9 C 7.97 g/m*3 6.85 C 12.9 km/h
507 17-01-2020 18:10:00 9 C 8.02 g/m*3 6.97 C 12.9 km/h
508 17-01-2020 18:15:00 9 C 8.02 g/m*3 8.21 C 6.4 km/h
509 17-01-2020 18:20:00 8.9 C 7.97 g/m*3 7.69 C 8.1 km/h
510 17-01-2020 18:25:00 8.9 C 7.97 g/m*3 7.69 C 8.1 km/h
511 17-01-2020 18:30:00 8.9 C 7.97 g/m*3 6.62 C 14.5 km/h
512 17-01-2020 18:35:00 8.9 C 7.97 g/m*3 8.1 C 6.4 km/h
513 17-01-2020 18:40:00 8.8 C 7.92 g/m*3 8.8 C 4.8 km/h
514 17-01-2020 18:45:00 8.7 C 7.87 g/m*3 7.46 C 8.1 km/h
515 17-01-2020 18:50:00 8.6 C 7.82 g/m*3 7.34 C 8.1 km/h
516 17-01-2020 18:55:00 8.4 C 7.72 g/m*3 7.52 C 6.4 km/h
517 17-01-2020 19:00:00 8.3 C 7.67 g/m*3 8.3 C 4.8 km/h
518 17-01-2020 19:05:00 8.1 C 7.57 g/m*3 7.17 C 6.4 km/h
519 17-01-2020 19:10:00 7.9 C 7.56 g/m*3 6.94 C 6.4 km/h
520 17-01-2020 19:15:00 7.8 C 7.51 g/m*3 6.06 C 9.7 km/h
521 17-01-2020 19:20:00 7.8 C 7.43 g/m*3 6.4 C 8.1 km/h
522 17-01-2020 19:25:00 7.6 C 7.33 g/m*3 7.6 C 1.6 km/h
523 17-01-2020 19:30:00 7.3 C 7.19 g/m*3 7.3 C 3.2 km/h
524 17-01-2020 19:35:00 7.2 C 7.22 g/m*3 7.2 C 1.6 km/h
525 17-01-2020 19:40:00 7.1 C 7.18 g/m*3 7.1 C 3.2 km/h
Sensor: Nr:Datum:Temp:Abs-Feuchte:Windchill:Wind:
Aussen-T/F 526 17-01-2020 19:45:00 6.9 C 7.08 g/m*3 6.9 C 0 km/h
527 17-01-2020 19:50:00 6.9 C 7.16 g/m*3 6.9 C 0 km/h
528 17-01-2020 19:55:00 6.9 C 7.16 g/m*3 6.9 C 0 km/h
529 17-01-2020 20:00:00 6.9 C 7.24 g/m*3 6.9 C 3.2 km/h
530 17-01-2020 20:05:00 6.9 C 7.24 g/m*3 6.9 C 0 km/h
531 17-01-2020 20:10:00 6.9 C 7.24 g/m*3 6.9 C 0 km/h
532 17-01-2020 20:15:00 7 C 7.28 g/m*3 7 C 0 km/h
533 17-01-2020 20:20:00 7.1 C 7.33 g/m*3 7.1 C 1.6 km/h
534 17-01-2020 20:25:00 7.2 C 7.46 g/m*3 7.2 C 4.8 km/h
535 17-01-2020 20:30:00 7.3 C 7.43 g/m*3 7.3 C 4.8 km/h
536 17-01-2020 20:35:00 7.4 C 7.48 g/m*3 5.93 C 8.1 km/h
537 17-01-2020 20:40:00 7.5 C 7.44 g/m*3 6.48 C 6.4 km/h
538 17-01-2020 20:45:00 7.6 C 7.41 g/m*3 7.6 C 4.8 km/h
539 17-01-2020 20:50:00 7.7 C 7.3 g/m*3 5.94 C 9.7 km/h
540 17-01-2020 20:55:00 7.8 C 7.35 g/m*3 6.4 C 8.1 km/h
541 17-01-2020 21:00:00 7.9 C 7.31 g/m*3 4.98 C 17.7 km/h
542 17-01-2020 21:05:00 7.9 C 7.23 g/m*3 6.94 C 6.4 km/h
543 17-01-2020 21:10:00 7.9 C 7.23 g/m*3 5.89 C 11.3 km/h
544 17-01-2020 21:15:00 8 C 7.19 g/m*3 6.3 C 9.7 km/h
545 17-01-2020 21:20:00 7.9 C 7.15 g/m*3 6.94 C 6.4 km/h
546 17-01-2020 21:25:00 7.8 C 7.1 g/m*3 5.51 C 12.9 km/h
547 17-01-2020 21:30:00 7.6 C 7.01 g/m*3 6.6 C 6.4 km/h
548 17-01-2020 21:35:00 7.4 C 6.92 g/m*3 5.93 C 8.1 km/h
549 17-01-2020 21:40:00 7.4 C 6.84 g/m*3 7.4 C 4.8 km/h
550 17-01-2020 21:45:00 7.3 C 6.79 g/m*3 7.3 C 4.8 km/h
Sensor: Nr:Datum:Temp:Abs-Feuchte:Windchill:Wind:
Aussen-T/F 551 17-01-2020 21:50:00 7.2 C 6.75 g/m*3 7.2 C 4.8 km/h
552 17-01-2020 21:55:00 7.1 C 6.71 g/m*3 5.58 C 8.1 km/h
553 17-01-2020 22:00:00 6.9 C 6.62 g/m*3 5.79 C 6.4 km/h
554 17-01-2020 22:05:00 6.9 C 6.62 g/m*3 6.9 C 3.2 km/h
555 17-01-2020 22:10:00 6.7 C 6.53 g/m*3 6.7 C 3.2 km/h
556 17-01-2020 22:15:00 6.6 C 6.49 g/m*3 6.6 C 0 km/h
557 17-01-2020 22:20:00 6.4 C 6.41 g/m*3 6.4 C 0 km/h
558 17-01-2020 22:25:00 6.2 C 6.32 g/m*3 6.2 C 0 km/h
559 17-01-2020 22:30:00 5.9 C 6.27 g/m*3 5.9 C 0 km/h
560 17-01-2020 22:35:00 5.7 C 6.26 g/m*3 5.7 C 0 km/h
561 17-01-2020 22:40:00 5.5 C 6.18 g/m*3 5.5 C 4.8 km/h
562 17-01-2020 22:45:00 5.4 C 6.21 g/m*3 5.4 C 3.2 km/h
563 17-01-2020 22:50:00 5.3 C 6.17 g/m*3 5.3 C 0 km/h
564 17-01-2020 22:55:00 5.2 C 6.2 g/m*3 5.2 C 0 km/h
565 17-01-2020 23:00:00 5.1 C 6.16 g/m*3 5.1 C 0 km/h
566 17-01-2020 23:05:00 4.9 C 6.08 g/m*3 4.9 C 0 km/h
567 17-01-2020 23:10:00 4.8 C 6.04 g/m*3 4.8 C 0 km/h
568 17-01-2020 23:15:00 4.7 C 6.06 g/m*3 4.7 C 1.6 km/h
569 17-01-2020 23:20:00 4.7 C 6.06 g/m*3 4.7 C 3.2 km/h
570 17-01-2020 23:25:00 4.6 C 6.02 g/m*3 4.6 C 3.2 km/h
571 17-01-2020 23:30:00 4.6 C 6.02 g/m*3 4.6 C 0 km/h
572 17-01-2020 23:35:00 4.6 C 6.09 g/m*3 4.6 C 0 km/h
573 17-01-2020 23:40:00 4.6 C 6.09 g/m*3 4.6 C 0 km/h
574 17-01-2020 23:45:00 4.5 C 6.05 g/m*3 4.5 C 0 km/h
575 17-01-2020 23:50:00 4.4 C 6.01 g/m*3 4.4 C 0 km/h
Sensor: Nr:Datum:Temp:Abs-Feuchte:Windchill:Wind:
Aussen-T/F 576 17-01-2020 23:55:00 4.3 C 5.97 g/m*3 4.3 C 0 km/h
577 18-01-2020 00:00:00 4.2 C 5.93 g/m*3 4.2 C 0 km/h
578 18-01-2020 00:05:00 4.1 C 5.89 g/m*3 4.1 C 0 km/h
579 18-01-2020 00:10:00 4 C 5.85 g/m*3 4 C 0 km/h
580 18-01-2020 00:15:00 3.9 C 5.87 g/m*3 3.9 C 0 km/h
581 18-01-2020 00:20:00 3.9 C 5.87 g/m*3 3.9 C 0 km/h
582 18-01-2020 00:25:00 4 C 5.91 g/m*3 4 C 0 km/h
583 18-01-2020 00:30:00 3.9 C 5.87 g/m*3 3.9 C 0 km/h
584 18-01-2020 00:35:00 3.9 C 5.94 g/m*3 3.9 C 0 km/h
585 18-01-2020 00:40:00 4 C 5.98 g/m*3 4 C 0 km/h
586 18-01-2020 00:45:00 4.1 C 6.02 g/m*3 4.1 C 0 km/h
587 18-01-2020 00:50:00 4.2 C 6.06 g/m*3 2.17 C 8.1 km/h
588 18-01-2020 00:55:00 4.3 C 6.1 g/m*3 2.29 C 8.1 km/h
589 18-01-2020 01:00:00 4.3 C 6.1 g/m*3 4.3 C 4.8 km/h
590 18-01-2020 01:05:00 4.4 C 6.14 g/m*3 2.9 C 6.4 km/h
591 18-01-2020 01:10:00 4.5 C 6.11 g/m*3 4.5 C 3.2 km/h
592 18-01-2020 01:15:00 4.6 C 6.15 g/m*3 4.6 C 1.6 km/h
593 18-01-2020 01:20:00 4.6 C 6.15 g/m*3 4.6 C 0 km/h
594 18-01-2020 01:25:00 4.6 C 6.15 g/m*3 4.6 C 0 km/h
595 18-01-2020 01:30:00 4.6 C 6.15 g/m*3 4.6 C 0 km/h
596 18-01-2020 01:35:00 4.6 C 6.15 g/m*3 4.6 C 0 km/h
597 18-01-2020 01:40:00 4.6 C 6.15 g/m*3 4.6 C 0 km/h
598 18-01-2020 01:45:00 4.6 C 6.15 g/m*3 4.6 C 1.6 km/h
599 18-01-2020 01:50:00 4.6 C 6.22 g/m*3 4.6 C 3.2 km/h
600 18-01-2020 01:55:00 4.7 C 6.26 g/m*3 4.7 C 1.6 km/h
Sensor: Nr:Datum:Temp:Abs-Feuchte:Windchill:Wind:
Aussen-T/F 601 18-01-2020 02:00:00 4.7 C 6.19 g/m*3 4.7 C 1.6 km/h
602 18-01-2020 02:05:00 4.7 C 6.19 g/m*3 4.7 C 0 km/h
603 18-01-2020 02:10:00 4.6 C 6.15 g/m*3 4.6 C 0 km/h
604 18-01-2020 02:15:00 4.5 C 6.11 g/m*3 4.5 C 1.6 km/h
605 18-01-2020 02:20:00 4.4 C 6.07 g/m*3 4.4 C 1.6 km/h
606 18-01-2020 02:25:00 4.5 C 6.11 g/m*3 4.5 C 4.8 km/h
607 18-01-2020 02:30:00 4.5 C 6.11 g/m*3 4.5 C 0 km/h
608 18-01-2020 02:35:00 4.4 C 6.07 g/m*3 4.4 C 0 km/h
609 18-01-2020 02:40:00 4.3 C 6.03 g/m*3 4.3 C 1.6 km/h
610 18-01-2020 02:45:00 4.3 C 6.03 g/m*3 2.29 C 8.1 km/h
611 18-01-2020 02:50:00 4.4 C 6.07 g/m*3 4.4 C 4.8 km/h
612 18-01-2020 02:55:00 4.4 C 6.07 g/m*3 4.4 C 3.2 km/h
613 18-01-2020 03:00:00 4.5 C 6.11 g/m*3 3.02 C 6.4 km/h
614 18-01-2020 03:05:00 4.7 C 6.13 g/m*3 2.37 C 9.7 km/h
615 18-01-2020 03:10:00 4.8 C 6.1 g/m*3 2.15 C 11.3 km/h
616 18-01-2020 03:15:00 5 C 6.12 g/m*3 3.11 C 8.1 km/h
617 18-01-2020 03:20:00 5.1 C 6.16 g/m*3 3.71 C 6.4 km/h
618 18-01-2020 03:25:00 5.1 C 6.16 g/m*3 3.23 C 8.1 km/h
619 18-01-2020 03:30:00 5.1 C 6.09 g/m*3 2.84 C 9.7 km/h
620 18-01-2020 03:35:00 5.1 C 6.09 g/m*3 3.71 C 6.4 km/h
621 18-01-2020 03:40:00 5 C 6.05 g/m*3 3.59 C 6.4 km/h
622 18-01-2020 03:45:00 4.9 C 6.01 g/m*3 2.27 C 11.3 km/h
623 18-01-2020 03:50:00 4.9 C 6.01 g/m*3 2.99 C 8.1 km/h
624 18-01-2020 03:55:00 4.9 C 6.01 g/m*3 4.9 C 4.8 km/h
625 18-01-2020 04:00:00 4.9 C 6.01 g/m*3 2.99 C 8.1 km/h
Sensor: Nr:Datum:Temp:Abs-Feuchte:Windchill:Wind:
Aussen-T/F 626 18-01-2020 04:05:00 4.8 C 5.97 g/m*3 4.8 C 4.8 km/h
627 18-01-2020 04:10:00 4.8 C 5.97 g/m*3 2.49 C 9.7 km/h
628 18-01-2020 04:15:00 4.8 C 5.97 g/m*3 3.36 C 6.4 km/h
629 18-01-2020 04:20:00 4.7 C 5.93 g/m*3 4.7 C 4.8 km/h
630 18-01-2020 04:25:00 4.7 C 5.93 g/m*3 4.7 C 4.8 km/h
631 18-01-2020 04:30:00 4.6 C 5.89 g/m*3 3.13 C 6.4 km/h
632 18-01-2020 04:35:00 4.6 C 5.89 g/m*3 2.64 C 8.1 km/h
633 18-01-2020 04:40:00 4.6 C 5.96 g/m*3 1.61 C 12.9 km/h
634 18-01-2020 04:45:00 4.6 C 5.96 g/m*3 1.61 C 12.9 km/h
635 18-01-2020 04:50:00 4.6 C 5.96 g/m*3 1.91 C 11.3 km/h
636 18-01-2020 04:55:00 4.5 C 5.85 g/m*3 4.5 C 4.8 km/h
637 18-01-2020 05:00:00 4.5 C 5.85 g/m*3 3.02 C 6.4 km/h
638 18-01-2020 05:05:00 4.4 C 5.81 g/m*3 2.01 C 9.7 km/h
639 18-01-2020 05:10:00 4.4 C 5.81 g/m*3 4.4 C 4.8 km/h
640 18-01-2020 05:15:00 4.4 C 5.81 g/m*3 2.4 C 8.1 km/h
641 18-01-2020 05:20:00 4.3 C 5.77 g/m*3 2.78 C 6.4 km/h
642 18-01-2020 05:25:00 4.3 C 5.77 g/m*3 2.78 C 6.4 km/h
643 18-01-2020 05:30:00 4.2 C 5.73 g/m*3 4.2 C 4.8 km/h
644 18-01-2020 05:35:00 4.3 C 5.77 g/m*3 2.29 C 8.1 km/h
645 18-01-2020 05:40:00 4.3 C 5.77 g/m*3 2.29 C 8.1 km/h
646 18-01-2020 05:45:00 4.2 C 5.73 g/m*3 2.67 C 6.4 km/h
647 18-01-2020 05:50:00 4.2 C 5.73 g/m*3 4.2 C 4.8 km/h
648 18-01-2020 05:55:00 4.1 C 5.7 g/m*3 1.65 C 9.7 km/h
649 18-01-2020 06:00:00 3.9 C 5.62 g/m*3 2.32 C 6.4 km/h
650 18-01-2020 06:05:00 3.9 C 5.62 g/m*3 1.41 C 9.7 km/h
Sensor: Nr:Datum:Temp:Abs-Feuchte:Windchill:Wind:
Aussen-T/F 651 18-01-2020 06:10:00 4 C 5.72 g/m*3 1.93 C 8.1 km/h
652 18-01-2020 06:15:00 4.1 C 5.7 g/m*3 1 C 12.9 km/h
653 18-01-2020 06:20:00 4.1 C 5.7 g/m*3 2.05 C 8.1 km/h
654 18-01-2020 06:25:00 4.1 C 5.7 g/m*3 2.55 C 6.4 km/h
655 18-01-2020 06:30:00 4.1 C 5.7 g/m*3 2.55 C 6.4 km/h
656 18-01-2020 06:35:00 4 C 5.66 g/m*3 2.44 C 6.4 km/h
657 18-01-2020 06:40:00 4 C 5.66 g/m*3 2.44 C 6.4 km/h
658 18-01-2020 06:45:00 4 C 5.66 g/m*3 1.53 C 9.7 km/h
659 18-01-2020 06:50:00 4.1 C 5.7 g/m*3 1.31 C 11.3 km/h
660 18-01-2020 06:55:00 4.2 C 5.67 g/m*3 2.17 C 8.1 km/h
661 18-01-2020 07:00:00 4.2 C 5.67 g/m*3 4.2 C 4.8 km/h
662 18-01-2020 07:05:00 4.1 C 5.63 g/m*3 2.55 C 6.4 km/h
663 18-01-2020 07:10:00 4.1 C 5.63 g/m*3 4.1 C 4.8 km/h
664 18-01-2020 07:15:00 4 C 5.66 g/m*3 4 C 4.8 km/h
665 18-01-2020 07:20:00 4 C 5.66 g/m*3 4 C 4.8 km/h
666 18-01-2020 07:25:00 4 C 5.66 g/m*3 4 C 3.2 km/h
667 18-01-2020 07:30:00 3.9 C 5.62 g/m*3 3.9 C 4.8 km/h
668 18-01-2020 07:35:00 3.9 C 5.62 g/m*3 3.9 C 4.8 km/h
669 18-01-2020 07:40:00 3.9 C 5.62 g/m*3 1.82 C 8.1 km/h
670 18-01-2020 07:45:00 4.1 C 5.76 g/m*3 4.1 C 3.2 km/h
671 18-01-2020 07:50:00 4.2 C 5.73 g/m*3 4.2 C 4.8 km/h
672 18-01-2020 07:55:00 4.2 C 5.73 g/m*3 4.2 C 4.8 km/h
673 18-01-2020 08:00:00 4.2 C 5.73 g/m*3 2.17 C 8.1 km/h
674 18-01-2020 08:05:00 4.3 C 5.77 g/m*3 4.3 C 4.8 km/h
675 18-01-2020 08:10:00 4.3 C 5.77 g/m*3 4.3 C 4.8 km/h
Sensor: Nr:Datum:Temp:Abs-Feuchte:Windchill:Wind:
Aussen-T/F 676 18-01-2020 08:15:00 4.4 C 5.81 g/m*3 2.01 C 9.7 km/h
677 18-01-2020 08:20:00 4.5 C 5.78 g/m*3 4.5 C 4.8 km/h
678 18-01-2020 08:25:00 4.4 C 5.75 g/m*3 2.9 C 6.4 km/h
679 18-01-2020 08:30:00 4.4 C 5.75 g/m*3 4.4 C 1.6 km/h
680 18-01-2020 08:35:00 4.4 C 5.75 g/m*3 2.9 C 6.4 km/h
681 18-01-2020 08:40:00 4.3 C 5.71 g/m*3 4.3 C 3.2 km/h
682 18-01-2020 08:45:00 4.3 C 5.77 g/m*3 1.89 C 9.7 km/h
683 18-01-2020 08:50:00 4.3 C 5.77 g/m*3 1.55 C 11.3 km/h
684 18-01-2020 08:55:00 4.3 C 5.77 g/m*3 1.89 C 9.7 km/h
685 18-01-2020 09:00:00 4.4 C 5.81 g/m*3 1.36 C 12.9 km/h
686 18-01-2020 09:05:00 4.6 C 5.82 g/m*3 1.34 C 14.5 km/h
687 18-01-2020 09:10:00 4.6 C 5.82 g/m*3 1.91 C 11.3 km/h
688 18-01-2020 09:15:00 4.6 C 5.82 g/m*3 2.25 C 9.7 km/h
689 18-01-2020 09:20:00 4.6 C 5.82 g/m*3 1.61 C 12.9 km/h
690 18-01-2020 09:25:00 4.7 C 5.86 g/m*3 2.37 C 9.7 km/h
691 18-01-2020 09:30:00 4.8 C 5.9 g/m*3 2.15 C 11.3 km/h
692 18-01-2020 09:35:00 4.8 C 5.83 g/m*3 2.15 C 11.3 km/h
693 18-01-2020 09:40:00 4.7 C 5.8 g/m*3 2.03 C 11.3 km/h
694 18-01-2020 09:45:00 4.7 C 5.8 g/m*3 2.76 C 8.1 km/h
695 18-01-2020 09:50:00 4.7 C 5.86 g/m*3 1.21 C 16.1 km/h
696 18-01-2020 09:55:00 4.8 C 5.9 g/m*3 3.36 C 6.4 km/h
697 18-01-2020 10:00:00 4.9 C 5.94 g/m*3 2.99 C 8.1 km/h
698 18-01-2020 10:05:00 5 C 5.91 g/m*3 5 C 4.8 km/h
699 18-01-2020 10:10:00 5.1 C 5.95 g/m*3 2.22 C 12.9 km/h
700 18-01-2020 10:15:00 5.2 C 5.99 g/m*3 2.63 C 11.3 km/h
Sensor: Nr:Datum:Temp:Abs-Feuchte:Windchill:Wind:
Aussen-T/F 701 18-01-2020 10:20:00 5.3 C 5.96 g/m*3 3.46 C 8.1 km/h
702 18-01-2020 10:25:00 5.3 C 5.96 g/m*3 3.46 C 8.1 km/h
703 18-01-2020 10:30:00 5.3 C 5.96 g/m*3 3.94 C 6.4 km/h
704 18-01-2020 10:35:00 5.3 C 5.96 g/m*3 3.46 C 8.1 km/h
705 18-01-2020 10:40:00 5.3 C 5.96 g/m*3 5.3 C 4.8 km/h
706 18-01-2020 10:45:00 5.3 C 6.03 g/m*3 3.08 C 9.7 km/h
707 18-01-2020 10:50:00 5.4 C 6 g/m*3 3.58 C 8.1 km/h
708 18-01-2020 10:55:00 5.5 C 6.04 g/m*3 2.99 C 11.3 km/h
709 18-01-2020 11:00:00 5.6 C 6.08 g/m*3 3.11 C 11.3 km/h
710 18-01-2020 11:05:00 5.6 C 6.01 g/m*3 2.83 C 12.9 km/h
711 18-01-2020 11:10:00 5.7 C 6.05 g/m*3 2.45 C 16.1 km/h
712 18-01-2020 11:15:00 5.7 C 6.05 g/m*3 3.23 C 11.3 km/h
713 18-01-2020 11:20:00 5.7 C 5.98 g/m*3 2.69 C 14.5 km/h
714 18-01-2020 11:25:00 5.8 C 6.09 g/m*3 3.68 C 9.7 km/h
715 18-01-2020 11:30:00 5.8 C 6.09 g/m*3 3.07 C 12.9 km/h
716 18-01-2020 11:35:00 5.8 C 6.09 g/m*3 3.36 C 11.3 km/h
717 18-01-2020 11:40:00 5.9 C 6.13 g/m*3 4.63 C 6.4 km/h
718 18-01-2020 11:45:00 5.9 C 6.13 g/m*3 3.48 C 11.3 km/h
719 18-01-2020 11:50:00 6 C 6.1 g/m*3 3.6 C 11.3 km/h
720 18-01-2020 11:55:00 6.1 C 6.14 g/m*3 4.04 C 9.7 km/h
721 18-01-2020 12:00:00 6.1 C 6.14 g/m*3 3.72 C 11.3 km/h
722 18-01-2020 12:05:00 6.2 C 6.18 g/m*3 3.84 C 11.3 km/h
723 18-01-2020 12:10:00 6.2 C 6.18 g/m*3 2.66 C 19.3 km/h
724 18-01-2020 12:15:00 6.2 C 6.18 g/m*3 4.98 C 6.4 km/h
725 18-01-2020 12:20:00 6.3 C 6.14 g/m*3 3.68 C 12.9 km/h
Sensor: Nr:Datum:Temp:Abs-Feuchte:Windchill:Wind:
Aussen-T/F 726 18-01-2020 12:25:00 6.3 C 6.14 g/m*3 4.27 C 9.7 km/h
727 18-01-2020 12:30:00 6.2 C 6.1 g/m*3 4.15 C 9.7 km/h
728 18-01-2020 12:35:00 6.2 C 6.1 g/m*3 4.15 C 9.7 km/h
729 18-01-2020 12:40:00 6.2 C 6.1 g/m*3 4.98 C 6.4 km/h
730 18-01-2020 12:45:00 6.2 C 6.1 g/m*3 3.84 C 11.3 km/h
731 18-01-2020 12:50:00 6.1 C 6.06 g/m*3 4.86 C 6.4 km/h
732 18-01-2020 12:55:00 6.2 C 6.1 g/m*3 4.15 C 9.7 km/h
733 18-01-2020 13:00:00 6.2 C 6.03 g/m*3 3.56 C 12.9 km/h
734 18-01-2020 13:05:00 6.3 C 6.07 g/m*3 4.64 C 8.1 km/h
735 18-01-2020 13:10:00 6.3 C 6.07 g/m*3 4.27 C 9.7 km/h
736 18-01-2020 13:15:00 6.3 C 6.07 g/m*3 4.64 C 8.1 km/h
737 18-01-2020 13:20:00 6.3 C 6.07 g/m*3 4.64 C 8.1 km/h
738 18-01-2020 13:25:00 6.3 C 6.07 g/m*3 4.64 C 8.1 km/h
739 18-01-2020 13:30:00 6.4 C 6.18 g/m*3 5.21 C 6.4 km/h
740 18-01-2020 13:35:00 6.4 C 6.26 g/m*3 5.21 C 6.4 km/h
741 18-01-2020 13:40:00 6.4 C 6.26 g/m*3 4.75 C 8.1 km/h
742 18-01-2020 13:45:00 6.3 C 6.14 g/m*3 3.43 C 14.5 km/h
743 18-01-2020 13:50:00 6.3 C 6.14 g/m*3 3.96 C 11.3 km/h
744 18-01-2020 13:55:00 6.2 C 6.1 g/m*3 4.15 C 9.7 km/h
745 18-01-2020 14:00:00 6.3 C 6.22 g/m*3 4.64 C 8.1 km/h
746 18-01-2020 14:05:00 6.2 C 6.1 g/m*3 4.98 C 6.4 km/h
747 18-01-2020 14:10:00 6.2 C 6.1 g/m*3 4.15 C 9.7 km/h
748 18-01-2020 14:15:00 6.2 C 6.1 g/m*3 4.98 C 6.4 km/h
749 18-01-2020 14:20:00 6.1 C 6.06 g/m*3 4.86 C 6.4 km/h
750 18-01-2020 14:25:00 6.2 C 6.1 g/m*3 3.84 C 11.3 km/h
Sensor: Nr:Datum:Temp:Abs-Feuchte:Windchill:Wind:
Aussen-T/F 751 18-01-2020 14:30:00 6.3 C 6.07 g/m*3 4.27 C 9.7 km/h
752 18-01-2020 14:35:00 6.4 C 6.11 g/m*3 5.21 C 6.4 km/h
753 18-01-2020 14:40:00 6.5 C 6.15 g/m*3 5.33 C 6.4 km/h
754 18-01-2020 14:45:00 6.6 C 6.04 g/m*3 5.44 C 6.4 km/h
755 18-01-2020 14:50:00 6.7 C 5.93 g/m*3 4.44 C 11.3 km/h
756 18-01-2020 14:55:00 6.8 C 5.89 g/m*3 4.29 C 12.9 km/h
757 18-01-2020 15:00:00 6.9 C 5.93 g/m*3 4.68 C 11.3 km/h
758 18-01-2020 15:05:00 6.9 C 6.08 g/m*3 4.41 C 12.9 km/h
759 18-01-2020 15:10:00 6.8 C 6.04 g/m*3 4.29 C 12.9 km/h
760 18-01-2020 15:15:00 6.8 C 6.04 g/m*3 4.56 C 11.3 km/h
761 18-01-2020 15:20:00 6.8 C 6.12 g/m*3 5.22 C 8.1 km/h
762 18-01-2020 15:25:00 6.7 C 6.08 g/m*3 5.11 C 8.1 km/h
763 18-01-2020 15:30:00 6.7 C 6.08 g/m*3 5.56 C 6.4 km/h
764 18-01-2020 15:35:00 6.7 C 6.08 g/m*3 5.11 C 8.1 km/h
765 18-01-2020 15:40:00 6.6 C 6.04 g/m*3 4.32 C 11.3 km/h
766 18-01-2020 15:45:00 6.6 C 6.11 g/m*3 6.6 C 4.8 km/h
767 18-01-2020 15:50:00 6.4 C 6.04 g/m*3 6.4 C 4.8 km/h
768 18-01-2020 15:55:00 6.4 C 6.04 g/m*3 5.21 C 6.4 km/h
769 18-01-2020 16:00:00 6.3 C 6.07 g/m*3 6.3 C 4.8 km/h
770 18-01-2020 16:05:00 6.3 C 6.07 g/m*3 4.27 C 9.7 km/h
771 18-01-2020 16:10:00 6.2 C 6.03 g/m*3 6.2 C 4.8 km/h
772 18-01-2020 16:15:00 6.1 C 5.99 g/m*3 4.4 C 8.1 km/h
773 18-01-2020 16:20:00 6 C 5.95 g/m*3 6 C 4.8 km/h
774 18-01-2020 16:25:00 5.9 C 5.98 g/m*3 5.9 C 4.8 km/h
775 18-01-2020 16:30:00 5.8 C 5.87 g/m*3 4.52 C 6.4 km/h
Sensor: Nr:Datum:Temp:Abs-Feuchte:Windchill:Wind:
Aussen-T/F 776 18-01-2020 16:35:00 5.7 C 5.84 g/m*3 5.7 C 4.8 km/h
777 18-01-2020 16:40:00 5.6 C 5.8 g/m*3 5.6 C 3.2 km/h
778 18-01-2020 16:45:00 5.4 C 5.79 g/m*3 4.06 C 6.4 km/h
779 18-01-2020 16:50:00 5.3 C 5.75 g/m*3 5.3 C 1.6 km/h
780 18-01-2020 16:55:00 5.3 C 5.82 g/m*3 3.08 C 9.7 km/h
781 18-01-2020 17:00:00 5.3 C 5.89 g/m*3 5.3 C 4.8 km/h
782 18-01-2020 17:05:00 5.2 C 5.85 g/m*3 5.2 C 3.2 km/h
783 18-01-2020 17:10:00 5.2 C 5.85 g/m*3 5.2 C 4.8 km/h
784 18-01-2020 17:15:00 5.2 C 5.85 g/m*3 5.2 C 3.2 km/h
785 18-01-2020 17:20:00 5.2 C 5.85 g/m*3 3.82 C 6.4 km/h
786 18-01-2020 17:25:00 5.1 C 5.81 g/m*3 5.1 C 4.8 km/h
787 18-01-2020 17:30:00 4.9 C 5.74 g/m*3 4.9 C 1.6 km/h
788 18-01-2020 17:35:00 4.8 C 5.7 g/m*3 4.8 C 3.2 km/h
789 18-01-2020 17:40:00 4.6 C 5.69 g/m*3 4.6 C 3.2 km/h
790 18-01-2020 17:45:00 4.5 C 5.65 g/m*3 4.5 C 3.2 km/h
791 18-01-2020 17:50:00 4.3 C 5.58 g/m*3 4.3 C 4.8 km/h
792 18-01-2020 17:55:00 4.3 C 5.58 g/m*3 4.3 C 3.2 km/h
793 18-01-2020 18:00:00 4.2 C 5.61 g/m*3 4.2 C 3.2 km/h
794 18-01-2020 18:05:00 4 C 5.53 g/m*3 4 C 3.2 km/h
795 18-01-2020 18:10:00 3.8 C 5.46 g/m*3 3.8 C 1.6 km/h
796 18-01-2020 18:15:00 3.7 C 5.42 g/m*3 3.7 C 1.6 km/h
797 18-01-2020 18:20:00 3.6 C 5.45 g/m*3 3.6 C 1.6 km/h
798 18-01-2020 18:25:00 3.4 C 5.37 g/m*3 3.4 C 3.2 km/h
799 18-01-2020 18:30:00 3.3 C 5.4 g/m*3 3.3 C 1.6 km/h
800 18-01-2020 18:35:00 3.2 C 5.42 g/m*3 3.2 C 1.6 km/h
Sensor: Nr:Datum:Temp:Abs-Feuchte:Windchill:Wind:
Aussen-T/F 801 18-01-2020 18:40:00 3.2 C 5.42 g/m*3 3.2 C 3.2 km/h
802 18-01-2020 18:45:00 3.3 C 5.46 g/m*3 1.11 C 8.1 km/h
803 18-01-2020 18:50:00 3.4 C 5.5 g/m*3 3.4 C 4.8 km/h
804 18-01-2020 18:55:00 3.6 C 5.57 g/m*3 3.6 C 4.8 km/h
805 18-01-2020 19:00:00 3.6 C 5.51 g/m*3 3.6 C 3.2 km/h
806 18-01-2020 19:05:00 3.5 C 5.41 g/m*3 3.5 C 1.6 km/h
807 18-01-2020 19:10:00 3.3 C 5.34 g/m*3 3.3 C 0 km/h
808 18-01-2020 19:15:00 3.2 C 5.3 g/m*3 3.2 C 1.6 km/h
809 18-01-2020 19:20:00 3 C 5.23 g/m*3 3 C 1.6 km/h
810 18-01-2020 19:25:00 2.8 C 5.22 g/m*3 2.8 C 0 km/h
811 18-01-2020 19:30:00 2.7 C 5.24 g/m*3 2.7 C 0 km/h
812 18-01-2020 19:35:00 2.6 C 5.21 g/m*3 2.6 C 0 km/h
813 18-01-2020 19:40:00 2.4 C 5.14 g/m*3 2.4 C 1.6 km/h
814 18-01-2020 19:45:00 2.3 C 5.16 g/m*3 2.3 C 1.6 km/h
815 18-01-2020 19:50:00 2.3 C 5.16 g/m*3 2.3 C 0 km/h
816 18-01-2020 19:55:00 2.2 C 5.13 g/m*3 2.2 C 0 km/h
817 18-01-2020 20:00:00 2.2 C 5.13 g/m*3 2.2 C 0 km/h
818 18-01-2020 20:05:00 2.1 C 5.09 g/m*3 2.1 C 0 km/h
819 18-01-2020 20:10:00 1.9 C 5.02 g/m*3 1.9 C 3.2 km/h
820 18-01-2020 20:15:00 1.8 C 4.99 g/m*3 1.8 C 3.2 km/h
821 18-01-2020 20:20:00 1.7 C 5.01 g/m*3 1.7 C 0 km/h
822 18-01-2020 20:25:00 1.6 C 4.97 g/m*3 1.6 C 1.6 km/h
823 18-01-2020 20:30:00 1.6 C 4.97 g/m*3 1.6 C 3.2 km/h
824 18-01-2020 20:35:00 1.5 C 4.94 g/m*3 1.5 C 0 km/h
825 18-01-2020 20:40:00 1.4 C 4.91 g/m*3 1.4 C 0 km/h
Sensor: Nr:Datum:Temp:Abs-Feuchte:Windchill:Wind:
Aussen-T/F 826 18-01-2020 20:45:00 1.4 C 4.91 g/m*3 1.4 C 0 km/h
827 18-01-2020 20:50:00 1.3 C 4.87 g/m*3 1.3 C 0 km/h
828 18-01-2020 20:55:00 1.3 C 4.93 g/m*3 1.3 C 0 km/h
829 18-01-2020 21:00:00 1.2 C 4.89 g/m*3 1.2 C 0 km/h
830 18-01-2020 21:05:00 1.3 C 4.93 g/m*3 1.3 C 0 km/h
831 18-01-2020 21:10:00 1.3 C 4.93 g/m*3 1.3 C 0 km/h
832 18-01-2020 21:15:00 1.4 C 5.01 g/m*3 1.4 C 1.6 km/h
833 18-01-2020 21:20:00 1.6 C 5.08 g/m*3 1.6 C 0 km/h
834 18-01-2020 21:25:00 1.7 C 5.12 g/m*3 1.7 C 1.6 km/h
835 18-01-2020 21:30:00 1.8 C 5.15 g/m*3 1.8 C 0 km/h
836 18-01-2020 21:35:00 1.9 C 5.19 g/m*3 1.9 C 1.6 km/h
837 18-01-2020 21:40:00 2 C 5.22 g/m*3 2 C 0 km/h
838 18-01-2020 21:45:00 2.1 C 5.26 g/m*3 2.1 C 3.2 km/h
839 18-01-2020 21:50:00 2.2 C 5.29 g/m*3 0.36 C 6.4 km/h
840 18-01-2020 21:55:00 2.2 C 5.29 g/m*3 2.2 C 1.6 km/h
841 18-01-2020 22:00:00 2.2 C 5.24 g/m*3 2.2 C 0 km/h
842 18-01-2020 22:05:00 2.2 C 5.24 g/m*3 2.2 C 0 km/h
843 18-01-2020 22:10:00 2.1 C 5.2 g/m*3 2.1 C 0 km/h
844 18-01-2020 22:15:00 2.1 C 5.2 g/m*3 2.1 C 1.6 km/h
845 18-01-2020 22:20:00 2.1 C 5.2 g/m*3 2.1 C 1.6 km/h
846 18-01-2020 22:25:00 2 C 5.17 g/m*3 2 C 3.2 km/h
847 18-01-2020 22:30:00 2.1 C 5.2 g/m*3 2.1 C 4.8 km/h
848 18-01-2020 22:35:00 2.2 C 5.24 g/m*3 -0.18 C 8.1 km/h
849 18-01-2020 22:40:00 2.3 C 5.27 g/m*3 2.3 C 0 km/h
850 18-01-2020 22:45:00 2.4 C 5.31 g/m*3 2.4 C 3.2 km/h
Sensor: Nr:Datum:Temp:Abs-Feuchte:Windchill:Wind:
Aussen-T/F 851 18-01-2020 22:50:00 2.5 C 5.35 g/m*3 0.71 C 6.4 km/h
852 18-01-2020 22:55:00 2.6 C 5.38 g/m*3 2.6 C 4.8 km/h
853 18-01-2020 23:00:00 2.7 C 5.42 g/m*3 2.7 C 3.2 km/h
854 18-01-2020 23:05:00 2.7 C 5.42 g/m*3 2.7 C 3.2 km/h
855 18-01-2020 23:10:00 2.8 C 5.4 g/m*3 2.8 C 0 km/h
856 18-01-2020 23:15:00 2.9 C 5.43 g/m*3 2.9 C 3.2 km/h
857 18-01-2020 23:20:00 2.9 C 5.43 g/m*3 2.9 C 3.2 km/h
858 18-01-2020 23:25:00 3.1 C 5.51 g/m*3 0.87 C 8.1 km/h
859 18-01-2020 23:30:00 3.3 C 5.58 g/m*3 3.3 C 3.2 km/h
860 18-01-2020 23:35:00 3.4 C 5.62 g/m*3 3.4 C 4.8 km/h
861 18-01-2020 23:40:00 3.5 C 5.6 g/m*3 3.5 C 3.2 km/h
862 18-01-2020 23:45:00 3.6 C 5.63 g/m*3 3.6 C 4.8 km/h
863 18-01-2020 23:50:00 3.6 C 5.69 g/m*3 1.98 C 6.4 km/h
864 18-01-2020 23:55:00 3.6 C 5.63 g/m*3 3.6 C 4.8 km/h
865 19-01-2020 00:00:00 3.5 C 5.6 g/m*3 3.5 C 3.2 km/h
866 19-01-2020 00:05:00 3.4 C 5.56 g/m*3 3.4 C 1.6 km/h
867 19-01-2020 00:10:00 3.3 C 5.58 g/m*3 3.3 C 1.6 km/h
868 19-01-2020 00:15:00 3.3 C 5.58 g/m*3 3.3 C 3.2 km/h
869 19-01-2020 00:20:00 3.3 C 5.64 g/m*3 3.3 C 0 km/h
870 19-01-2020 00:25:00 3.3 C 5.64 g/m*3 3.3 C 1.6 km/h
871 19-01-2020 00:30:00 3.3 C 5.64 g/m*3 3.3 C 0 km/h
872 19-01-2020 00:35:00 3.3 C 5.64 g/m*3 3.3 C 1.6 km/h
873 19-01-2020 00:40:00 3.3 C 5.64 g/m*3 1.63 C 6.4 km/h
874 19-01-2020 00:45:00 3.3 C 5.64 g/m*3 0.34 C 11.3 km/h
875 19-01-2020 00:50:00 3.3 C 5.64 g/m*3 3.3 C 0 km/h
Sensor: Nr:Datum:Temp:Abs-Feuchte:Windchill:Wind:
Aussen-T/F 876 19-01-2020 00:55:00 3.3 C 5.64 g/m*3 3.3 C 0 km/h
877 19-01-2020 01:00:00 3.3 C 5.64 g/m*3 3.3 C 1.6 km/h
878 19-01-2020 01:05:00 3.3 C 5.64 g/m*3 0.7 C 9.7 km/h
879 19-01-2020 01:10:00 3.3 C 5.64 g/m*3 3.3 C 3.2 km/h
880 19-01-2020 01:15:00 3.3 C 5.64 g/m*3 3.3 C 1.6 km/h
881 19-01-2020 01:20:00 3.3 C 5.64 g/m*3 1.11 C 8.1 km/h
882 19-01-2020 01:25:00 3.2 C 5.6 g/m*3 3.2 C 0 km/h
883 19-01-2020 01:30:00 3.2 C 5.6 g/m*3 3.2 C 1.6 km/h
884 19-01-2020 01:35:00 3.1 C 5.57 g/m*3 3.1 C 3.2 km/h
885 19-01-2020 01:40:00 3.1 C 5.57 g/m*3 3.1 C 0 km/h
886 19-01-2020 01:45:00 3.1 C 5.63 g/m*3 3.1 C 0 km/h
887 19-01-2020 01:50:00 3 C 5.59 g/m*3 3 C 0 km/h
888 19-01-2020 01:55:00 3 C 5.59 g/m*3 3 C 0 km/h
889 19-01-2020 02:00:00 2.9 C 5.55 g/m*3 2.9 C 0 km/h
890 19-01-2020 02:05:00 2.9 C 5.55 g/m*3 2.9 C 0 km/h
891 19-01-2020 02:10:00 2.9 C 5.55 g/m*3 2.9 C 3.2 km/h
892 19-01-2020 02:15:00 2.9 C 5.55 g/m*3 2.9 C 1.6 km/h
893 19-01-2020 02:20:00 2.9 C 5.55 g/m*3 2.9 C 0 km/h
894 19-01-2020 02:25:00 2.9 C 5.55 g/m*3 2.9 C 3.2 km/h
895 19-01-2020 02:30:00 2.8 C 5.57 g/m*3 2.8 C 1.6 km/h
896 19-01-2020 02:35:00 2.8 C 5.57 g/m*3 2.8 C 1.6 km/h
897 19-01-2020 02:40:00 2.8 C 5.51 g/m*3 2.8 C 0 km/h
898 19-01-2020 02:45:00 2.8 C 5.51 g/m*3 2.8 C 0 km/h
899 19-01-2020 02:50:00 2.7 C 5.48 g/m*3 2.7 C 0 km/h
900 19-01-2020 02:55:00 2.7 C 5.54 g/m*3 2.7 C 0 km/h
Sensor: Nr:Datum:Temp:Abs-Feuchte:Windchill:Wind:
Aussen-T/F 901 19-01-2020 03:00:00 2.7 C 5.54 g/m*3 2.7 C 0 km/h
902 19-01-2020 03:05:00 2.7 C 5.54 g/m*3 2.7 C 4.8 km/h
903 19-01-2020 03:10:00 2.7 C 5.54 g/m*3 2.7 C 3.2 km/h
904 19-01-2020 03:15:00 2.8 C 5.57 g/m*3 2.8 C 0 km/h
905 19-01-2020 03:20:00 2.8 C 5.57 g/m*3 2.8 C 0 km/h
906 19-01-2020 03:25:00 2.8 C 5.57 g/m*3 2.8 C 0 km/h
907 19-01-2020 03:30:00 2.9 C 5.61 g/m*3 2.9 C 0 km/h
908 19-01-2020 03:35:00 2.9 C 5.61 g/m*3 2.9 C 0 km/h
909 19-01-2020 03:40:00 2.9 C 5.61 g/m*3 2.9 C 1.6 km/h
910 19-01-2020 03:45:00 2.9 C 5.61 g/m*3 2.9 C 0 km/h
911 19-01-2020 03:50:00 3 C 5.65 g/m*3 3 C 0 km/h
912 19-01-2020 03:55:00 3 C 5.65 g/m*3 3 C 0 km/h
913 19-01-2020 04:00:00 3 C 5.65 g/m*3 3 C 0 km/h
914 19-01-2020 04:05:00 3 C 5.65 g/m*3 3 C 0 km/h
915 19-01-2020 04:10:00 3 C 5.65 g/m*3 3 C 0 km/h
916 19-01-2020 04:15:00 3.1 C 5.69 g/m*3 3.1 C 0 km/h
917 19-01-2020 04:20:00 3.1 C 5.75 g/m*3 3.1 C 0 km/h
918 19-01-2020 04:25:00 3.1 C 5.75 g/m*3 3.1 C 0 km/h
919 19-01-2020 04:30:00 3.1 C 5.75 g/m*3 3.1 C 0 km/h
920 19-01-2020 04:35:00 3.1 C 5.75 g/m*3 3.1 C 0 km/h
921 19-01-2020 04:40:00 3 C 5.71 g/m*3 3 C 1.6 km/h
922 19-01-2020 04:45:00 3 C 5.71 g/m*3 3 C 0 km/h
923 19-01-2020 04:50:00 2.9 C 5.67 g/m*3 2.9 C 3.2 km/h
924 19-01-2020 04:55:00 2.9 C 5.67 g/m*3 2.9 C 1.6 km/h
925 19-01-2020 05:00:00 2.9 C 5.67 g/m*3 2.9 C 0 km/h
Sensor: Nr:Datum:Temp:Abs-Feuchte:Windchill:Wind:
Aussen-T/F 926 19-01-2020 05:05:00 2.9 C 5.67 g/m*3 2.9 C 0 km/h
927 19-01-2020 05:10:00 2.9 C 5.67 g/m*3 2.9 C 0 km/h
928 19-01-2020 05:15:00 2.9 C 5.67 g/m*3 2.9 C 0 km/h
929 19-01-2020 05:20:00 3 C 5.71 g/m*3 3 C 0 km/h
930 19-01-2020 05:25:00 3 C 5.71 g/m*3 3 C 0 km/h
931 19-01-2020 05:30:00 3 C 5.71 g/m*3 3 C 0 km/h
932 19-01-2020 05:35:00 3.1 C 5.75 g/m*3 3.1 C 0 km/h
933 19-01-2020 05:40:00 3.1 C 5.75 g/m*3 3.1 C 0 km/h
934 19-01-2020 05:45:00 3.1 C 5.75 g/m*3 3.1 C 0 km/h
935 19-01-2020 05:50:00 3.1 C 5.75 g/m*3 3.1 C 1.6 km/h
936 19-01-2020 05:55:00 3.1 C 5.75 g/m*3 3.1 C 4.8 km/h
937 19-01-2020 06:00:00 3.1 C 5.75 g/m*3 3.1 C 0 km/h
938 19-01-2020 06:05:00 3.1 C 5.75 g/m*3 3.1 C 0 km/h
939 19-01-2020 06:10:00 3.1 C 5.75 g/m*3 3.1 C 0 km/h
940 19-01-2020 06:15:00 3.1 C 5.75 g/m*3 3.1 C 0 km/h
941 19-01-2020 06:20:00 3.1 C 5.75 g/m*3 3.1 C 0 km/h
942 19-01-2020 06:25:00 3.1 C 5.75 g/m*3 3.1 C 0 km/h
943 19-01-2020 06:30:00 3.1 C 5.75 g/m*3 3.1 C 0 km/h
944 19-01-2020 06:35:00 3.1 C 5.75 g/m*3 3.1 C 0 km/h
945 19-01-2020 06:40:00 3.1 C 5.75 g/m*3 3.1 C 0 km/h
946 19-01-2020 06:45:00 3.1 C 5.75 g/m*3 3.1 C 0 km/h
947 19-01-2020 06:50:00 3.1 C 5.75 g/m*3 3.1 C 0 km/h
948 19-01-2020 06:55:00 3.1 C 5.75 g/m*3 3.1 C 0 km/h
949 19-01-2020 07:00:00 3.1 C 5.75 g/m*3 3.1 C 0 km/h
950 19-01-2020 07:05:00 3.1 C 5.75 g/m*3 3.1 C 1.6 km/h
Sensor: Nr:Datum:Temp:Abs-Feuchte:Windchill:Wind:
Aussen-T/F 951 19-01-2020 07:10:00 3.2 C 5.79 g/m*3 3.2 C 0 km/h
952 19-01-2020 07:15:00 3.2 C 5.79 g/m*3 3.2 C 0 km/h
953 19-01-2020 07:20:00 3.2 C 5.79 g/m*3 3.2 C 0 km/h
954 19-01-2020 07:25:00 3.2 C 5.79 g/m*3 3.2 C 0 km/h
955 19-01-2020 07:30:00 3.2 C 5.79 g/m*3 3.2 C 0 km/h
956 19-01-2020 07:35:00 3.2 C 5.79 g/m*3 3.2 C 0 km/h
957 19-01-2020 07:40:00 3.2 C 5.79 g/m*3 3.2 C 1.6 km/h
958 19-01-2020 07:45:00 3.2 C 5.79 g/m*3 3.2 C 0 km/h
959 19-01-2020 07:50:00 3.2 C 5.79 g/m*3 3.2 C 1.6 km/h
960 19-01-2020 07:55:00 3.2 C 5.79 g/m*3 3.2 C 4.8 km/h
961 19-01-2020 08:00:00 3.2 C 5.79 g/m*3 3.2 C 0 km/h
962 19-01-2020 08:05:00 3.2 C 5.79 g/m*3 3.2 C 0 km/h
963 19-01-2020 08:10:00 3.2 C 5.79 g/m*3 3.2 C 0 km/h
964 19-01-2020 08:15:00 3.2 C 5.79 g/m*3 3.2 C 1.6 km/h
965 19-01-2020 08:20:00 3.2 C 5.79 g/m*3 3.2 C 0 km/h
966 19-01-2020 08:25:00 3.2 C 5.79 g/m*3 3.2 C 0 km/h
967 19-01-2020 08:30:00 3.2 C 5.79 g/m*3 3.2 C 1.6 km/h
968 19-01-2020 08:35:00 3.3 C 5.82 g/m*3 3.3 C 3.2 km/h
969 19-01-2020 08:40:00 3.3 C 5.82 g/m*3 3.3 C 0 km/h
970 19-01-2020 08:45:00 3.3 C 5.82 g/m*3 1.63 C 6.4 km/h
971 19-01-2020 08:50:00 3.3 C 5.82 g/m*3 3.3 C 4.8 km/h
972 19-01-2020 08:55:00 3.3 C 5.82 g/m*3 3.3 C 0 km/h
973 19-01-2020 09:00:00 3.3 C 5.82 g/m*3 1.11 C 8.1 km/h
974 19-01-2020 09:05:00 3.3 C 5.82 g/m*3 3.3 C 0 km/h
975 19-01-2020 09:10:00 3.3 C 5.82 g/m*3 3.3 C 0 km/h
Sensor: Nr:Datum:Temp:Abs-Feuchte:Windchill:Wind:
Aussen-T/F 976 19-01-2020 09:15:00 3.4 C 5.86 g/m*3 3.4 C 0 km/h
977 19-01-2020 09:20:00 3.4 C 5.86 g/m*3 3.4 C 3.2 km/h
978 19-01-2020 09:25:00 3.4 C 5.86 g/m*3 3.4 C 3.2 km/h
979 19-01-2020 09:30:00 3.4 C 5.86 g/m*3 3.4 C 4.8 km/h
980 19-01-2020 09:35:00 3.4 C 5.86 g/m*3 3.4 C 4.8 km/h
981 19-01-2020 09:40:00 3.4 C 5.86 g/m*3 3.4 C 1.6 km/h
982 19-01-2020 09:45:00 3.4 C 5.86 g/m*3 3.4 C 0 km/h
983 19-01-2020 09:50:00 3.5 C 5.84 g/m*3 3.5 C 4.8 km/h
984 19-01-2020 09:55:00 3.5 C 5.84 g/m*3 3.5 C 1.6 km/h
985 19-01-2020 10:00:00 3.5 C 5.84 g/m*3 1.86 C 6.4 km/h
986 19-01-2020 10:05:00 3.6 C 5.88 g/m*3 3.6 C 3.2 km/h
987 19-01-2020 10:10:00 3.6 C 5.88 g/m*3 1.98 C 6.4 km/h
988 19-01-2020 10:15:00 3.5 C 5.84 g/m*3 1.86 C 6.4 km/h
989 19-01-2020 10:20:00 3.6 C 5.88 g/m*3 1.98 C 6.4 km/h
990 19-01-2020 10:25:00 3.6 C 5.88 g/m*3 1.46 C 8.1 km/h
991 19-01-2020 10:30:00 3.6 C 5.82 g/m*3 3.6 C 4.8 km/h
992 19-01-2020 10:35:00 3.7 C 5.86 g/m*3 3.7 C 4.8 km/h
993 19-01-2020 10:40:00 3.7 C 5.86 g/m*3 3.7 C 4.8 km/h
994 19-01-2020 10:45:00 3.7 C 5.86 g/m*3 3.7 C 3.2 km/h
995 19-01-2020 10:50:00 3.8 C 5.9 g/m*3 3.8 C 1.6 km/h
996 19-01-2020 10:55:00 3.8 C 5.9 g/m*3 3.8 C 0 km/h
997 19-01-2020 11:00:00 3.9 C 5.94 g/m*3 3.9 C 3.2 km/h
998 19-01-2020 11:05:00 3.9 C 5.94 g/m*3 2.32 C 6.4 km/h
999 19-01-2020 11:10:00 3.9 C 5.87 g/m*3 1.82 C 8.1 km/h
1000 19-01-2020 11:15:00 3.9 C 5.94 g/m*3 3.9 C 4.8 km/h
Sensor: Nr:Datum:Temp:Abs-Feuchte:Windchill:Wind:
Aussen-T/F 1001 19-01-2020 11:20:00 3.9 C 5.87 g/m*3 3.9 C 3.2 km/h
1002 19-01-2020 11:25:00 3.9 C 5.87 g/m*3 3.9 C 4.8 km/h
1003 19-01-2020 11:30:00 4 C 5.91 g/m*3 4 C 3.2 km/h
1004 19-01-2020 11:35:00 4 C 5.91 g/m*3 4 C 3.2 km/h
1005 19-01-2020 11:40:00 4.1 C 5.95 g/m*3 4.1 C 3.2 km/h
1006 19-01-2020 11:45:00 4.1 C 5.95 g/m*3 4.1 C 1.6 km/h
1007 19-01-2020 11:50:00 4.2 C 5.99 g/m*3 4.2 C 3.2 km/h
1008 19-01-2020 11:55:00 4.2 C 5.99 g/m*3 4.2 C 4.8 km/h
1009 19-01-2020 12:00:00 4.2 C 5.99 g/m*3 4.2 C 3.2 km/h
1010 19-01-2020 12:05:00 4.2 C 5.99 g/m*3 4.2 C 1.6 km/h
1011 19-01-2020 12:10:00 4.3 C 6.03 g/m*3 4.3 C 1.6 km/h
1012 19-01-2020 12:15:00 4.3 C 6.03 g/m*3 4.3 C 0 km/h
1013 19-01-2020 12:20:00 4.3 C 6.03 g/m*3 4.3 C 0 km/h
1014 19-01-2020 12:25:00 4.2 C 5.93 g/m*3 4.2 C 0 km/h
1015 19-01-2020 12:30:00 4.3 C 6.03 g/m*3 4.3 C 0 km/h
1016 19-01-2020 12:35:00 4.3 C 6.03 g/m*3 4.3 C 4.8 km/h
1017 19-01-2020 12:40:00 4.3 C 6.03 g/m*3 4.3 C 1.6 km/h
1018 19-01-2020 12:45:00 4.3 C 6.03 g/m*3 4.3 C 3.2 km/h
1019 19-01-2020 12:50:00 4.4 C 6.07 g/m*3 4.4 C 0 km/h
1020 19-01-2020 12:55:00 4.4 C 6.07 g/m*3 4.4 C 1.6 km/h
1021 19-01-2020 13:00:00 4.4 C 6.01 g/m*3 4.4 C 4.8 km/h
1022 19-01-2020 13:05:00 4.4 C 6.01 g/m*3 4.4 C 0 km/h
1023 19-01-2020 13:10:00 4.4 C 6.01 g/m*3 4.4 C 4.8 km/h
1024 19-01-2020 13:15:00 4.5 C 6.05 g/m*3 4.5 C 3.2 km/h
1025 19-01-2020 13:20:00 4.5 C 6.05 g/m*3 3.02 C 6.4 km/h
Sensor: Nr:Datum:Temp:Abs-Feuchte:Windchill:Wind:
Aussen-T/F 1026 19-01-2020 13:25:00 4.5 C 6.05 g/m*3 3.02 C 6.4 km/h
1027 19-01-2020 13:30:00 4.5 C 6.05 g/m*3 2.52 C 8.1 km/h
1028 19-01-2020 13:35:00 4.5 C 6.05 g/m*3 4.5 C 3.2 km/h
1029 19-01-2020 13:40:00 4.5 C 6.05 g/m*3 4.5 C 1.6 km/h
1030 19-01-2020 13:45:00 4.6 C 6.09 g/m*3 4.6 C 3.2 km/h
1031 19-01-2020 13:50:00 4.6 C 6.09 g/m*3 4.6 C 1.6 km/h
1032 19-01-2020 13:55:00 4.6 C 6.09 g/m*3 4.6 C 1.6 km/h
1033 19-01-2020 14:00:00 4.7 C 6.13 g/m*3 4.7 C 1.6 km/h
1034 19-01-2020 14:05:00 4.8 C 6.17 g/m*3 4.8 C 0 km/h
1035 19-01-2020 14:10:00 4.8 C 6.17 g/m*3 4.8 C 1.6 km/h
1036 19-01-2020 14:15:00 4.8 C 6.1 g/m*3 4.8 C 1.6 km/h
1037 19-01-2020 14:20:00 4.9 C 6.21 g/m*3 4.9 C 3.2 km/h
1038 19-01-2020 14:25:00 4.9 C 6.14 g/m*3 4.9 C 3.2 km/h
1039 19-01-2020 14:30:00 4.9 C 6.14 g/m*3 2.99 C 8.1 km/h
1040 19-01-2020 14:35:00 4.9 C 6.08 g/m*3 4.9 C 4.8 km/h
1041 19-01-2020 14:40:00 4.9 C 6.08 g/m*3 4.9 C 4.8 km/h
1042 19-01-2020 14:45:00 4.9 C 6.08 g/m*3 2.99 C 8.1 km/h
1043 19-01-2020 14:50:00 4.9 C 6.08 g/m*3 3.48 C 6.4 km/h
1044 19-01-2020 14:55:00 5 C 6.12 g/m*3 3.59 C 6.4 km/h
1045 19-01-2020 15:00:00 4.9 C 6.08 g/m*3 3.48 C 6.4 km/h
1046 19-01-2020 15:05:00 4.9 C 6.08 g/m*3 4.9 C 4.8 km/h
1047 19-01-2020 15:10:00 4.9 C 6.08 g/m*3 4.9 C 4.8 km/h
1048 19-01-2020 15:15:00 4.9 C 6.08 g/m*3 4.9 C 3.2 km/h
1049 19-01-2020 15:20:00 5 C 6.05 g/m*3 5 C 4.8 km/h
1050 19-01-2020 15:25:00 5 C 6.05 g/m*3 5 C 4.8 km/h
Sensor: Nr:Datum:Temp:Abs-Feuchte:Windchill:Wind:
Aussen-T/F 1051 19-01-2020 15:30:00 5 C 6.12 g/m*3 5 C 4.8 km/h
1052 19-01-2020 15:35:00 5.1 C 6.09 g/m*3 3.23 C 8.1 km/h
1053 19-01-2020 15:40:00 5.1 C 6.09 g/m*3 5.1 C 4.8 km/h
1054 19-01-2020 15:45:00 5.1 C 6.09 g/m*3 5.1 C 3.2 km/h
1055 19-01-2020 15:50:00 5.1 C 6.09 g/m*3 3.71 C 6.4 km/h
1056 19-01-2020 15:55:00 5.1 C 6.09 g/m*3 2.84 C 9.7 km/h
1057 19-01-2020 16:00:00 5.1 C 6.09 g/m*3 3.71 C 6.4 km/h
1058 19-01-2020 16:05:00 5.1 C 6.09 g/m*3 5.1 C 4.8 km/h
1059 19-01-2020 16:10:00 5.1 C 6.09 g/m*3 5.1 C 4.8 km/h
1060 19-01-2020 16:15:00 5 C 6.05 g/m*3 5 C 4.8 km/h
1061 19-01-2020 16:20:00 5 C 6.05 g/m*3 5 C 3.2 km/h
1062 19-01-2020 16:25:00 5 C 6.12 g/m*3 5 C 1.6 km/h
1063 19-01-2020 16:30:00 5 C 6.12 g/m*3 5 C 0 km/h
1064 19-01-2020 16:35:00 5 C 6.12 g/m*3 5 C 4.8 km/h
1065 19-01-2020 16:40:00 4.9 C 6.08 g/m*3 2.99 C 8.1 km/h
1066 19-01-2020 16:45:00 4.9 C 6.14 g/m*3 4.9 C 3.2 km/h
1067 19-01-2020 16:50:00 4.8 C 6.1 g/m*3 4.8 C 0 km/h
1068 19-01-2020 16:55:00 4.8 C 6.17 g/m*3 4.8 C 0 km/h
1069 19-01-2020 17:00:00 4.8 C 6.17 g/m*3 4.8 C 3.2 km/h
1070 19-01-2020 17:05:00 4.7 C 6.13 g/m*3 4.7 C 0 km/h
1071 19-01-2020 17:10:00 4.6 C 6.09 g/m*3 4.6 C 0 km/h
1072 19-01-2020 17:15:00 4.6 C 6.09 g/m*3 4.6 C 0 km/h
1073 19-01-2020 17:20:00 4.6 C 6.15 g/m*3 4.6 C 0 km/h
1074 19-01-2020 17:25:00 4.5 C 6.11 g/m*3 4.5 C 0 km/h
1075 19-01-2020 17:30:00 4.4 C 6.07 g/m*3 4.4 C 0 km/h
Sensor: Nr:Datum:Temp:Abs-Feuchte:Windchill:Wind:
Aussen-T/F 1076 19-01-2020 17:35:00 4.4 C 6.07 g/m*3 4.4 C 0 km/h
1077 19-01-2020 17:40:00 4.3 C 6.03 g/m*3 4.3 C 0 km/h
1078 19-01-2020 17:45:00 4.3 C 6.1 g/m*3 4.3 C 3.2 km/h
1079 19-01-2020 17:50:00 4.3 C 6.1 g/m*3 4.3 C 0 km/h
1080 19-01-2020 17:55:00 4.3 C 6.1 g/m*3 4.3 C 1.6 km/h
1081 19-01-2020 18:00:00 4.3 C 6.1 g/m*3 4.3 C 1.6 km/h
1082 19-01-2020 18:05:00 4.3 C 6.1 g/m*3 4.3 C 3.2 km/h
1083 19-01-2020 18:10:00 4.3 C 6.1 g/m*3 4.3 C 3.2 km/h
1084 19-01-2020 18:15:00 4.3 C 6.16 g/m*3 4.3 C 1.6 km/h
1085 19-01-2020 18:20:00 4.2 C 6.12 g/m*3 4.2 C 0 km/h
1086 19-01-2020 18:25:00 4.2 C 6.12 g/m*3 4.2 C 0 km/h
1087 19-01-2020 18:30:00 4.2 C 6.12 g/m*3 4.2 C 0 km/h
1088 19-01-2020 18:35:00 4.2 C 6.12 g/m*3 4.2 C 1.6 km/h
1089 19-01-2020 18:40:00 4.2 C 6.12 g/m*3 4.2 C 0 km/h
1090 19-01-2020 18:45:00 4.2 C 6.12 g/m*3 4.2 C 1.6 km/h
1091 19-01-2020 18:50:00 4.2 C 6.12 g/m*3 4.2 C 0 km/h
1092 19-01-2020 18:55:00 4.2 C 6.12 g/m*3 4.2 C 0 km/h
1093 19-01-2020 19:00:00 4.2 C 6.12 g/m*3 4.2 C 0 km/h
1094 19-01-2020 19:05:00 4.2 C 6.12 g/m*3 4.2 C 3.2 km/h
1095 19-01-2020 19:10:00 4.2 C 6.12 g/m*3 4.2 C 3.2 km/h
1096 19-01-2020 19:15:00 4.2 C 6.12 g/m*3 4.2 C 1.6 km/h
1097 19-01-2020 19:20:00 4.2 C 6.12 g/m*3 4.2 C 4.8 km/h
1098 19-01-2020 19:25:00 4.2 C 6.19 g/m*3 4.2 C 0 km/h
1099 19-01-2020 19:30:00 4.2 C 6.12 g/m*3 4.2 C 0 km/h
1100 19-01-2020 19:35:00 4.2 C 6.19 g/m*3 4.2 C 0 km/h
Sensor: Nr:Datum:Temp:Abs-Feuchte:Windchill:Wind:
Aussen-T/F 1101 19-01-2020 19:40:00 4.2 C 6.19 g/m*3 4.2 C 0 km/h
1102 19-01-2020 19:45:00 4.2 C 6.19 g/m*3 4.2 C 0 km/h
1103 19-01-2020 19:50:00 4.2 C 6.19 g/m*3 4.2 C 0 km/h
1104 19-01-2020 19:55:00 4.2 C 6.19 g/m*3 4.2 C 0 km/h
1105 19-01-2020 20:00:00 4.2 C 6.19 g/m*3 4.2 C 0 km/h
1106 19-01-2020 20:05:00 4.1 C 6.08 g/m*3 4.1 C 0 km/h
1107 19-01-2020 20:10:00 4.1 C 6.08 g/m*3 4.1 C 0 km/h
1108 19-01-2020 20:15:00 4.1 C 6.08 g/m*3 4.1 C 0 km/h
1109 19-01-2020 20:20:00 4.1 C 6.14 g/m*3 4.1 C 0 km/h
1110 19-01-2020 20:25:00 4.1 C 6.14 g/m*3 4.1 C 0 km/h
1111 19-01-2020 20:30:00 4.1 C 6.14 g/m*3 4.1 C 0 km/h
1112 19-01-2020 20:35:00 4.1 C 6.14 g/m*3 4.1 C 0 km/h
1113 19-01-2020 20:40:00 4.1 C 6.14 g/m*3 4.1 C 0 km/h
1114 19-01-2020 20:45:00 4.1 C 6.14 g/m*3 4.1 C 0 km/h
1115 19-01-2020 20:50:00 4.1 C 6.14 g/m*3 4.1 C 0 km/h
1116 19-01-2020 20:55:00 4.1 C 6.14 g/m*3 4.1 C 0 km/h
1117 19-01-2020 21:00:00 4.1 C 6.14 g/m*3 4.1 C 0 km/h
1118 19-01-2020 21:05:00 4.1 C 6.14 g/m*3 4.1 C 0 km/h
1119 19-01-2020 21:10:00 4.1 C 6.14 g/m*3 4.1 C 0 km/h
1120 19-01-2020 21:15:00 4 C 6.1 g/m*3 4 C 0 km/h
1121 19-01-2020 21:20:00 3.9 C 6.06 g/m*3 3.9 C 0 km/h
1122 19-01-2020 21:25:00 3.9 C 6.06 g/m*3 3.9 C 0 km/h
1123 19-01-2020 21:30:00 3.9 C 6.06 g/m*3 3.9 C 0 km/h
1124 19-01-2020 21:35:00 4 C 6.1 g/m*3 4 C 0 km/h
1125 19-01-2020 21:40:00 4 C 6.1 g/m*3 4 C 0 km/h
Sensor: Nr:Datum:Temp:Abs-Feuchte:Windchill:Wind:
Aussen-T/F 1126 19-01-2020 21:45:00 4 C 6.1 g/m*3 4 C 0 km/h
1127 19-01-2020 21:50:00 4 C 6.1 g/m*3 4 C 0 km/h
1128 19-01-2020 21:55:00 3.9 C 6.06 g/m*3 3.9 C 0 km/h
1129 19-01-2020 22:00:00 3.9 C 6.06 g/m*3 3.9 C 0 km/h
1130 19-01-2020 22:05:00 3.9 C 6.06 g/m*3 3.9 C 0 km/h
1131 19-01-2020 22:10:00 3.9 C 6.06 g/m*3 3.9 C 0 km/h
1132 19-01-2020 22:15:00 3.9 C 6.06 g/m*3 3.9 C 0 km/h
1133 19-01-2020 22:20:00 3.9 C 6.06 g/m*3 3.9 C 0 km/h
1134 19-01-2020 22:25:00 3.9 C 6.06 g/m*3 3.9 C 0 km/h
1135 19-01-2020 22:30:00 3.9 C 6.06 g/m*3 3.9 C 0 km/h
1136 19-01-2020 22:35:00 3.9 C 6.06 g/m*3 3.9 C 0 km/h
1137 19-01-2020 22:40:00 4 C 6.1 g/m*3 4 C 0 km/h
1138 19-01-2020 22:45:00 4 C 6.1 g/m*3 4 C 0 km/h
1139 19-01-2020 22:50:00 4.1 C 6.14 g/m*3 4.1 C 0 km/h
1140 19-01-2020 22:55:00 4.1 C 6.14 g/m*3 4.1 C 0 km/h
1141 19-01-2020 23:00:00 4.1 C 6.14 g/m*3 4.1 C 0 km/h
1142 19-01-2020 23:05:00 4.1 C 6.14 g/m*3 4.1 C 0 km/h
1143 19-01-2020 23:10:00 4 C 6.1 g/m*3 4 C 0 km/h
1144 19-01-2020 23:15:00 3.8 C 6.02 g/m*3 3.8 C 0 km/h
1145 19-01-2020 23:20:00 3.6 C 5.94 g/m*3 3.6 C 0 km/h
1146 19-01-2020 23:25:00 3.4 C 5.8 g/m*3 3.4 C 1.6 km/h
1147 19-01-2020 23:30:00 3.2 C 5.72 g/m*3 3.2 C 0 km/h
1148 19-01-2020 23:35:00 3.2 C 5.79 g/m*3 3.2 C 3.2 km/h
1149 19-01-2020 23:40:00 3.1 C 5.75 g/m*3 3.1 C 1.6 km/h
1150 19-01-2020 23:45:00 3.1 C 5.75 g/m*3 3.1 C 0 km/h
Sensor: Nr:Datum:Temp:Abs-Feuchte:Windchill:Wind:
Aussen-T/F 1151 19-01-2020 23:50:00 3 C 5.71 g/m*3 3 C 0 km/h
1152 19-01-2020 23:55:00 2.9 C 5.67 g/m*3 2.9 C 3.2 km/h
1153 20-01-2020 00:00:00 2.9 C 5.67 g/m*3 2.9 C 3.2 km/h
1154 20-01-2020 00:05:00 2.9 C 5.67 g/m*3 2.9 C 1.6 km/h
1155 20-01-2020 00:10:00 3 C 5.71 g/m*3 3 C 0 km/h
1156 20-01-2020 00:15:00 3.1 C 5.75 g/m*3 3.1 C 0 km/h
1157 20-01-2020 00:20:00 3.1 C 5.75 g/m*3 3.1 C 0 km/h
1158 20-01-2020 00:25:00 3 C 5.71 g/m*3 3 C 0 km/h
1159 20-01-2020 00:30:00 2.9 C 5.67 g/m*3 2.9 C 0 km/h
1160 20-01-2020 00:35:00 3.1 C 5.75 g/m*3 3.1 C 0 km/h
1161 20-01-2020 00:40:00 3.2 C 5.79 g/m*3 3.2 C 0 km/h
1162 20-01-2020 00:45:00 3.2 C 5.79 g/m*3 3.2 C 0 km/h
1163 20-01-2020 00:50:00 3.3 C 5.82 g/m*3 3.3 C 0 km/h
1164 20-01-2020 00:55:00 3.3 C 5.82 g/m*3 3.3 C 0 km/h
1165 20-01-2020 01:00:00 3.3 C 5.82 g/m*3 3.3 C 0 km/h
1166 20-01-2020 01:05:00 3.3 C 5.82 g/m*3 3.3 C 0 km/h
1167 20-01-2020 01:10:00 3.2 C 5.79 g/m*3 3.2 C 0 km/h
1168 20-01-2020 01:15:00 3.2 C 5.79 g/m*3 3.2 C 0 km/h
1169 20-01-2020 01:20:00 3.2 C 5.79 g/m*3 3.2 C 0 km/h
1170 20-01-2020 01:25:00 3.2 C 5.79 g/m*3 3.2 C 0 km/h
1171 20-01-2020 01:30:00 3.2 C 5.79 g/m*3 3.2 C 0 km/h
1172 20-01-2020 01:35:00 3.2 C 5.79 g/m*3 3.2 C 0 km/h
1173 20-01-2020 01:40:00 3.2 C 5.79 g/m*3 3.2 C 0 km/h
1174 20-01-2020 01:45:00 3.2 C 5.79 g/m*3 3.2 C 0 km/h
1175 20-01-2020 01:50:00 3.2 C 5.79 g/m*3 3.2 C 0 km/h
Sensor: Nr:Datum:Temp:Abs-Feuchte:Windchill:Wind:
Aussen-T/F 1176 20-01-2020 01:55:00 3.2 C 5.79 g/m*3 3.2 C 0 km/h
1177 20-01-2020 02:00:00 3.1 C 5.75 g/m*3 3.1 C 0 km/h
1178 20-01-2020 02:05:00 3 C 5.71 g/m*3 3 C 0 km/h
1179 20-01-2020 02:10:00 2.9 C 5.67 g/m*3 2.9 C 0 km/h
1180 20-01-2020 02:15:00 2.8 C 5.63 g/m*3 2.8 C 0 km/h
1181 20-01-2020 02:20:00 2.7 C 5.59 g/m*3 2.7 C 0 km/h
1182 20-01-2020 02:25:00 2.7 C 5.59 g/m*3 2.7 C 1.6 km/h
1183 20-01-2020 02:30:00 2.7 C 5.59 g/m*3 2.7 C 1.6 km/h
1184 20-01-2020 02:35:00 2.7 C 5.59 g/m*3 2.7 C 0 km/h
1185 20-01-2020 02:40:00 2.7 C 5.59 g/m*3 2.7 C 0 km/h
1186 20-01-2020 02:45:00 2.7 C 5.59 g/m*3 2.7 C 0 km/h
1187 20-01-2020 02:50:00 2.8 C 5.63 g/m*3 2.8 C 0 km/h
1188 20-01-2020 02:55:00 2.8 C 5.69 g/m*3 2.8 C 0 km/h
1189 20-01-2020 03:00:00 2.8 C 5.69 g/m*3 2.8 C 4.8 km/h
1190 20-01-2020 03:05:00 2.9 C 5.73 g/m*3 2.9 C 4.8 km/h
1191 20-01-2020 03:10:00 2.9 C 5.73 g/m*3 2.9 C 0 km/h
1192 20-01-2020 03:15:00 2.7 C 5.59 g/m*3 2.7 C 0 km/h
1193 20-01-2020 03:20:00 2.5 C 5.52 g/m*3 2.5 C 0 km/h
1194 20-01-2020 03:25:00 2.4 C 5.48 g/m*3 2.4 C 0 km/h
1195 20-01-2020 03:30:00 2.3 C 5.44 g/m*3 2.3 C 0 km/h
1196 20-01-2020 03:35:00 2.2 C 5.41 g/m*3 2.2 C 1.6 km/h
1197 20-01-2020 03:40:00 2.2 C 5.41 g/m*3 2.2 C 3.2 km/h
1198 20-01-2020 03:45:00 2.1 C 5.37 g/m*3 2.1 C 0 km/h
1199 20-01-2020 03:50:00 2.1 C 5.37 g/m*3 2.1 C 0 km/h
1200 20-01-2020 03:55:00 2 C 5.33 g/m*3 2 C 0 km/h
Sensor: Nr:Datum:Temp:Abs-Feuchte:Windchill:Wind:
Aussen-T/F 1201 20-01-2020 04:00:00 2 C 5.33 g/m*3 2 C 1.6 km/h
1202 20-01-2020 04:05:00 2.1 C 5.37 g/m*3 2.1 C 1.6 km/h
1203 20-01-2020 04:10:00 2.1 C 5.37 g/m*3 2.1 C 0 km/h
1204 20-01-2020 04:15:00 2.2 C 5.46 g/m*3 2.2 C 0 km/h
1205 20-01-2020 04:20:00 2.3 C 5.5 g/m*3 2.3 C 0 km/h
1206 20-01-2020 04:25:00 2.3 C 5.5 g/m*3 2.3 C 0 km/h
1207 20-01-2020 04:30:00 2.4 C 5.54 g/m*3 2.4 C 0 km/h
1208 20-01-2020 04:35:00 2.4 C 5.54 g/m*3 2.4 C 0 km/h
1209 20-01-2020 04:40:00 2.5 C 5.58 g/m*3 2.5 C 0 km/h
1210 20-01-2020 04:45:00 2.5 C 5.58 g/m*3 2.5 C 0 km/h
1211 20-01-2020 04:50:00 2.4 C 5.54 g/m*3 2.4 C 0 km/h
1212 20-01-2020 04:55:00 2.4 C 5.54 g/m*3 2.4 C 0 km/h
1213 20-01-2020 05:00:00 2.4 C 5.48 g/m*3 2.4 C 0 km/h
1214 20-01-2020 05:05:00 2.3 C 5.5 g/m*3 2.3 C 0 km/h
1215 20-01-2020 05:10:00 2.4 C 5.54 g/m*3 2.4 C 0 km/h
1216 20-01-2020 05:15:00 2.4 C 5.54 g/m*3 2.4 C 0 km/h
1217 20-01-2020 05:20:00 2.4 C 5.54 g/m*3 2.4 C 0 km/h
1218 20-01-2020 05:25:00 2.4 C 5.54 g/m*3 2.4 C 0 km/h
1219 20-01-2020 05:30:00 2.5 C 5.58 g/m*3 2.5 C 0 km/h
1220 20-01-2020 05:35:00 2.4 C 5.54 g/m*3 2.4 C 0 km/h
1221 20-01-2020 05:40:00 2.4 C 5.54 g/m*3 2.4 C 0 km/h
1222 20-01-2020 05:45:00 2.3 C 5.5 g/m*3 2.3 C 0 km/h
1223 20-01-2020 05:50:00 2.2 C 5.46 g/m*3 2.2 C 0 km/h
1224 20-01-2020 05:55:00 2.2 C 5.41 g/m*3 2.2 C 0 km/h
1225 20-01-2020 06:00:00 2.2 C 5.46 g/m*3 2.2 C 0 km/h
Sensor: Nr:Datum:Temp:Abs-Feuchte:Windchill:Wind:
Aussen-T/F 1226 20-01-2020 06:05:00 2.2 C 5.46 g/m*3 2.2 C 0 km/h
1227 20-01-2020 06:10:00 2.2 C 5.46 g/m*3 2.2 C 0 km/h
1228 20-01-2020 06:15:00 2.1 C 5.43 g/m*3 2.1 C 0 km/h
1229 20-01-2020 06:20:00 2.1 C 5.43 g/m*3 2.1 C 0 km/h
1230 20-01-2020 06:25:00 2.1 C 5.43 g/m*3 2.1 C 0 km/h
1231 20-01-2020 06:30:00 2.1 C 5.43 g/m*3 2.1 C 0 km/h
1232 20-01-2020 06:35:00 2.1 C 5.43 g/m*3 2.1 C 0 km/h
1233 20-01-2020 06:40:00 2.2 C 5.46 g/m*3 2.2 C 0 km/h
1234 20-01-2020 06:45:00 2.2 C 5.46 g/m*3 2.2 C 0 km/h
1235 20-01-2020 06:50:00 2.2 C 5.46 g/m*3 2.2 C 0 km/h
1236 20-01-2020 06:55:00 2.2 C 5.46 g/m*3 2.2 C 0 km/h
1237 20-01-2020 07:00:00 2.2 C 5.46 g/m*3 2.2 C 0 km/h
1238 20-01-2020 07:05:00 2.2 C 5.46 g/m*3 2.2 C 0 km/h
1239 20-01-2020 07:10:00 2.2 C 5.46 g/m*3 2.2 C 0 km/h
1240 20-01-2020 07:15:00 2.1 C 5.43 g/m*3 2.1 C 0 km/h
1241 20-01-2020 07:20:00 2.1 C 5.43 g/m*3 2.1 C 0 km/h
1242 20-01-2020 07:25:00 2.1 C 5.43 g/m*3 2.1 C 0 km/h
1243 20-01-2020 07:30:00 2 C 5.39 g/m*3 2 C 0 km/h
1244 20-01-2020 07:35:00 1.9 C 5.35 g/m*3 1.9 C 0 km/h
1245 20-01-2020 07:40:00 1.9 C 5.35 g/m*3 1.9 C 0 km/h
1246 20-01-2020 07:45:00 1.8 C 5.32 g/m*3 1.8 C 0 km/h
1247 20-01-2020 07:50:00 1.7 C 5.23 g/m*3 1.7 C 0 km/h
1248 20-01-2020 07:55:00 1.6 C 5.25 g/m*3 1.6 C 0 km/h
1249 20-01-2020 08:00:00 1.4 C 5.17 g/m*3 1.4 C 0 km/h
1250 20-01-2020 08:05:00 1.3 C 5.09 g/m*3 1.3 C 0 km/h
Sensor: Nr:Datum:Temp:Abs-Feuchte:Windchill:Wind:
Aussen-T/F 1251 20-01-2020 08:10:00 1.3 C 5.09 g/m*3 1.3 C 0 km/h
1252 20-01-2020 08:15:00 1.3 C 5.14 g/m*3 1.3 C 0 km/h
1253 20-01-2020 08:20:00 1.3 C 5.14 g/m*3 1.3 C 0 km/h
1254 20-01-2020 08:25:00 1.3 C 5.14 g/m*3 1.3 C 1.6 km/h
1255 20-01-2020 08:30:00 1.3 C 5.14 g/m*3 1.3 C 0 km/h
1256 20-01-2020 08:35:00 1.3 C 5.14 g/m*3 1.3 C 0 km/h
1257 20-01-2020 08:40:00 1.4 C 5.17 g/m*3 1.4 C 0 km/h
1258 20-01-2020 08:45:00 1.5 C 5.21 g/m*3 1.5 C 0 km/h
1259 20-01-2020 08:50:00 1.6 C 5.25 g/m*3 1.6 C 0 km/h
1260 20-01-2020 08:55:00 1.7 C 5.28 g/m*3 1.7 C 0 km/h
1261 20-01-2020 09:00:00 1.9 C 5.35 g/m*3 1.9 C 0 km/h
1262 20-01-2020 09:05:00 2 C 5.39 g/m*3 2 C 0 km/h
1263 20-01-2020 09:10:00 2.1 C 5.43 g/m*3 2.1 C 0 km/h
1264 20-01-2020 09:15:00 2.2 C 5.46 g/m*3 2.2 C 0 km/h
1265 20-01-2020 09:20:00 2.2 C 5.46 g/m*3 2.2 C 0 km/h
1266 20-01-2020 09:25:00 2.3 C 5.5 g/m*3 2.3 C 0 km/h
1267 20-01-2020 09:30:00 2.3 C 5.5 g/m*3 2.3 C 0 km/h
1268 20-01-2020 09:35:00 2.5 C 5.58 g/m*3 2.5 C 0 km/h
1269 20-01-2020 09:40:00 2.6 C 5.61 g/m*3 2.6 C 0 km/h
1270 20-01-2020 09:45:00 2.7 C 5.65 g/m*3 2.7 C 0 km/h
1271 20-01-2020 09:50:00 2.8 C 5.69 g/m*3 2.8 C 0 km/h
1272 20-01-2020 09:55:00 2.8 C 5.69 g/m*3 2.8 C 0 km/h
1273 20-01-2020 10:00:00 2.9 C 5.73 g/m*3 2.9 C 0 km/h
1274 20-01-2020 10:05:00 3.1 C 5.81 g/m*3 3.1 C 0 km/h
1275 20-01-2020 10:10:00 3.1 C 5.81 g/m*3 3.1 C 0 km/h
Sensor: Nr:Datum:Temp:Abs-Feuchte:Windchill:Wind:
Aussen-T/F 1276 20-01-2020 10:15:00 3.2 C 5.85 g/m*3 3.2 C 0 km/h
1277 20-01-2020 10:20:00 3.3 C 5.88 g/m*3 3.3 C 0 km/h
1278 20-01-2020 10:25:00 3.3 C 5.88 g/m*3 3.3 C 0 km/h
1279 20-01-2020 10:30:00 3.4 C 5.92 g/m*3 3.4 C 0 km/h
1280 20-01-2020 10:35:00 3.5 C 5.96 g/m*3 3.5 C 0 km/h
1281 20-01-2020 10:40:00 3.6 C 6 g/m*3 3.6 C 0 km/h
1282 20-01-2020 10:45:00 3.7 C 6.11 g/m*3 3.7 C 0 km/h
1283 20-01-2020 10:50:00 3.8 C 6.09 g/m*3 3.8 C 0 km/h
1284 20-01-2020 10:55:00 3.8 C 6.09 g/m*3 3.8 C 0 km/h
1285 20-01-2020 11:00:00 3.8 C 6.09 g/m*3 3.8 C 0 km/h
1286 20-01-2020 11:05:00 3.8 C 6.09 g/m*3 3.8 C 0 km/h
1287 20-01-2020 11:10:00 3.9 C 6.13 g/m*3 3.9 C 0 km/h
1288 20-01-2020 11:15:00 3.9 C 6.13 g/m*3 3.9 C 0 km/h
1289 20-01-2020 11:20:00 3.8 C 6.09 g/m*3 3.8 C 0 km/h
1290 20-01-2020 11:25:00 3.8 C 6.09 g/m*3 3.8 C 0 km/h
1291 20-01-2020 11:30:00 3.8 C 6.09 g/m*3 3.8 C 0 km/h
1292 20-01-2020 11:35:00 3.8 C 6.02 g/m*3 3.8 C 3.2 km/h
1293 20-01-2020 11:40:00 3.9 C 6.06 g/m*3 3.9 C 0 km/h
1294 20-01-2020 11:45:00 3.9 C 6 g/m*3 3.9 C 0 km/h
1295 20-01-2020 11:50:00 4.1 C 6.08 g/m*3 4.1 C 0 km/h
1296 20-01-2020 11:55:00 4.2 C 6.12 g/m*3 4.2 C 0 km/h
1297 20-01-2020 12:00:00 4.3 C 6.1 g/m*3 4.3 C 0 km/h
1298 20-01-2020 12:05:00 4.4 C 6.07 g/m*3 4.4 C 0 km/h
1299 20-01-2020 12:10:00 4.5 C 6.11 g/m*3 4.5 C 0 km/h
1300 20-01-2020 12:15:00 4.6 C 6.02 g/m*3 4.6 C 4.8 km/h
Sensor: Nr:Datum:Temp:Abs-Feuchte:Windchill:Wind:
Aussen-T/F 1301 20-01-2020 12:20:00 4.7 C 6 g/m*3 4.7 C 4.8 km/h
1302 20-01-2020 12:25:00 4.8 C 5.83 g/m*3 2.87 C 8.1 km/h
1303 20-01-2020 12:30:00 5 C 5.64 g/m*3 2.72 C 9.7 km/h
1304 20-01-2020 12:35:00 5.1 C 5.61 g/m*3 3.71 C 6.4 km/h
1305 20-01-2020 12:40:00 5.2 C 5.58 g/m*3 3.34 C 8.1 km/h
1306 20-01-2020 12:45:00 5.3 C 5.68 g/m*3 3.94 C 6.4 km/h
1307 20-01-2020 12:50:00 5.3 C 5.61 g/m*3 5.3 C 0 km/h
1308 20-01-2020 12:55:00 5.3 C 5.41 g/m*3 3.46 C 8.1 km/h
1309 20-01-2020 13:00:00 5.4 C 5.44 g/m*3 2.87 C 11.3 km/h
1310 20-01-2020 13:05:00 5.4 C 5.37 g/m*3 3.58 C 8.1 km/h
1311 20-01-2020 13:10:00 5.5 C 5.41 g/m*3 4.17 C 6.4 km/h
1312 20-01-2020 13:15:00 5.6 C 5.44 g/m*3 5.6 C 4.8 km/h
1313 20-01-2020 13:20:00 5.6 C 5.37 g/m*3 3.11 C 11.3 km/h
1314 20-01-2020 13:25:00 5.6 C 5.44 g/m*3 3.81 C 8.1 km/h
1315 20-01-2020 13:30:00 5.7 C 5.48 g/m*3 4.4 C 6.4 km/h
1316 20-01-2020 13:35:00 5.7 C 5.41 g/m*3 3.93 C 8.1 km/h
1317 20-01-2020 13:40:00 5.8 C 5.44 g/m*3 5.8 C 4.8 km/h
1318 20-01-2020 13:45:00 5.7 C 5.34 g/m*3 4.4 C 6.4 km/h
1319 20-01-2020 13:50:00 5.7 C 5.34 g/m*3 4.4 C 6.4 km/h
1320 20-01-2020 13:55:00 5.7 C 5.34 g/m*3 5.7 C 4.8 km/h
1321 20-01-2020 14:00:00 5.7 C 5.27 g/m*3 3.56 C 9.7 km/h
1322 20-01-2020 14:05:00 5.7 C 5.34 g/m*3 5.7 C 4.8 km/h
1323 20-01-2020 14:10:00 5.8 C 5.37 g/m*3 4.52 C 6.4 km/h
1324 20-01-2020 14:15:00 5.8 C 5.37 g/m*3 5.8 C 4.8 km/h
1325 20-01-2020 14:20:00 5.8 C 5.3 g/m*3 4.52 C 6.4 km/h
Sensor: Nr:Datum:Temp:Abs-Feuchte:Windchill:Wind:
Aussen-T/F 1326 20-01-2020 14:25:00 5.8 C 5.37 g/m*3 5.8 C 0 km/h
1327 20-01-2020 14:30:00 5.8 C 5.37 g/m*3 5.8 C 4.8 km/h
1328 20-01-2020 14:35:00 5.8 C 5.23 g/m*3 4.05 C 8.1 km/h
1329 20-01-2020 14:40:00 5.8 C 5.3 g/m*3 5.8 C 3.2 km/h
1330 20-01-2020 14:45:00 5.8 C 5.37 g/m*3 5.8 C 3.2 km/h
1331 20-01-2020 14:50:00 5.8 C 5.37 g/m*3 5.8 C 4.8 km/h
1332 20-01-2020 14:55:00 5.8 C 5.3 g/m*3 5.8 C 0 km/h
1333 20-01-2020 15:00:00 5.8 C 5.37 g/m*3 5.8 C 0 km/h
1334 20-01-2020 15:05:00 5.7 C 5.34 g/m*3 5.7 C 0 km/h
1335 20-01-2020 15:10:00 5.7 C 5.41 g/m*3 5.7 C 0 km/h
1336 20-01-2020 15:15:00 5.6 C 5.51 g/m*3 5.6 C 0 km/h
1337 20-01-2020 15:20:00 5.5 C 5.41 g/m*3 5.5 C 0 km/h
1338 20-01-2020 15:25:00 5.4 C 5.3 g/m*3 5.4 C 0 km/h
1339 20-01-2020 15:30:00 5.4 C 5.23 g/m*3 5.4 C 3.2 km/h
1340 20-01-2020 15:35:00 5.5 C 5.27 g/m*3 5.5 C 4.8 km/h
1341 20-01-2020 15:40:00 5.6 C 5.37 g/m*3 5.6 C 1.6 km/h
1342 20-01-2020 15:45:00 5.6 C 5.3 g/m*3 5.6 C 3.2 km/h
1343 20-01-2020 15:50:00 5.6 C 5.3 g/m*3 5.6 C 1.6 km/h
1344 20-01-2020 15:55:00 5.5 C 5.41 g/m*3 5.5 C 0 km/h
1345 20-01-2020 16:00:00 5.4 C 5.44 g/m*3 5.4 C 0 km/h
1346 20-01-2020 16:05:00 5.3 C 5.48 g/m*3 5.3 C 0 km/h
1347 20-01-2020 16:10:00 5.2 C 5.51 g/m*3 5.2 C 1.6 km/h
1348 20-01-2020 16:15:00 5.1 C 5.54 g/m*3 5.1 C 0 km/h
1349 20-01-2020 16:20:00 4.9 C 5.54 g/m*3 4.9 C 1.6 km/h
1350 20-01-2020 16:25:00 4.8 C 5.57 g/m*3 4.8 C 0 km/h
Sensor: Nr:Datum:Temp:Abs-Feuchte:Windchill:Wind:
Aussen-T/F 1351 20-01-2020 16:30:00 4.7 C 5.6 g/m*3 4.7 C 0 km/h
1352 20-01-2020 16:35:00 4.6 C 5.56 g/m*3 4.6 C 0 km/h
1353 20-01-2020 16:40:00 4.4 C 5.55 g/m*3 4.4 C 0 km/h
1354 20-01-2020 16:45:00 4.3 C 5.51 g/m*3 4.3 C 0 km/h
1355 20-01-2020 16:50:00 4.1 C 5.44 g/m*3 4.1 C 1.6 km/h
1356 20-01-2020 16:55:00 3.8 C 5.27 g/m*3 3.8 C 3.2 km/h
1357 20-01-2020 17:00:00 3.6 C 5.26 g/m*3 3.6 C 3.2 km/h
1358 20-01-2020 17:05:00 3.3 C 5.16 g/m*3 3.3 C 3.2 km/h
1359 20-01-2020 17:10:00 3.1 C 5.09 g/m*3 3.1 C 4.8 km/h
1360 20-01-2020 17:15:00 2.9 C 5.08 g/m*3 2.9 C 4.8 km/h
1361 20-01-2020 17:20:00 2.7 C 5.01 g/m*3 2.7 C 4.8 km/h
1362 20-01-2020 17:25:00 2.6 C 5.03 g/m*3 2.6 C 4.8 km/h
1363 20-01-2020 17:30:00 2.4 C 4.97 g/m*3 2.4 C 3.2 km/h
1364 20-01-2020 17:35:00 2.3 C 4.99 g/m*3 2.3 C 4.8 km/h
1365 20-01-2020 17:40:00 2.2 C 4.96 g/m*3 2.2 C 4.8 km/h
1366 20-01-2020 17:45:00 2.1 C 4.92 g/m*3 2.1 C 0 km/h
1367 20-01-2020 17:50:00 2 C 4.89 g/m*3 2 C 0 km/h
1368 20-01-2020 17:55:00 1.9 C 4.91 g/m*3 1.9 C 0 km/h
1369 20-01-2020 18:00:00 1.8 C 4.88 g/m*3 1.8 C 0 km/h
1370 20-01-2020 18:05:00 1.7 C 4.85 g/m*3 1.7 C 0 km/h
1371 20-01-2020 18:10:00 1.5 C 4.78 g/m*3 1.5 C 0 km/h
1372 20-01-2020 18:15:00 1.4 C 4.75 g/m*3 1.4 C 0 km/h
1373 20-01-2020 18:20:00 1.3 C 4.77 g/m*3 1.3 C 0 km/h
1374 20-01-2020 18:25:00 1.2 C 4.74 g/m*3 1.2 C 0 km/h
1375 20-01-2020 18:30:00 1.1 C 4.76 g/m*3 1.1 C 0 km/h
Sensor: Nr:Datum:Temp:Abs-Feuchte:Windchill:Wind:
Aussen-T/F 1376 20-01-2020 18:35:00 1.1 C 4.76 g/m*3 1.1 C 0 km/h
1377 20-01-2020 18:40:00 1 C 4.72 g/m*3 1 C 1.6 km/h
1378 20-01-2020 18:45:00 0.9 C 4.69 g/m*3 0.9 C 1.6 km/h
1379 20-01-2020 18:50:00 0.9 C 4.74 g/m*3 0.9 C 0 km/h
1380 20-01-2020 18:55:00 0.9 C 4.74 g/m*3 0.9 C 0 km/h
1381 20-01-2020 19:00:00 0.9 C 4.74 g/m*3 0.9 C 0 km/h
1382 20-01-2020 19:05:00 0.8 C 4.71 g/m*3 0.8 C 0 km/h
1383 20-01-2020 19:10:00 0.7 C 4.68 g/m*3 0.7 C 0 km/h
1384 20-01-2020 19:15:00 0.6 C 4.65 g/m*3 0.6 C 0 km/h
1385 20-01-2020 19:20:00 0.4 C 4.58 g/m*3 0.4 C 0 km/h
1386 20-01-2020 19:25:00 0.3 C 4.55 g/m*3 0.3 C 0 km/h
1387 20-01-2020 19:30:00 0.2 C 4.52 g/m*3 0.2 C 0 km/h
1388 20-01-2020 19:35:00 0.2 C 4.52 g/m*3 0.2 C 0 km/h
1389 20-01-2020 19:40:00 0.2 C 4.57 g/m*3 0.2 C 0 km/h
1390 20-01-2020 19:45:00 0.1 C 4.54 g/m*3 0.1 C 0 km/h
1391 20-01-2020 19:50:00 -0.1 C 4.47 g/m*3 -0.1 C 0 km/h
1392 20-01-2020 19:55:00 -0.1 C 4.47 g/m*3 -0.1 C 0 km/h
1393 20-01-2020 20:00:00 -0.1 C 4.47 g/m*3 -0.1 C 0 km/h
1394 20-01-2020 20:05:00 -0.1 C 4.52 g/m*3 -0.1 C 0 km/h
1395 20-01-2020 20:10:00 -0.1 C 4.52 g/m*3 -0.1 C 0 km/h
1396 20-01-2020 20:15:00 -0.1 C 4.52 g/m*3 -0.1 C 0 km/h
1397 20-01-2020 20:20:00 -0.2 C 4.49 g/m*3 -0.2 C 0 km/h
1398 20-01-2020 20:25:00 -0.2 C 4.49 g/m*3 -0.2 C 0 km/h
1399 20-01-2020 20:30:00 -0.2 C 4.49 g/m*3 -0.2 C 0 km/h
1400 20-01-2020 20:35:00 -0.3 C 4.46 g/m*3 -0.3 C 0 km/h
Sensor: Nr:Datum:Temp:Abs-Feuchte:Windchill:Wind:
Aussen-T/F 1401 20-01-2020 20:40:00 -0.4 C 4.43 g/m*3 -0.4 C 0 km/h
1402 20-01-2020 20:45:00 -0.4 C 4.43 g/m*3 -0.4 C 0 km/h
1403 20-01-2020 20:50:00 -0.6 C 4.37 g/m*3 -0.6 C 0 km/h
1404 20-01-2020 20:55:00 -0.6 C 4.37 g/m*3 -0.6 C 0 km/h
1405 20-01-2020 21:00:00 -0.7 C 4.34 g/m*3 -0.7 C 0 km/h
1406 20-01-2020 21:05:00 -0.8 C 4.31 g/m*3 -0.8 C 0 km/h
1407 20-01-2020 21:10:00 -0.8 C 4.31 g/m*3 -0.8 C 0 km/h
1408 20-01-2020 21:15:00 -0.8 C 4.31 g/m*3 -0.8 C 0 km/h
1409 20-01-2020 21:20:00 -0.9 C 4.28 g/m*3 -0.9 C 0 km/h
1410 20-01-2020 21:25:00 -0.9 C 4.28 g/m*3 -0.9 C 0 km/h
1411 20-01-2020 21:30:00 -0.9 C 4.28 g/m*3 -0.9 C 0 km/h
1412 20-01-2020 21:35:00 -0.9 C 4.28 g/m*3 -0.9 C 0 km/h
1413 20-01-2020 21:40:00 -0.9 C 4.28 g/m*3 -0.9 C 0 km/h
1414 20-01-2020 21:45:00 -1 C 4.25 g/m*3 -1 C 0 km/h
1415 20-01-2020 21:50:00 -1.1 C 4.22 g/m*3 -1.1 C 0 km/h
1416 20-01-2020 21:55:00 -1.1 C 4.22 g/m*3 -1.1 C 0 km/h
1417 20-01-2020 22:00:00 -1.2 C 4.19 g/m*3 -1.2 C 0 km/h
1418 20-01-2020 22:05:00 -1.2 C 4.19 g/m*3 -1.2 C 0 km/h
1419 20-01-2020 22:10:00 -1.1 C 4.26 g/m*3 -1.1 C 0 km/h
1420 20-01-2020 22:15:00 -1.2 C 4.24 g/m*3 -1.2 C 0 km/h
1421 20-01-2020 22:20:00 -1.2 C 4.24 g/m*3 -1.2 C 0 km/h
1422 20-01-2020 22:25:00 -1.3 C 4.21 g/m*3 -1.3 C 0 km/h
1423 20-01-2020 22:30:00 -1.2 C 4.24 g/m*3 -1.2 C 0 km/h
1424 20-01-2020 22:35:00 -1.2 C 4.24 g/m*3 -1.2 C 0 km/h
1425 20-01-2020 22:40:00 -1.2 C 4.24 g/m*3 -1.2 C 0 km/h
Sensor: Nr:Datum:Temp:Abs-Feuchte:Windchill:Wind:
Aussen-T/F 1426 20-01-2020 22:45:00 -1.2 C 4.24 g/m*3 -1.2 C 0 km/h
1427 20-01-2020 22:50:00 -1.3 C 4.21 g/m*3 -1.3 C 0 km/h
1428 20-01-2020 22:55:00 -1.3 C 4.21 g/m*3 -1.3 C 0 km/h
1429 20-01-2020 23:00:00 -1.3 C 4.21 g/m*3 -1.3 C 0 km/h
1430 20-01-2020 23:05:00 -1.4 C 4.18 g/m*3 -1.4 C 0 km/h
1431 20-01-2020 23:10:00 -1.4 C 4.18 g/m*3 -1.4 C 0 km/h
1432 20-01-2020 23:15:00 -1.4 C 4.18 g/m*3 -1.4 C 0 km/h
1433 20-01-2020 23:20:00 -1.5 C 4.15 g/m*3 -1.5 C 0 km/h
1434 20-01-2020 23:25:00 -1.5 C 4.15 g/m*3 -1.5 C 0 km/h
1435 20-01-2020 23:30:00 -1.5 C 4.15 g/m*3 -1.5 C 0 km/h
1436 20-01-2020 23:35:00 -1.6 C 4.12 g/m*3 -1.6 C 0 km/h
1437 20-01-2020 23:40:00 -1.7 C 4.09 g/m*3 -1.7 C 0 km/h
1438 20-01-2020 23:45:00 -1.7 C 4.09 g/m*3 -1.7 C 0 km/h
1439 20-01-2020 23:50:00 -1.7 C 4.09 g/m*3 -1.7 C 0 km/h
1440 20-01-2020 23:55:00 -1.7 C 4.09 g/m*3 -1.7 C 0 km/h
1441 21-01-2020 00:00:00 -1.7 C 4.09 g/m*3 -1.7 C 0 km/h
1442 21-01-2020 00:05:00 -1.7 C 4.09 g/m*3 -1.7 C 0 km/h
1443 21-01-2020 00:10:00 -1.7 C 4.09 g/m*3 -1.7 C 0 km/h
1444 21-01-2020 00:15:00 -1.7 C 4.09 g/m*3 -1.7 C 0 km/h
1445 21-01-2020 00:20:00 -1.7 C 4.09 g/m*3 -1.7 C 0 km/h
1446 21-01-2020 00:25:00 -1.8 C 4.06 g/m*3 -1.8 C 0 km/h
1447 21-01-2020 00:30:00 -1.8 C 4.06 g/m*3 -1.8 C 0 km/h
1448 21-01-2020 00:35:00 -1.8 C 4.06 g/m*3 -1.8 C 0 km/h
1449 21-01-2020 00:40:00 -1.8 C 4.06 g/m*3 -1.8 C 0 km/h
1450 21-01-2020 00:45:00 -1.8 C 4.06 g/m*3 -1.8 C 0 km/h
Sensor: Nr:Datum:Temp:Abs-Feuchte:Windchill:Wind:
Aussen-T/F 1451 21-01-2020 00:50:00 -1.8 C 4.06 g/m*3 -1.8 C 0 km/h
1452 21-01-2020 00:55:00 -1.8 C 4.06 g/m*3 -1.8 C 0 km/h
1453 21-01-2020 01:00:00 -1.8 C 4.06 g/m*3 -1.8 C 0 km/h
1454 21-01-2020 01:05:00 -1.8 C 4.06 g/m*3 -1.8 C 0 km/h
1455 21-01-2020 01:10:00 -1.9 C 4.03 g/m*3 -1.9 C 0 km/h
1456 21-01-2020 01:15:00 -1.9 C 4.03 g/m*3 -1.9 C 0 km/h
1457 21-01-2020 01:20:00 -1.9 C 4.03 g/m*3 -1.9 C 0 km/h
1458 21-01-2020 01:25:00 -1.9 C 4.03 g/m*3 -1.9 C 0 km/h
1459 21-01-2020 01:30:00 -1.9 C 4.03 g/m*3 -1.9 C 0 km/h
1460 21-01-2020 01:35:00 -1.9 C 4.08 g/m*3 -1.9 C 0 km/h
1461 21-01-2020 01:40:00 -2 C 4.05 g/m*3 -2 C 0 km/h
1462 21-01-2020 01:45:00 -2 C 4.05 g/m*3 -2 C 0 km/h
1463 21-01-2020 01:50:00 -2 C 4.05 g/m*3 -2 C 0 km/h
1464 21-01-2020 01:55:00 -2.1 C 3.98 g/m*3 -2.1 C 0 km/h
1465 21-01-2020 02:00:00 -2.2 C 3.95 g/m*3 -2.2 C 0 km/h
1466 21-01-2020 02:05:00 -2.2 C 3.95 g/m*3 -2.2 C 0 km/h
1467 21-01-2020 02:10:00 -2.3 C 3.92 g/m*3 -2.3 C 0 km/h
1468 21-01-2020 02:15:00 -2.3 C 3.92 g/m*3 -2.3 C 0 km/h
1469 21-01-2020 02:20:00 -2.3 C 3.92 g/m*3 -2.3 C 0 km/h
1470 21-01-2020 02:25:00 -2.4 C 3.89 g/m*3 -2.4 C 0 km/h
1471 21-01-2020 02:30:00 -2.4 C 3.89 g/m*3 -2.4 C 0 km/h
1472 21-01-2020 02:35:00 -2.4 C 3.89 g/m*3 -2.4 C 0 km/h
1473 21-01-2020 02:40:00 -2.4 C 3.89 g/m*3 -2.4 C 0 km/h
1474 21-01-2020 02:45:00 -2.5 C 3.87 g/m*3 -2.5 C 0 km/h
1475 21-01-2020 02:50:00 -2.5 C 3.87 g/m*3 -2.5 C 0 km/h
Sensor: Nr:Datum:Temp:Abs-Feuchte:Windchill:Wind:
Aussen-T/F 1476 21-01-2020 02:55:00 -2.5 C 3.91 g/m*3 -2.5 C 0 km/h
1477 21-01-2020 03:00:00 -2.5 C 3.91 g/m*3 -2.5 C 0 km/h
1478 21-01-2020 03:05:00 -2.5 C 3.91 g/m*3 -2.5 C 0 km/h
1479 21-01-2020 03:10:00 -2.5 C 3.91 g/m*3 -2.5 C 0 km/h
1480 21-01-2020 03:15:00 -2.5 C 3.91 g/m*3 -2.5 C 0 km/h
1481 21-01-2020 03:20:00 -2.5 C 3.91 g/m*3 -2.5 C 0 km/h
1482 21-01-2020 03:25:00 -2.5 C 3.91 g/m*3 -2.5 C 0 km/h
1483 21-01-2020 03:30:00 -2.5 C 3.91 g/m*3 -2.5 C 0 km/h
1484 21-01-2020 03:35:00 -2.6 C 3.88 g/m*3 -2.6 C 0 km/h
1485 21-01-2020 03:40:00 -2.7 C 3.81 g/m*3 -2.7 C 0 km/h
1486 21-01-2020 03:45:00 -2.7 C 3.81 g/m*3 -2.7 C 0 km/h
1487 21-01-2020 03:50:00 -2.8 C 3.78 g/m*3 -2.8 C 0 km/h
1488 21-01-2020 03:55:00 -2.9 C 3.76 g/m*3 -2.9 C 0 km/h
1489 21-01-2020 04:00:00 -2.9 C 3.76 g/m*3 -2.9 C 0 km/h
1490 21-01-2020 04:05:00 -3 C 3.73 g/m*3 -3 C 0 km/h
1491 21-01-2020 04:10:00 -3.1 C 3.71 g/m*3 -3.1 C 0 km/h
1492 21-01-2020 04:15:00 -3.1 C 3.71 g/m*3 -3.1 C 0 km/h
1493 21-01-2020 04:20:00 -3.1 C 3.71 g/m*3 -3.1 C 0 km/h
1494 21-01-2020 04:25:00 -3 C 3.77 g/m*3 -3 C 1.6 km/h
1495 21-01-2020 04:30:00 -2.9 C 3.8 g/m*3 -2.9 C 1.6 km/h
1496 21-01-2020 04:35:00 -2.9 C 3.8 g/m*3 -2.9 C 0 km/h
1497 21-01-2020 04:40:00 -2.8 C 3.82 g/m*3 -2.8 C 0 km/h
1498 21-01-2020 04:45:00 -2.9 C 3.8 g/m*3 -2.9 C 0 km/h
1499 21-01-2020 04:50:00 -3 C 3.77 g/m*3 -3 C 0 km/h
1500 21-01-2020 04:55:00 -3.1 C 3.71 g/m*3 -3.1 C 0 km/h
Sensor: Nr:Datum:Temp:Abs-Feuchte:Windchill:Wind:
Aussen-T/F 1501 21-01-2020 05:00:00 -3.1 C 3.74 g/m*3 -3.1 C 0 km/h
1502 21-01-2020 05:05:00 -3.1 C 3.74 g/m*3 -3.1 C 0 km/h
1503 21-01-2020 05:10:00 -3.1 C 3.74 g/m*3 -3.1 C 0 km/h
1504 21-01-2020 05:15:00 -3.2 C 3.68 g/m*3 -3.2 C 0 km/h
1505 21-01-2020 05:20:00 -3.2 C 3.68 g/m*3 -3.2 C 0 km/h
1506 21-01-2020 05:25:00 -3.3 C 3.65 g/m*3 -3.3 C 0 km/h
1507 21-01-2020 05:30:00 -3.2 C 3.68 g/m*3 -3.2 C 0 km/h
1508 21-01-2020 05:35:00 -3.2 C 3.72 g/m*3 -3.2 C 0 km/h
1509 21-01-2020 05:40:00 -3.2 C 3.72 g/m*3 -3.2 C 0 km/h
1510 21-01-2020 05:45:00 -3.2 C 3.72 g/m*3 -3.2 C 0 km/h
1511 21-01-2020 05:50:00 -3.2 C 3.72 g/m*3 -3.2 C 0 km/h
1512 21-01-2020 05:55:00 -3.1 C 3.74 g/m*3 -3.1 C 0 km/h
1513 21-01-2020 06:00:00 -3.1 C 3.74 g/m*3 -3.1 C 0 km/h
1514 21-01-2020 06:05:00 -3 C 3.77 g/m*3 -3 C 0 km/h
1515 21-01-2020 06:10:00 -3 C 3.77 g/m*3 -3 C 0 km/h
1516 21-01-2020 06:15:00 -2.9 C 3.8 g/m*3 -2.9 C 0 km/h
1517 21-01-2020 06:20:00 -2.9 C 3.8 g/m*3 -2.9 C 0 km/h
1518 21-01-2020 06:25:00 -2.8 C 3.82 g/m*3 -2.8 C 0 km/h
1519 21-01-2020 06:30:00 -2.8 C 3.82 g/m*3 -2.8 C 0 km/h
1520 21-01-2020 06:35:00 -2.7 C 3.85 g/m*3 -2.7 C 0 km/h
1521 21-01-2020 06:40:00 -2.7 C 3.85 g/m*3 -2.7 C 0 km/h
1522 21-01-2020 06:45:00 -2.6 C 3.88 g/m*3 -2.6 C 0 km/h
1523 21-01-2020 06:50:00 -2.6 C 3.88 g/m*3 -2.6 C 0 km/h
1524 21-01-2020 06:55:00 -2.5 C 3.91 g/m*3 -2.5 C 0 km/h
1525 21-01-2020 07:00:00 -2.5 C 3.91 g/m*3 -2.5 C 0 km/h
Sensor: Nr:Datum:Temp:Abs-Feuchte:Windchill:Wind:
Aussen-T/F 1526 21-01-2020 07:05:00 -2.5 C 3.91 g/m*3 -2.5 C 0 km/h
1527 21-01-2020 07:10:00 -2.5 C 3.91 g/m*3 -2.5 C 0 km/h
1528 21-01-2020 07:15:00 -2.6 C 3.88 g/m*3 -2.6 C 0 km/h
1529 21-01-2020 07:20:00 -2.6 C 3.88 g/m*3 -2.6 C 0 km/h
1530 21-01-2020 07:25:00 -2.5 C 3.91 g/m*3 -2.5 C 0 km/h
1531 21-01-2020 07:30:00 -2.5 C 3.91 g/m*3 -2.5 C 0 km/h
1532 21-01-2020 07:35:00 -2.5 C 3.91 g/m*3 -2.5 C 1.6 km/h
1533 21-01-2020 07:40:00 -2.6 C 3.88 g/m*3 -2.6 C 0 km/h
1534 21-01-2020 07:45:00 -2.6 C 3.88 g/m*3 -2.6 C 3.2 km/h
1535 21-01-2020 07:50:00 -2.6 C 3.88 g/m*3 -2.6 C 0 km/h
1536 21-01-2020 07:55:00 -2.7 C 3.85 g/m*3 -2.7 C 0 km/h
1537 21-01-2020 08:00:00 -2.7 C 3.85 g/m*3 -2.7 C 0 km/h
1538 21-01-2020 08:05:00 -2.7 C 3.85 g/m*3 -2.7 C 0 km/h
1539 21-01-2020 08:10:00 -2.7 C 3.85 g/m*3 -2.7 C 0 km/h
1540 21-01-2020 08:15:00 -2.7 C 3.85 g/m*3 -2.7 C 0 km/h
1541 21-01-2020 08:20:00 -2.7 C 3.85 g/m*3 -2.7 C 0 km/h
1542 21-01-2020 08:25:00 -2.7 C 3.85 g/m*3 -2.7 C 1.6 km/h
1543 21-01-2020 08:30:00 -2.7 C 3.85 g/m*3 -2.7 C 3.2 km/h
1544 21-01-2020 08:35:00 -2.8 C 3.82 g/m*3 -2.8 C 1.6 km/h
1545 21-01-2020 08:40:00 -2.8 C 3.82 g/m*3 -2.8 C 0 km/h
1546 21-01-2020 08:45:00 -2.8 C 3.82 g/m*3 -2.8 C 0 km/h
1547 21-01-2020 08:50:00 -2.8 C 3.82 g/m*3 -2.8 C 3.2 km/h
1548 21-01-2020 08:55:00 -2.8 C 3.82 g/m*3 -2.8 C 1.6 km/h
1549 21-01-2020 09:00:00 -2.8 C 3.82 g/m*3 -2.8 C 0 km/h
1550 21-01-2020 09:05:00 -2.8 C 3.82 g/m*3 -2.8 C 4.8 km/h
Sensor: Nr:Datum:Temp:Abs-Feuchte:Windchill:Wind:
Aussen-T/F 1551 21-01-2020 09:10:00 -2.9 C 3.8 g/m*3 -2.9 C 4.8 km/h
1552 21-01-2020 09:15:00 -3.1 C 3.74 g/m*3 -3.1 C 1.6 km/h
1553 21-01-2020 09:20:00 -3.1 C 3.74 g/m*3 -3.1 C 3.2 km/h
1554 21-01-2020 09:25:00 -3.1 C 3.74 g/m*3 -3.1 C 0 km/h
1555 21-01-2020 09:30:00 -3 C 3.77 g/m*3 -3 C 1.6 km/h
1556 21-01-2020 09:35:00 -3 C 3.77 g/m*3 -3 C 0 km/h
1557 21-01-2020 09:40:00 -3 C 3.77 g/m*3 -3 C 1.6 km/h
1558 21-01-2020 09:45:00 -3 C 3.77 g/m*3 -3 C 1.6 km/h
1559 21-01-2020 09:50:00 -3 C 3.77 g/m*3 -3 C 0 km/h
1560 21-01-2020 09:55:00 -2.9 C 3.8 g/m*3 -2.9 C 1.6 km/h
1561 21-01-2020 10:00:00 -2.9 C 3.8 g/m*3 -2.9 C 3.2 km/h
1562 21-01-2020 10:05:00 -2.8 C 3.82 g/m*3 -2.8 C 1.6 km/h
1563 21-01-2020 10:10:00 -2.8 C 3.82 g/m*3 -2.8 C 0 km/h
1564 21-01-2020 10:15:00 -2.8 C 3.82 g/m*3 -2.8 C 0 km/h
1565 21-01-2020 10:20:00 -2.8 C 3.82 g/m*3 -2.8 C 0 km/h
1566 21-01-2020 10:25:00 -2.8 C 3.82 g/m*3 -2.8 C 0 km/h
1567 21-01-2020 10:30:00 -2.8 C 3.82 g/m*3 -2.8 C 0 km/h
1568 21-01-2020 10:35:00 -2.7 C 3.85 g/m*3 -2.7 C 0 km/h
1569 21-01-2020 10:40:00 -2.7 C 3.85 g/m*3 -2.7 C 0 km/h
1570 21-01-2020 10:45:00 -2.7 C 3.85 g/m*3 -2.7 C 0 km/h
1571 21-01-2020 10:50:00 -2.7 C 3.85 g/m*3 -2.7 C 0 km/h
1572 21-01-2020 10:55:00 -2.7 C 3.85 g/m*3 -2.7 C 0 km/h
1573 21-01-2020 11:00:00 -2.6 C 3.88 g/m*3 -2.6 C 0 km/h
1574 21-01-2020 11:05:00 -2.6 C 3.92 g/m*3 -2.6 C 0 km/h
1575 21-01-2020 11:10:00 -2.5 C 3.91 g/m*3 -2.5 C 0 km/h
Sensor: Nr:Datum:Temp:Abs-Feuchte:Windchill:Wind:
Aussen-T/F 1576 21-01-2020 11:15:00 -2.5 C 3.91 g/m*3 -2.5 C 0 km/h
1577 21-01-2020 11:20:00 -2.4 C 3.98 g/m*3 -2.4 C 0 km/h
1578 21-01-2020 11:25:00 -2.3 C 4 g/m*3 -2.3 C 0 km/h
1579 21-01-2020 11:30:00 -2.2 C 4.03 g/m*3 -2.2 C 0 km/h
1580 21-01-2020 11:35:00 -2.1 C 4.06 g/m*3 -2.1 C 0 km/h
1581 21-01-2020 11:40:00 -1.9 C 4.12 g/m*3 -1.9 C 0 km/h
1582 21-01-2020 11:45:00 -1.8 C 4.15 g/m*3 -1.8 C 0 km/h
1583 21-01-2020 11:50:00 -1.7 C 4.18 g/m*3 -1.7 C 0 km/h
1584 21-01-2020 11:55:00 -1.6 C 4.21 g/m*3 -1.6 C 0 km/h
1585 21-01-2020 12:00:00 -1.6 C 4.21 g/m*3 -1.6 C 0 km/h
1586 21-01-2020 12:05:00 -1.5 C 4.23 g/m*3 -1.5 C 0 km/h
1587 21-01-2020 12:10:00 -1.4 C 4.26 g/m*3 -1.4 C 0 km/h
1588 21-01-2020 12:15:00 -1.3 C 4.29 g/m*3 -1.3 C 3.2 km/h
1589 21-01-2020 12:20:00 -1.3 C 4.29 g/m*3 -1.3 C 3.2 km/h
1590 21-01-2020 12:25:00 -1.3 C 4.29 g/m*3 -1.3 C 4.8 km/h
1591 21-01-2020 12:30:00 -1.2 C 4.32 g/m*3 -1.2 C 1.6 km/h
1592 21-01-2020 12:35:00 -1.2 C 4.32 g/m*3 -1.2 C 0 km/h
1593 21-01-2020 12:40:00 -1.1 C 4.35 g/m*3 -1.1 C 1.6 km/h
1594 21-01-2020 12:45:00 -0.9 C 4.42 g/m*3 -0.9 C 3.2 km/h
1595 21-01-2020 12:50:00 -0.9 C 4.42 g/m*3 -0.9 C 4.8 km/h
1596 21-01-2020 12:55:00 -0.9 C 4.42 g/m*3 -3.22 C 6.4 km/h
1597 21-01-2020 13:00:00 -0.8 C 4.45 g/m*3 -0.8 C 1.6 km/h
1598 21-01-2020 13:05:00 -0.7 C 4.48 g/m*3 -0.7 C 3.2 km/h
1599 21-01-2020 13:10:00 -0.7 C 4.48 g/m*3 -0.7 C 3.2 km/h
1600 21-01-2020 13:15:00 -0.7 C 4.48 g/m*3 -0.7 C 3.2 km/h
Sensor: Nr:Datum:Temp:Abs-Feuchte:Windchill:Wind:
Aussen-T/F 1601 21-01-2020 13:20:00 -0.7 C 4.48 g/m*3 -0.7 C 3.2 km/h
1602 21-01-2020 13:25:00 -0.7 C 4.48 g/m*3 -2.99 C 6.4 km/h
1603 21-01-2020 13:30:00 -0.6 C 4.51 g/m*3 -0.6 C 4.8 km/h
1604 21-01-2020 13:35:00 -0.6 C 4.51 g/m*3 -0.6 C 4.8 km/h
1605 21-01-2020 13:40:00 -0.5 C 4.54 g/m*3 -0.5 C 3.2 km/h
1606 21-01-2020 13:45:00 -0.4 C 4.57 g/m*3 -0.4 C 0 km/h
1607 21-01-2020 13:50:00 -0.4 C 4.57 g/m*3 -2.64 C 6.4 km/h
1608 21-01-2020 13:55:00 -0.4 C 4.57 g/m*3 -0.4 C 4.8 km/h
1609 21-01-2020 14:00:00 -0.4 C 4.57 g/m*3 -0.4 C 3.2 km/h
1610 21-01-2020 14:05:00 -0.3 C 4.6 g/m*3 -0.3 C 0 km/h
1611 21-01-2020 14:10:00 -0.3 C 4.6 g/m*3 -0.3 C 0 km/h
1612 21-01-2020 14:15:00 -0.3 C 4.6 g/m*3 -0.3 C 0 km/h
1613 21-01-2020 14:20:00 -0.2 C 4.64 g/m*3 -0.2 C 0 km/h
1614 21-01-2020 14:25:00 -0.2 C 4.64 g/m*3 -0.2 C 0 km/h
1615 21-01-2020 14:30:00 -0.1 C 4.67 g/m*3 -0.1 C 0 km/h
1616 21-01-2020 14:35:00 -0.1 C 4.67 g/m*3 -0.1 C 0 km/h
1617 21-01-2020 14:40:00 0 C 4.7 g/m*3 -2.18 C 6.4 km/h
1618 21-01-2020 14:45:00 -0.1 C 4.67 g/m*3 -2.3 C 6.4 km/h
1619 21-01-2020 14:50:00 -0.1 C 4.67 g/m*3 -0.1 C 0 km/h
1620 21-01-2020 14:55:00 0 C 4.7 g/m*3 0 C 1.6 km/h
1621 21-01-2020 15:00:00 0 C 4.7 g/m*3 0 C 1.6 km/h
1622 21-01-2020 15:05:00 0 C 4.7 g/m*3 0 C 3.2 km/h
1623 21-01-2020 15:10:00 0 C 4.7 g/m*3 -2.18 C 6.4 km/h
1624 21-01-2020 15:15:00 0 C 4.7 g/m*3 0 C 1.6 km/h
1625 21-01-2020 15:20:00 0 C 4.7 g/m*3 0 C 3.2 km/h
Sensor: Nr:Datum:Temp:Abs-Feuchte:Windchill:Wind:
Aussen-T/F 1626 21-01-2020 15:25:00 0 C 4.7 g/m*3 0 C 1.6 km/h
1627 21-01-2020 15:30:00 0 C 4.7 g/m*3 0 C 0 km/h
1628 21-01-2020 15:35:00 0.1 C 4.73 g/m*3 0.1 C 1.6 km/h
1629 21-01-2020 15:40:00 0.1 C 4.73 g/m*3 0.1 C 1.6 km/h
1630 21-01-2020 15:45:00 0.1 C 4.73 g/m*3 0.1 C 0 km/h
1631 21-01-2020 15:50:00 0.1 C 4.73 g/m*3 0.1 C 1.6 km/h
1632 21-01-2020 15:55:00 0 C 4.7 g/m*3 0 C 0 km/h
1633 21-01-2020 16:00:00 0 C 4.7 g/m*3 0 C 0 km/h
1634 21-01-2020 16:05:00 0 C 4.7 g/m*3 0 C 0 km/h
1635 21-01-2020 16:10:00 -0.1 C 4.67 g/m*3 -0.1 C 0 km/h
1636 21-01-2020 16:15:00 -0.1 C 4.67 g/m*3 -0.1 C 0 km/h
1637 21-01-2020 16:20:00 -0.2 C 4.64 g/m*3 -0.2 C 0 km/h
1638 21-01-2020 16:25:00 -0.2 C 4.64 g/m*3 -0.2 C 0 km/h
1639 21-01-2020 16:30:00 -0.2 C 4.64 g/m*3 -0.2 C 0 km/h
1640 21-01-2020 16:35:00 -0.2 C 4.64 g/m*3 -0.2 C 0 km/h
1641 21-01-2020 16:40:00 -0.2 C 4.64 g/m*3 -0.2 C 0 km/h
1642 21-01-2020 16:45:00 -0.3 C 4.6 g/m*3 -0.3 C 0 km/h
1643 21-01-2020 16:50:00 -0.3 C 4.6 g/m*3 -0.3 C 1.6 km/h
1644 21-01-2020 16:55:00 -0.3 C 4.6 g/m*3 -0.3 C 0 km/h
1645 21-01-2020 17:00:00 -0.4 C 4.57 g/m*3 -0.4 C 0 km/h
1646 21-01-2020 17:05:00 -0.4 C 4.57 g/m*3 -0.4 C 0 km/h
1647 21-01-2020 17:10:00 -0.5 C 4.54 g/m*3 -0.5 C 0 km/h
1648 21-01-2020 17:15:00 -0.5 C 4.54 g/m*3 -0.5 C 0 km/h
1649 21-01-2020 17:20:00 -0.6 C 4.51 g/m*3 -0.6 C 0 km/h
1650 21-01-2020 17:25:00 -0.6 C 4.51 g/m*3 -0.6 C 0 km/h
Sensor: Nr:Datum:Temp:Abs-Feuchte:Windchill:Wind:
Aussen-T/F 1651 21-01-2020 17:30:00 -0.6 C 4.51 g/m*3 -0.6 C 0 km/h
1652 21-01-2020 17:35:00 -0.6 C 4.51 g/m*3 -0.6 C 0 km/h
1653 21-01-2020 17:40:00 -0.6 C 4.51 g/m*3 -0.6 C 0 km/h
1654 21-01-2020 17:45:00 -0.7 C 4.48 g/m*3 -0.7 C 0 km/h
1655 21-01-2020 17:50:00 -0.7 C 4.48 g/m*3 -0.7 C 0 km/h
1656 21-01-2020 17:55:00 -0.8 C 4.45 g/m*3 -0.8 C 0 km/h
1657 21-01-2020 18:00:00 -0.8 C 4.45 g/m*3 -0.8 C 0 km/h
1658 21-01-2020 18:05:00 -0.8 C 4.45 g/m*3 -0.8 C 0 km/h
1659 21-01-2020 18:10:00 -0.8 C 4.45 g/m*3 -0.8 C 0 km/h
1660 21-01-2020 18:15:00 -0.9 C 4.42 g/m*3 -0.9 C 0 km/h
1661 21-01-2020 18:20:00 -1 C 4.38 g/m*3 -1 C 0 km/h
1662 21-01-2020 18:25:00 -1.1 C 4.35 g/m*3 -1.1 C 0 km/h
1663 21-01-2020 18:30:00 -1.1 C 4.35 g/m*3 -1.1 C 0 km/h
1664 21-01-2020 18:35:00 -1.1 C 4.35 g/m*3 -1.1 C 0 km/h
1665 21-01-2020 18:40:00 -1.2 C 4.32 g/m*3 -1.2 C 0 km/h
1666 21-01-2020 18:45:00 -1.2 C 4.32 g/m*3 -1.2 C 0 km/h
1667 21-01-2020 18:50:00 -1.2 C 4.32 g/m*3 -1.2 C 0 km/h
1668 21-01-2020 18:55:00 -1.3 C 4.29 g/m*3 -1.3 C 0 km/h
1669 21-01-2020 19:00:00 -1.3 C 4.29 g/m*3 -1.3 C 0 km/h
1670 21-01-2020 19:05:00 -1.3 C 4.29 g/m*3 -1.3 C 0 km/h
1671 21-01-2020 19:10:00 -1.3 C 4.29 g/m*3 -1.3 C 1.6 km/h
1672 21-01-2020 19:15:00 -1.3 C 4.29 g/m*3 -1.3 C 0 km/h
1673 21-01-2020 19:20:00 -1.3 C 4.29 g/m*3 -1.3 C 0 km/h
1674 21-01-2020 19:25:00 -1.3 C 4.29 g/m*3 -1.3 C 0 km/h
1675 21-01-2020 19:30:00 -1.3 C 4.29 g/m*3 -1.3 C 0 km/h
Sensor: Nr:Datum:Temp:Abs-Feuchte:Windchill:Wind:
Aussen-T/F 1676 21-01-2020 19:35:00 -1.3 C 4.29 g/m*3 -1.3 C 0 km/h
1677 21-01-2020 19:40:00 -1.3 C 4.29 g/m*3 -1.3 C 0 km/h
1678 21-01-2020 19:45:00 -1.3 C 4.29 g/m*3 -1.3 C 0 km/h
1679 21-01-2020 19:50:00 -1.3 C 4.29 g/m*3 -1.3 C 0 km/h
1680 21-01-2020 19:55:00 -1.3 C 4.29 g/m*3 -1.3 C 0 km/h
1681 21-01-2020 20:00:00 -1.3 C 4.29 g/m*3 -1.3 C 0 km/h
1682 21-01-2020 20:05:00 -1.3 C 4.29 g/m*3 -1.3 C 0 km/h
1683 21-01-2020 20:10:00 -1.3 C 4.29 g/m*3 -1.3 C 0 km/h
1684 21-01-2020 20:15:00 -1.4 C 4.26 g/m*3 -1.4 C 0 km/h
1685 21-01-2020 20:20:00 -1.4 C 4.26 g/m*3 -1.4 C 0 km/h
1686 21-01-2020 20:25:00 -1.4 C 4.26 g/m*3 -1.4 C 0 km/h
1687 21-01-2020 20:30:00 -1.5 C 4.23 g/m*3 -1.5 C 0 km/h
1688 21-01-2020 20:35:00 -1.5 C 4.23 g/m*3 -1.5 C 0 km/h
1689 21-01-2020 20:40:00 -1.5 C 4.23 g/m*3 -1.5 C 0 km/h
1690 21-01-2020 20:45:00 -1.6 C 4.21 g/m*3 -1.6 C 0 km/h
1691 21-01-2020 20:50:00 -1.6 C 4.21 g/m*3 -1.6 C 0 km/h
1692 21-01-2020 20:55:00 -1.6 C 4.21 g/m*3 -1.6 C 0 km/h
1693 21-01-2020 21:00:00 -1.7 C 4.18 g/m*3 -1.7 C 0 km/h
1694 21-01-2020 21:05:00 -1.7 C 4.18 g/m*3 -1.7 C 0 km/h
1695 21-01-2020 21:10:00 -1.8 C 4.15 g/m*3 -1.8 C 0 km/h
1696 21-01-2020 21:15:00 -1.8 C 4.15 g/m*3 -1.8 C 0 km/h
1697 21-01-2020 21:20:00 -1.8 C 4.15 g/m*3 -1.8 C 0 km/h
1698 21-01-2020 21:25:00 -1.9 C 4.12 g/m*3 -1.9 C 0 km/h
1699 21-01-2020 21:30:00 -1.9 C 4.12 g/m*3 -1.9 C 0 km/h
1700 21-01-2020 21:35:00 -1.9 C 4.12 g/m*3 -1.9 C 0 km/h
Sensor: Nr:Datum:Temp:Abs-Feuchte:Windchill:Wind:
Aussen-T/F 1701 21-01-2020 21:40:00 -1.8 C 4.15 g/m*3 -1.8 C 0 km/h
1702 21-01-2020 21:45:00 -1.8 C 4.15 g/m*3 -1.8 C 0 km/h
1703 21-01-2020 21:50:00 -1.8 C 4.15 g/m*3 -1.8 C 0 km/h
1704 21-01-2020 21:55:00 -1.8 C 4.15 g/m*3 -1.8 C 0 km/h
1705 21-01-2020 22:00:00 -1.8 C 4.15 g/m*3 -1.8 C 0 km/h
1706 21-01-2020 22:05:00 -1.8 C 4.15 g/m*3 -1.8 C 0 km/h
1707 21-01-2020 22:10:00 -1.8 C 4.15 g/m*3 -1.8 C 0 km/h
1708 21-01-2020 22:15:00 -1.8 C 4.15 g/m*3 -1.8 C 0 km/h
1709 21-01-2020 22:20:00 -1.8 C 4.15 g/m*3 -1.8 C 0 km/h
1710 21-01-2020 22:25:00 -1.9 C 4.12 g/m*3 -1.9 C 0 km/h
1711 21-01-2020 22:30:00 -1.9 C 4.12 g/m*3 -1.9 C 0 km/h
1712 21-01-2020 22:35:00 -1.9 C 4.12 g/m*3 -1.9 C 0 km/h
1713 21-01-2020 22:40:00 -1.9 C 4.12 g/m*3 -1.9 C 0 km/h
1714 21-01-2020 22:45:00 -2 C 4.09 g/m*3 -2 C 0 km/h
1715 21-01-2020 22:50:00 -2 C 4.09 g/m*3 -2 C 0 km/h
1716 21-01-2020 22:55:00 -2.1 C 4.06 g/m*3 -2.1 C 0 km/h
1717 21-01-2020 23:00:00 -2.1 C 4.06 g/m*3 -2.1 C 0 km/h
1718 21-01-2020 23:05:00 -2.2 C 4.03 g/m*3 -2.2 C 0 km/h
1719 21-01-2020 23:10:00 -2.2 C 4.03 g/m*3 -2.2 C 0 km/h
1720 21-01-2020 23:15:00 -2.2 C 4.03 g/m*3 -2.2 C 0 km/h
1721 21-01-2020 23:20:00 -2.2 C 4.03 g/m*3 -2.2 C 0 km/h
1722 21-01-2020 23:25:00 -2.2 C 4.03 g/m*3 -2.2 C 0 km/h
1723 21-01-2020 23:30:00 -2.2 C 4.03 g/m*3 -2.2 C 0 km/h
1724 21-01-2020 23:35:00 -2.2 C 4.03 g/m*3 -2.2 C 0 km/h
1725 21-01-2020 23:40:00 -2.2 C 4.03 g/m*3 -2.2 C 0 km/h
Sensor: Nr:Datum:Temp:Abs-Feuchte:Windchill:Wind:
Aussen-T/F 1726 21-01-2020 23:45:00 -2.3 C 4 g/m*3 -2.3 C 0 km/h
1727 21-01-2020 23:50:00 -2.3 C 4 g/m*3 -2.3 C 0 km/h
1728 21-01-2020 23:55:00 -2.3 C 4 g/m*3 -2.3 C 0 km/h
1729 22-01-2020 00:00:00 -2.3 C 4 g/m*3 -2.3 C 0 km/h
1730 22-01-2020 00:05:00 -2.3 C 4 g/m*3 -2.3 C 0 km/h
1731 22-01-2020 00:10:00 -2.3 C 4 g/m*3 -2.3 C 0 km/h
1732 22-01-2020 00:15:00 -2.4 C 3.98 g/m*3 -2.4 C 0 km/h
1733 22-01-2020 00:20:00 -2.4 C 3.98 g/m*3 -2.4 C 0 km/h
1734 22-01-2020 00:25:00 -2.5 C 3.95 g/m*3 -2.5 C 3.2 km/h
1735 22-01-2020 00:30:00 -2.5 C 3.95 g/m*3 -2.5 C 0 km/h
1736 22-01-2020 00:35:00 -2.5 C 3.95 g/m*3 -2.5 C 0 km/h
1737 22-01-2020 00:40:00 -2.4 C 3.98 g/m*3 -2.4 C 0 km/h
1738 22-01-2020 00:45:00 -2.4 C 3.98 g/m*3 -2.4 C 0 km/h
1739 22-01-2020 00:50:00 -2.4 C 3.98 g/m*3 -2.4 C 3.2 km/h
1740 22-01-2020 00:55:00 -2.5 C 3.95 g/m*3 -2.5 C 0 km/h
1741 22-01-2020 01:00:00 -2.5 C 3.95 g/m*3 -2.5 C 0 km/h
1742 22-01-2020 01:05:00 -2.6 C 3.92 g/m*3 -2.6 C 0 km/h
1743 22-01-2020 01:10:00 -2.6 C 3.92 g/m*3 -2.6 C 0 km/h
1744 22-01-2020 01:15:00 -2.6 C 3.92 g/m*3 -2.6 C 1.6 km/h
1745 22-01-2020 01:20:00 -2.6 C 3.92 g/m*3 -2.6 C 0 km/h
1746 22-01-2020 01:25:00 -2.6 C 3.92 g/m*3 -2.6 C 0 km/h
1747 22-01-2020 01:30:00 -2.6 C 3.92 g/m*3 -2.6 C 1.6 km/h
1748 22-01-2020 01:35:00 -2.7 C 3.89 g/m*3 -2.7 C 1.6 km/h
1749 22-01-2020 01:40:00 -2.7 C 3.89 g/m*3 -2.7 C 0 km/h
1750 22-01-2020 01:45:00 -2.7 C 3.89 g/m*3 -2.7 C 0 km/h
Sensor: Nr:Datum:Temp:Abs-Feuchte:Windchill:Wind:
Aussen-T/F 1751 22-01-2020 01:50:00 -2.7 C 3.89 g/m*3 -2.7 C 0 km/h
1752 22-01-2020 01:55:00 -2.7 C 3.89 g/m*3 -2.7 C 0 km/h
1753 22-01-2020 02:00:00 -2.7 C 3.89 g/m*3 -2.7 C 1.6 km/h
1754 22-01-2020 02:05:00 -2.7 C 3.89 g/m*3 -2.7 C 1.6 km/h
1755 22-01-2020 02:10:00 -2.8 C 3.86 g/m*3 -2.8 C 0 km/h
1756 22-01-2020 02:15:00 -2.7 C 3.89 g/m*3 -2.7 C 0 km/h
1757 22-01-2020 02:20:00 -2.8 C 3.86 g/m*3 -2.8 C 1.6 km/h
1758 22-01-2020 02:25:00 -2.8 C 3.86 g/m*3 -2.8 C 0 km/h
1759 22-01-2020 02:30:00 -2.8 C 3.86 g/m*3 -2.8 C 0 km/h
1760 22-01-2020 02:35:00 -2.8 C 3.86 g/m*3 -2.8 C 0 km/h
1761 22-01-2020 02:40:00 -2.8 C 3.82 g/m*3 -2.8 C 0 km/h
1762 22-01-2020 02:45:00 -2.8 C 3.82 g/m*3 -2.8 C 3.2 km/h
1763 22-01-2020 02:50:00 -2.8 C 3.82 g/m*3 -2.8 C 0 km/h
1764 22-01-2020 02:55:00 -2.8 C 3.82 g/m*3 -2.8 C 1.6 km/h
1765 22-01-2020 03:00:00 -2.9 C 3.8 g/m*3 -2.9 C 1.6 km/h
1766 22-01-2020 03:05:00 -2.9 C 3.8 g/m*3 -2.9 C 0 km/h
1767 22-01-2020 03:10:00 -2.9 C 3.8 g/m*3 -2.9 C 0 km/h
1768 22-01-2020 03:15:00 -2.9 C 3.8 g/m*3 -2.9 C 3.2 km/h
1769 22-01-2020 03:20:00 -2.9 C 3.8 g/m*3 -2.9 C 1.6 km/h
1770 22-01-2020 03:25:00 -3 C 3.77 g/m*3 -3 C 4.8 km/h
1771 22-01-2020 03:30:00 -3.1 C 3.74 g/m*3 -3.1 C 0 km/h
1772 22-01-2020 03:35:00 -3.1 C 3.74 g/m*3 -3.1 C 0 km/h
1773 22-01-2020 03:40:00 -3.1 C 3.74 g/m*3 -3.1 C 1.6 km/h
1774 22-01-2020 03:45:00 -3.1 C 3.74 g/m*3 -3.1 C 0 km/h
1775 22-01-2020 03:50:00 -3 C 3.77 g/m*3 -3 C 0 km/h
Sensor: Nr:Datum:Temp:Abs-Feuchte:Windchill:Wind:
Aussen-T/F 1776 22-01-2020 03:55:00 -3 C 3.77 g/m*3 -3 C 1.6 km/h
1777 22-01-2020 04:00:00 -3 C 3.77 g/m*3 -3 C 1.6 km/h
1778 22-01-2020 04:05:00 -3 C 3.77 g/m*3 -3 C 1.6 km/h
1779 22-01-2020 04:10:00 -2.9 C 3.8 g/m*3 -2.9 C 0 km/h
1780 22-01-2020 04:15:00 -2.9 C 3.8 g/m*3 -2.9 C 0 km/h
1781 22-01-2020 04:20:00 -2.9 C 3.8 g/m*3 -2.9 C 0 km/h
1782 22-01-2020 04:25:00 -2.9 C 3.8 g/m*3 -2.9 C 3.2 km/h
1783 22-01-2020 04:30:00 -2.9 C 3.8 g/m*3 -2.9 C 1.6 km/h
1784 22-01-2020 04:35:00 -2.9 C 3.8 g/m*3 -2.9 C 1.6 km/h
1785 22-01-2020 04:40:00 -2.9 C 3.8 g/m*3 -2.9 C 0 km/h
1786 22-01-2020 04:45:00 -2.9 C 3.8 g/m*3 -2.9 C 0 km/h
1787 22-01-2020 04:50:00 -2.9 C 3.8 g/m*3 -2.9 C 0 km/h
1788 22-01-2020 04:55:00 -2.9 C 3.8 g/m*3 -2.9 C 0 km/h
1789 22-01-2020 05:00:00 -3 C 3.77 g/m*3 -3 C 0 km/h
1790 22-01-2020 05:05:00 -3 C 3.77 g/m*3 -3 C 0 km/h
1791 22-01-2020 05:10:00 -3 C 3.77 g/m*3 -3 C 0 km/h
1792 22-01-2020 05:15:00 -3.1 C 3.74 g/m*3 -3.1 C 0 km/h
1793 22-01-2020 05:20:00 -3.1 C 3.74 g/m*3 -3.1 C 0 km/h
1794 22-01-2020 05:25:00 -3 C 3.77 g/m*3 -3 C 0 km/h
1795 22-01-2020 05:30:00 -3 C 3.77 g/m*3 -3 C 3.2 km/h
1796 22-01-2020 05:35:00 -2.9 C 3.8 g/m*3 -2.9 C 1.6 km/h
1797 22-01-2020 05:40:00 -2.9 C 3.8 g/m*3 -2.9 C 3.2 km/h
1798 22-01-2020 05:45:00 -2.9 C 3.8 g/m*3 -2.9 C 1.6 km/h
1799 22-01-2020 05:50:00 -2.9 C 3.8 g/m*3 -2.9 C 0 km/h
1800 22-01-2020 05:55:00 -2.9 C 3.8 g/m*3 -2.9 C 1.6 km/h
Sensor: Nr:Datum:Temp:Abs-Feuchte:Windchill:Wind:
Aussen-T/F 1801 22-01-2020 06:00:00 -2.9 C 3.8 g/m*3 -2.9 C 3.2 km/h
1802 22-01-2020 06:05:00 -2.9 C 3.8 g/m*3 -2.9 C 1.6 km/h
1803 22-01-2020 06:10:00 -2.9 C 3.8 g/m*3 -2.9 C 3.2 km/h
1804 22-01-2020 06:15:00 -3 C 3.77 g/m*3 -3 C 1.6 km/h
1805 22-01-2020 06:20:00 -3 C 3.77 g/m*3 -3 C 3.2 km/h
1806 22-01-2020 06:25:00 -2.9 C 3.8 g/m*3 -2.9 C 1.6 km/h
1807 22-01-2020 06:30:00 -2.9 C 3.8 g/m*3 -2.9 C 1.6 km/h
1808 22-01-2020 06:35:00 -2.9 C 3.8 g/m*3 -2.9 C 4.8 km/h
1809 22-01-2020 06:40:00 -3 C 3.77 g/m*3 -3 C 0 km/h
1810 22-01-2020 06:45:00 -3 C 3.77 g/m*3 -3 C 0 km/h
1811 22-01-2020 06:50:00 -2.9 C 3.8 g/m*3 -2.9 C 0 km/h
1812 22-01-2020 06:55:00 -2.9 C 3.8 g/m*3 -2.9 C 0 km/h
1813 22-01-2020 07:00:00 -2.9 C 3.8 g/m*3 -2.9 C 0 km/h
1814 22-01-2020 07:05:00 -2.9 C 3.8 g/m*3 -2.9 C 0 km/h
1815 22-01-2020 07:10:00 -2.8 C 3.82 g/m*3 -2.8 C 0 km/h
1816 22-01-2020 07:15:00 -2.8 C 3.82 g/m*3 -2.8 C 0 km/h
1817 22-01-2020 07:20:00 -2.8 C 3.86 g/m*3 -2.8 C 0 km/h
1818 22-01-2020 07:25:00 -2.8 C 3.86 g/m*3 -2.8 C 0 km/h
1819 22-01-2020 07:30:00 -2.7 C 3.89 g/m*3 -2.7 C 0 km/h
1820 22-01-2020 07:35:00 -2.7 C 3.89 g/m*3 -2.7 C 3.2 km/h
1821 22-01-2020 07:40:00 -2.6 C 3.92 g/m*3 -2.6 C 0 km/h
1822 22-01-2020 07:45:00 -2.6 C 3.92 g/m*3 -2.6 C 0 km/h
1823 22-01-2020 07:50:00 -2.6 C 3.92 g/m*3 -2.6 C 0 km/h
1824 22-01-2020 07:55:00 -2.4 C 3.98 g/m*3 -2.4 C 1.6 km/h
1825 22-01-2020 08:00:00 -2.4 C 3.98 g/m*3 -2.4 C 0 km/h
Sensor: Nr:Datum:Temp:Abs-Feuchte:Windchill:Wind:
Aussen-T/F 1826 22-01-2020 08:05:00 -2.4 C 3.98 g/m*3 -2.4 C 1.6 km/h
1827 22-01-2020 08:10:00 -2.3 C 4 g/m*3 -2.3 C 4.8 km/h
1828 22-01-2020 08:15:00 -2.3 C 4 g/m*3 -5.47 C 8.1 km/h
1829 22-01-2020 08:20:00 -2.4 C 3.98 g/m*3 -4.95 C 6.4 km/h
1830 22-01-2020 08:25:00 -2.4 C 3.98 g/m*3 -2.4 C 4.8 km/h
1831 22-01-2020 08:30:00 -2.4 C 3.93 g/m*3 -2.4 C 3.2 km/h
1832 22-01-2020 08:35:00 -2.4 C 3.93 g/m*3 -2.4 C 4.8 km/h
1833 22-01-2020 08:40:00 -2.5 C 3.91 g/m*3 -2.5 C 1.6 km/h
1834 22-01-2020 08:45:00 -2.6 C 3.88 g/m*3 -2.6 C 1.6 km/h
1835 22-01-2020 08:50:00 -2.5 C 3.91 g/m*3 -2.5 C 0 km/h
1836 22-01-2020 08:55:00 -2.4 C 3.98 g/m*3 -2.4 C 0 km/h
1837 22-01-2020 09:00:00 -2.4 C 3.98 g/m*3 -2.4 C 0 km/h
1838 22-01-2020 09:05:00 -2.3 C 4 g/m*3 -2.3 C 0 km/h
1839 22-01-2020 09:10:00 -2.3 C 4 g/m*3 -2.3 C 0 km/h
1840 22-01-2020 09:15:00 -2.3 C 4 g/m*3 -2.3 C 0 km/h
1841 22-01-2020 09:20:00 -2.3 C 4 g/m*3 -2.3 C 0 km/h
1842 22-01-2020 09:25:00 -2.3 C 4 g/m*3 -2.3 C 0 km/h
1843 22-01-2020 09:30:00 -2.3 C 4 g/m*3 -2.3 C 0 km/h
1844 22-01-2020 09:35:00 -2.3 C 4 g/m*3 -2.3 C 1.6 km/h
1845 22-01-2020 09:40:00 -2.3 C 4 g/m*3 -2.3 C 4.8 km/h
1846 22-01-2020 09:45:00 -2.3 C 4 g/m*3 -2.3 C 1.6 km/h
1847 22-01-2020 09:50:00 -2.2 C 4.03 g/m*3 -2.2 C 4.8 km/h
1848 22-01-2020 09:55:00 -2.2 C 4.03 g/m*3 -2.2 C 4.8 km/h
1849 22-01-2020 10:00:00 -2.2 C 4.03 g/m*3 -2.2 C 1.6 km/h
1850 22-01-2020 10:05:00 -2.2 C 4.03 g/m*3 -2.2 C 1.6 km/h
Sensor: Nr:Datum:Temp:Abs-Feuchte:Windchill:Wind:
Aussen-T/F 1851 22-01-2020 10:10:00 -2.3 C 4 g/m*3 -2.3 C 4.8 km/h
1852 22-01-2020 10:15:00 -2.3 C 4 g/m*3 -5.47 C 8.1 km/h
1853 22-01-2020 10:20:00 -2.3 C 4 g/m*3 -4.84 C 6.4 km/h
1854 22-01-2020 10:25:00 -2.3 C 4 g/m*3 -4.84 C 6.4 km/h
1855 22-01-2020 10:30:00 -2.3 C 4 g/m*3 -2.3 C 4.8 km/h
1856 22-01-2020 10:35:00 -2.4 C 3.98 g/m*3 -2.4 C 4.8 km/h
1857 22-01-2020 10:40:00 -2.4 C 3.98 g/m*3 -2.4 C 0 km/h
1858 22-01-2020 10:45:00 -2.4 C 3.98 g/m*3 -2.4 C 0 km/h
1859 22-01-2020 10:50:00 -2.4 C 3.98 g/m*3 -2.4 C 0 km/h
1860 22-01-2020 10:55:00 -2.3 C 4 g/m*3 -2.3 C 0 km/h
1861 22-01-2020 11:00:00 -2.3 C 4 g/m*3 -2.3 C 0 km/h
1862 22-01-2020 11:05:00 -2.2 C 4.03 g/m*3 -2.2 C 0 km/h
1863 22-01-2020 11:10:00 -2.1 C 4.06 g/m*3 -2.1 C 0 km/h
1864 22-01-2020 11:15:00 -2 C 4.09 g/m*3 -2 C 0 km/h
1865 22-01-2020 11:20:00 -1.9 C 4.12 g/m*3 -1.9 C 0 km/h
1866 22-01-2020 11:25:00 -1.8 C 4.15 g/m*3 -1.8 C 0 km/h
1867 22-01-2020 11:30:00 -1.7 C 4.18 g/m*3 -1.7 C 0 km/h
1868 22-01-2020 11:35:00 -1.6 C 4.21 g/m*3 -1.6 C 3.2 km/h
1869 22-01-2020 11:40:00 -1.5 C 4.23 g/m*3 -1.5 C 3.2 km/h
1870 22-01-2020 11:45:00 -1.4 C 4.26 g/m*3 -1.4 C 3.2 km/h
1871 22-01-2020 11:50:00 -1.3 C 4.29 g/m*3 -1.3 C 3.2 km/h
1872 22-01-2020 11:55:00 -1.2 C 4.32 g/m*3 -1.2 C 3.2 km/h
1873 22-01-2020 12:00:00 -1.2 C 4.32 g/m*3 -1.2 C 1.6 km/h
1874 22-01-2020 12:05:00 -1.1 C 4.35 g/m*3 -1.1 C 1.6 km/h
1875 22-01-2020 12:10:00 -1 C 4.38 g/m*3 -1 C 0 km/h
Sensor: Nr:Datum:Temp:Abs-Feuchte:Windchill:Wind:
Aussen-T/F 1876 22-01-2020 12:15:00 -0.9 C 4.42 g/m*3 -0.9 C 0 km/h
1877 22-01-2020 12:20:00 -0.9 C 4.42 g/m*3 -0.9 C 3.2 km/h
1878 22-01-2020 12:25:00 -0.9 C 4.42 g/m*3 -0.9 C 3.2 km/h
1879 22-01-2020 12:30:00 -0.9 C 4.42 g/m*3 -0.9 C 3.2 km/h
1880 22-01-2020 12:35:00 -0.9 C 4.42 g/m*3 -0.9 C 1.6 km/h
1881 22-01-2020 12:40:00 -0.9 C 4.42 g/m*3 -0.9 C 1.6 km/h
1882 22-01-2020 12:45:00 -0.8 C 4.45 g/m*3 -0.8 C 1.6 km/h
1883 22-01-2020 12:50:00 -0.8 C 4.45 g/m*3 -0.8 C 1.6 km/h
1884 22-01-2020 12:55:00 -0.8 C 4.45 g/m*3 -0.8 C 1.6 km/h
1885 22-01-2020 13:00:00 -0.7 C 4.48 g/m*3 -0.7 C 3.2 km/h
1886 22-01-2020 13:05:00 -0.7 C 4.48 g/m*3 -0.7 C 3.2 km/h
1887 22-01-2020 13:10:00 -0.6 C 4.56 g/m*3 -0.6 C 0 km/h
1888 22-01-2020 13:15:00 -0.6 C 4.56 g/m*3 -0.6 C 0 km/h
1889 22-01-2020 13:20:00 -0.5 C 4.54 g/m*3 -0.5 C 0 km/h
1890 22-01-2020 13:25:00 -0.4 C 4.57 g/m*3 -0.4 C 0 km/h
1891 22-01-2020 13:30:00 -0.4 C 4.57 g/m*3 -0.4 C 0 km/h
1892 22-01-2020 13:35:00 -0.3 C 4.6 g/m*3 -0.3 C 0 km/h
1893 22-01-2020 13:40:00 -0.3 C 4.6 g/m*3 -0.3 C 1.6 km/h
1894 22-01-2020 13:45:00 -0.3 C 4.65 g/m*3 -0.3 C 0 km/h
1895 22-01-2020 13:50:00 -0.2 C 4.68 g/m*3 -0.2 C 0 km/h
1896 22-01-2020 13:55:00 -0.2 C 4.68 g/m*3 -0.2 C 1.6 km/h
1897 22-01-2020 14:00:00 -0.2 C 4.68 g/m*3 -0.2 C 0 km/h
1898 22-01-2020 14:05:00 -0.2 C 4.68 g/m*3 -0.2 C 0 km/h
1899 22-01-2020 14:10:00 -0.2 C 4.68 g/m*3 -0.2 C 0 km/h
1900 22-01-2020 14:15:00 -0.2 C 4.68 g/m*3 -0.2 C 0 km/h
Sensor: Nr:Datum:Temp:Abs-Feuchte:Windchill:Wind:
Aussen-T/F 1901 22-01-2020 14:20:00 -0.2 C 4.64 g/m*3 -0.2 C 0 km/h
1902 22-01-2020 14:25:00 -0.2 C 4.64 g/m*3 -0.2 C 1.6 km/h
1903 22-01-2020 14:30:00 -0.2 C 4.64 g/m*3 -0.2 C 0 km/h
1904 22-01-2020 14:35:00 -0.2 C 4.64 g/m*3 -0.2 C 0 km/h
1905 22-01-2020 14:40:00 -0.1 C 4.67 g/m*3 -0.1 C 0 km/h
1906 22-01-2020 14:45:00 -0.1 C 4.67 g/m*3 -0.1 C 0 km/h
1907 22-01-2020 14:50:00 -0.1 C 4.67 g/m*3 -0.1 C 0 km/h
1908 22-01-2020 14:55:00 -0.1 C 4.67 g/m*3 -0.1 C 0 km/h
1909 22-01-2020 15:00:00 -0.1 C 4.72 g/m*3 -0.1 C 0 km/h
1910 22-01-2020 15:05:00 0 C 4.75 g/m*3 0 C 0 km/h
1911 22-01-2020 15:10:00 0 C 4.75 g/m*3 0 C 0 km/h
1912 22-01-2020 15:15:00 0 C 4.75 g/m*3 0 C 0 km/h
1913 22-01-2020 15:20:00 0.1 C 4.78 g/m*3 0.1 C 0 km/h
1914 22-01-2020 15:25:00 0.1 C 4.78 g/m*3 0.1 C 0 km/h
1915 22-01-2020 15:30:00 0.1 C 4.73 g/m*3 0.1 C 0 km/h
1916 22-01-2020 15:35:00 0.1 C 4.73 g/m*3 0.1 C 0 km/h
1917 22-01-2020 15:40:00 0.2 C 4.77 g/m*3 0.2 C 0 km/h
1918 22-01-2020 15:45:00 0.2 C 4.77 g/m*3 0.2 C 0 km/h
1919 22-01-2020 15:50:00 0.2 C 4.77 g/m*3 0.2 C 0 km/h
1920 22-01-2020 15:55:00 0.2 C 4.77 g/m*3 0.2 C 0 km/h
1921 22-01-2020 16:00:00 0.2 C 4.77 g/m*3 0.2 C 0 km/h
1922 22-01-2020 16:05:00 0.2 C 4.77 g/m*3 0.2 C 0 km/h
1923 22-01-2020 16:10:00 0.3 C 4.85 g/m*3 0.3 C 0 km/h
1924 22-01-2020 16:15:00 0.3 C 4.85 g/m*3 0.3 C 0 km/h
1925 22-01-2020 16:20:00 0.3 C 4.8 g/m*3 0.3 C 0 km/h
Sensor: Nr:Datum:Temp:Abs-Feuchte:Windchill:Wind:
Aussen-T/F 1926 22-01-2020 16:25:00 0.3 C 4.8 g/m*3 0.3 C 0 km/h
1927 22-01-2020 16:30:00 0.3 C 4.8 g/m*3 0.3 C 0 km/h
1928 22-01-2020 16:35:00 0.3 C 4.85 g/m*3 0.3 C 0 km/h
1929 22-01-2020 16:40:00 0.3 C 4.8 g/m*3 0.3 C 0 km/h
1930 22-01-2020 16:45:00 0.3 C 4.85 g/m*3 0.3 C 0 km/h
1931 22-01-2020 16:50:00 0.3 C 4.8 g/m*3 0.3 C 0 km/h
1932 22-01-2020 16:55:00 0.3 C 4.85 g/m*3 0.3 C 0 km/h
1933 22-01-2020 17:00:00 0.3 C 4.85 g/m*3 0.3 C 0 km/h
1934 22-01-2020 17:05:00 0.3 C 4.85 g/m*3 0.3 C 0 km/h
1935 22-01-2020 17:10:00 0.3 C 4.85 g/m*3 0.3 C 0 km/h
1936 22-01-2020 17:15:00 0.3 C 4.85 g/m*3 0.3 C 0 km/h
1937 22-01-2020 17:20:00 0.3 C 4.85 g/m*3 0.3 C 0 km/h
1938 22-01-2020 17:25:00 0.3 C 4.85 g/m*3 0.3 C 0 km/h
1939 22-01-2020 17:30:00 0.3 C 4.85 g/m*3 0.3 C 0 km/h
1940 22-01-2020 17:35:00 0.3 C 4.85 g/m*3 0.3 C 0 km/h
1941 22-01-2020 17:40:00 0.3 C 4.85 g/m*3 0.3 C 0 km/h
1942 22-01-2020 17:45:00 0.3 C 4.85 g/m*3 0.3 C 0 km/h
1943 22-01-2020 17:50:00 0.3 C 4.85 g/m*3 0.3 C 0 km/h
1944 22-01-2020 17:55:00 0.3 C 4.85 g/m*3 0.3 C 0 km/h
1945 22-01-2020 18:00:00 0.3 C 4.85 g/m*3 0.3 C 0 km/h
1946 22-01-2020 18:05:00 0.3 C 4.85 g/m*3 0.3 C 0 km/h
1947 22-01-2020 18:10:00 0.3 C 4.85 g/m*3 0.3 C 0 km/h
1948 22-01-2020 18:15:00 0.3 C 4.85 g/m*3 0.3 C 0 km/h
1949 22-01-2020 18:20:00 0.3 C 4.85 g/m*3 0.3 C 0 km/h
1950 22-01-2020 18:25:00 0.3 C 4.85 g/m*3 0.3 C 0 km/h
Sensor: Nr:Datum:Temp:Abs-Feuchte:Windchill:Wind:
Aussen-T/F 1951 22-01-2020 18:30:00 0.3 C 4.85 g/m*3 0.3 C 0 km/h
1952 22-01-2020 18:35:00 0.2 C 4.81 g/m*3 0.2 C 0 km/h
1953 22-01-2020 18:40:00 0.2 C 4.77 g/m*3 0.2 C 0 km/h
1954 22-01-2020 18:45:00 0.2 C 4.77 g/m*3 0.2 C 0 km/h
1955 22-01-2020 18:50:00 0.2 C 4.77 g/m*3 0.2 C 0 km/h
1956 22-01-2020 18:55:00 0.2 C 4.77 g/m*3 0.2 C 0 km/h
1957 22-01-2020 19:00:00 0.3 C 4.85 g/m*3 0.3 C 0 km/h
1958 22-01-2020 19:05:00 0.3 C 4.85 g/m*3 0.3 C 0 km/h
1959 22-01-2020 19:10:00 0.3 C 4.85 g/m*3 0.3 C 0 km/h
1960 22-01-2020 19:15:00 0.3 C 4.85 g/m*3 0.3 C 0 km/h
1961 22-01-2020 19:20:00 0.3 C 4.85 g/m*3 0.3 C 0 km/h
1962 22-01-2020 19:25:00 0.3 C 4.85 g/m*3 0.3 C 0 km/h
1963 22-01-2020 19:30:00 0.4 C 4.88 g/m*3 0.4 C 0 km/h
1964 22-01-2020 19:35:00 0.4 C 4.88 g/m*3 0.4 C 0 km/h
1965 22-01-2020 19:40:00 0.4 C 4.88 g/m*3 0.4 C 0 km/h
1966 22-01-2020 19:45:00 0.4 C 4.88 g/m*3 0.4 C 0 km/h
1967 22-01-2020 19:50:00 0.4 C 4.88 g/m*3 0.4 C 0 km/h
1968 22-01-2020 19:55:00 0.4 C 4.88 g/m*3 0.4 C 0 km/h
1969 22-01-2020 20:00:00 0.5 C 4.91 g/m*3 0.5 C 0 km/h
1970 22-01-2020 20:05:00 0.5 C 4.91 g/m*3 0.5 C 0 km/h
1971 22-01-2020 20:10:00 0.5 C 4.91 g/m*3 0.5 C 0 km/h
1972 22-01-2020 20:15:00 0.5 C 4.91 g/m*3 0.5 C 0 km/h
1973 22-01-2020 20:20:00 0.5 C 4.91 g/m*3 0.5 C 0 km/h
1974 22-01-2020 20:25:00 0.6 C 4.95 g/m*3 0.6 C 0 km/h
1975 22-01-2020 20:30:00 0.6 C 4.95 g/m*3 0.6 C 0 km/h
Sensor: Nr:Datum:Temp:Abs-Feuchte:Windchill:Wind:
Aussen-T/F 1976 22-01-2020 20:35:00 0.6 C 4.95 g/m*3 0.6 C 0 km/h
1977 22-01-2020 20:40:00 0.6 C 4.95 g/m*3 0.6 C 0 km/h
1978 22-01-2020 20:45:00 0.6 C 4.95 g/m*3 0.6 C 0 km/h
1979 22-01-2020 20:50:00 0.6 C 4.95 g/m*3 0.6 C 0 km/h
1980 22-01-2020 20:55:00 0.6 C 4.95 g/m*3 0.6 C 0 km/h
1981 22-01-2020 21:00:00 0.6 C 4.95 g/m*3 0.6 C 0 km/h
1982 22-01-2020 21:05:00 0.6 C 4.95 g/m*3 0.6 C 0 km/h
1983 22-01-2020 21:10:00 0.6 C 4.95 g/m*3 0.6 C 0 km/h
1984 22-01-2020 21:15:00 0.6 C 4.95 g/m*3 0.6 C 0 km/h
1985 22-01-2020 21:20:00 0.7 C 4.98 g/m*3 0.7 C 0 km/h
1986 22-01-2020 21:25:00 0.7 C 4.98 g/m*3 0.7 C 0 km/h
1987 22-01-2020 21:30:00 0.7 C 4.98 g/m*3 0.7 C 0 km/h
1988 22-01-2020 21:35:00 0.7 C 4.98 g/m*3 0.7 C 0 km/h
1989 22-01-2020 21:40:00 0.7 C 4.98 g/m*3 0.7 C 0 km/h
1990 22-01-2020 21:45:00 0.7 C 4.98 g/m*3 0.7 C 0 km/h
1991 22-01-2020 21:50:00 0.7 C 4.98 g/m*3 0.7 C 0 km/h
1992 22-01-2020 21:55:00 0.7 C 4.98 g/m*3 0.7 C 0 km/h
1993 22-01-2020 22:00:00 0.7 C 4.98 g/m*3 0.7 C 0 km/h
1994 22-01-2020 22:05:00 0.7 C 4.98 g/m*3 0.7 C 0 km/h
1995 22-01-2020 22:10:00 0.7 C 4.98 g/m*3 0.7 C 0 km/h
1996 22-01-2020 22:15:00 0.7 C 4.98 g/m*3 0.7 C 0 km/h
1997 22-01-2020 22:20:00 0.7 C 4.98 g/m*3 0.7 C 0 km/h
1998 22-01-2020 22:25:00 0.7 C 4.98 g/m*3 0.7 C 0 km/h
1999 22-01-2020 22:30:00 0.7 C 4.98 g/m*3 0.7 C 0 km/h
2000 22-01-2020 22:35:00 0.7 C 4.98 g/m*3 0.7 C 0 km/h
Sensor: Nr:Datum:Temp:Abs-Feuchte:Windchill:Wind:
Aussen-T/F 2001 22-01-2020 22:40:00 0.7 C 4.98 g/m*3 0.7 C 0 km/h
2002 22-01-2020 22:45:00 0.8 C 5.02 g/m*3 0.8 C 0 km/h
2003 22-01-2020 22:50:00 0.8 C 5.02 g/m*3 0.8 C 0 km/h
2004 22-01-2020 22:55:00 0.8 C 5.02 g/m*3 0.8 C 0 km/h
2005 22-01-2020 23:00:00 0.8 C 5.02 g/m*3 0.8 C 0 km/h
2006 22-01-2020 23:05:00 0.8 C 5.02 g/m*3 0.8 C 0 km/h
2007 22-01-2020 23:10:00 0.8 C 5.02 g/m*3 0.8 C 0 km/h
2008 22-01-2020 23:15:00 0.8 C 5.02 g/m*3 0.8 C 0 km/h
2009 22-01-2020 23:20:00 0.8 C 5.02 g/m*3 0.8 C 0 km/h
2010 22-01-2020 23:25:00 0.8 C 5.02 g/m*3 0.8 C 0 km/h
2011 22-01-2020 23:30:00 0.8 C 5.02 g/m*3 0.8 C 0 km/h
2012 22-01-2020 23:35:00 0.8 C 5.02 g/m*3 0.8 C 0 km/h
2013 22-01-2020 23:40:00 0.8 C 5.02 g/m*3 0.8 C 0 km/h
2014 22-01-2020 23:45:00 0.8 C 5.02 g/m*3 0.8 C 0 km/h
2015 22-01-2020 23:50:00 0.8 C 5.02 g/m*3 0.8 C 0 km/h
2016 22-01-2020 23:55:00 0.8 C 5.02 g/m*3 0.8 C 0 km/h

Legende:
   Min
   Max


Maximal/Minimal-Werte vom 16.01.2020 - 22.01.2020

Sensor Min Max Avg
Temp
(Aussen-T/F)
-3.3 °C
21-01-2020  05:25:00
9.9 °C
17-01-2020  14:25:00
3.07 °C
Abs-Feuchte
(Aussen-T/F)
3.65 g/m*3
21-01-2020  05:25:00
8.61 g/m*3
16-01-2020  14:40:00
5.72 g/m*3
Windchill
(Aussen-T/F)
-5.47 C
22-01-2020  08:15:00
9.9 C
17-01-2020  14:30:00
2.83 C

Die Daten stammen von einer Davis Vantage Pro 2 Wetter-Station und werden unter Linux mit der Software wview2wettercgi und aufbereitet. Alle Angaben erfolgen ohne Gewähr für ihre Vollständigkeit oder Richtigkeit.
Kontakt: Rainer Krienke krienke@uni-koblenz.de . Meine Webseiten an der Uni Koblenz oder privat.
Version: $Revision: 0.78 $